Provisional Data: Little Chiques Creek near Mount Joy, PA


Please select a monitoring station.
Please select start date.
Please select start date.

Toggle Unit: C/F Toggle Unit: C/F
Sample Time Temperature (C) Temperature (F) Specific Conductivity (mS/cm) pH   Turbidity (NTU+) DO (mg/L)
3/23/2021 12:00:00 AM 9.66 49.388 0.367 7.72 4.51 10.63
3/23/2021 12:15:00 AM 9.61 49.298 0.367 7.71 4.53 10.63
3/23/2021 12:30:00 AM 9.54 49.172 0.367 7.7 4.63 10.61
3/23/2021 12:45:00 AM 9.49 49.082 0.367 7.69 4.63 10.57
3/23/2021 1:00:00 AM 9.43 48.974 0.367 7.69 4.83 10.59
3/23/2021 1:15:00 AM 9.37 48.866 0.367 7.68 4.85 10.57
3/23/2021 1:30:00 AM 9.32 48.776 0.367 7.67 4.92 10.59
3/23/2021 1:45:00 AM 9.26 48.668 0.367 7.66 4.81 10.55
3/23/2021 2:00:00 AM 9.21 48.578 0.367 7.66 4.95 10.59
3/23/2021 2:15:00 AM 9.15 48.47 0.368 7.65 4.74 10.58
3/23/2021 2:30:00 AM 9.1 48.38 0.367 7.64 4.98 10.58
3/23/2021 2:45:00 AM 9.04 48.272 0.367 7.64 4.84 10.52
3/23/2021 3:00:00 AM 8.99 48.182 0.367 7.64 4.95 10.58
3/23/2021 3:15:00 AM 8.93 48.074 0.367 7.63 4.91 10.61
3/23/2021 3:30:00 AM 8.88 47.984 0.367 7.63 4.94 10.59
3/23/2021 3:45:00 AM 8.82 47.876 0.367 7.63 5.09 10.61
3/23/2021 4:00:00 AM 8.76 47.768 0.367 7.62 5.22 10.6
3/23/2021 4:15:00 AM 8.71 47.678 0.367 7.62 5.51 10.61
3/23/2021 4:30:00 AM 8.65 47.57 0.367 7.61 5.11 10.63
3/23/2021 4:45:00 AM 8.58 47.444 0.368 7.6 5.24 10.65
3/23/2021 5:00:00 AM 8.52 47.336 0.367 7.6 5.38 10.66
3/23/2021 5:15:00 AM 8.46 47.228 0.367 7.6 5.43 10.65
3/23/2021 5:30:00 AM 8.4 47.12 0.368 7.59 5.34 10.66
3/23/2021 5:45:00 AM 8.34 47.012 0.367 7.59 5.23 10.7
3/23/2021 6:00:00 AM 8.28 46.904 0.367 7.59 5.27 10.72
3/23/2021 6:15:00 AM 8.22 46.796 0.367 7.58 5.34 10.71
3/23/2021 6:30:00 AM 8.15 46.67 0.367 7.58 5.31 10.69
3/23/2021 6:45:00 AM 8.09 46.562 0.367 7.58 5.19 10.74
3/23/2021 7:00:00 AM 8.03 46.454 0.367 7.58 5.19 10.74
3/23/2021 7:15:00 AM 7.97 46.346 0.367 7.57 5.14 10.84
3/23/2021 7:30:00 AM 7.91 46.238 0.367 7.58 5.04 10.93
3/23/2021 7:45:00 AM 7.87 46.166 0.367 7.58 4.98 11.01
3/23/2021 8:00:00 AM 7.84 46.112 0.367 7.59 4.64 11.13
3/23/2021 8:15:00 AM 7.83 46.094 0.367 7.62 4.71 11.26
3/23/2021 8:30:00 AM 7.83 46.094 0.367 7.64 4.81 11.47
3/23/2021 8:45:00 AM 7.86 46.148 0.367 7.66 4.36 11.73
3/23/2021 9:00:00 AM 7.9 46.22 0.366 7.69 4.21 11.88
3/23/2021 9:15:00 AM 7.96 46.328 0.366 7.72 4.27 12.1
3/23/2021 9:30:00 AM 8.02 46.436 0.366 7.75 4.19 12.27
3/23/2021 9:45:00 AM 8.09 46.562 0.366 7.78 3.98 12.4
3/23/2021 10:00:00 AM 8.18 46.724 0.366 7.81 4.3 12.58
3/23/2021 10:15:00 AM 8.29 46.922 0.365 7.84 4.22 12.72
3/23/2021 10:30:00 AM 8.41 47.138 0.365 7.88 4.38 12.82
3/23/2021 10:45:00 AM 8.55 47.39 0.365 7.91 4.37 12.96
3/23/2021 11:00:00 AM 8.69 47.642 0.365 7.95 4.29 13.09
3/23/2021 11:15:00 AM 8.8 47.84 0.364 7.97 5.25 13.21
3/23/2021 11:30:00 AM 8.95 48.11 0.365 8.02 4.55 13.3
3/23/2021 11:45:00 AM 9.11 48.398 0.364 8.05 4.27 13.45
3/23/2021 12:00:00 PM 9.29 48.722 0.364 8.08 4.46 13.48
3/23/2021 12:15:00 PM 9.49 49.082 0.364 8.12 4.47 13.51
3/23/2021 12:30:00 PM 9.71 49.478 0.364 8.15 4.49 13.65
3/23/2021 12:45:00 PM 9.92 49.856 0.363 8.19 4.43 13.68
3/23/2021 1:00:00 PM 10.1 50.18 0.363 8.22 4.54 13.76
3/23/2021 1:15:00 PM 10.22 50.396 0.363 8.24 4.48 13.79
3/23/2021 1:30:00 PM 10.38 50.684 0.363 8.28 4.28 13.87
3/23/2021 1:45:00 PM 10.54 50.972 0.362 8.32 4.58 13.88
3/23/2021 2:00:00 PM 10.74 51.332 0.361 8.35 4.63 13.97
3/23/2021 2:15:00 PM 10.88 51.584 0.361 8.37 4.4 13.96
3/23/2021 2:30:00 PM 10.98 51.764 0.361 8.4 4.52 13.99
3/23/2021 2:45:00 PM 11.07 51.926 0.361 8.43 4.37 13.99
3/23/2021 3:00:00 PM 11.11 51.998 0.361 8.45 4.49 14.03
3/23/2021 3:15:00 PM 11.17 52.106 0.361 8.48 4.38 13.98
3/23/2021 3:30:00 PM 11.23 52.214 0.361 8.5 4.07 13.98
3/23/2021 3:45:00 PM 11.35 52.43 0.361 8.53 4.17 13.97
3/23/2021 4:00:00 PM 11.38 52.484 0.361 8.53 4.42 13.93
3/23/2021 4:15:00 PM 11.38 52.484 0.361 8.53 4.33 13.76
3/23/2021 4:30:00 PM 11.41 52.538 0.361 8.53 4.38 13.66
3/23/2021 4:45:00 PM 11.43 52.574 0.361 8.54 4.3 13.64
3/23/2021 5:00:00 PM 11.45 52.61 0.361 8.54 4.41 13.62
3/23/2021 5:15:00 PM 9.92 49.856 0.314 7.4 3.68 11.77
3/23/2021 5:30:00 PM 11.23 52.214 0.355 8.37 4.41 13.13
3/23/2021 5:45:00 PM 11.39 52.502 0.36 8.49 4.45 13.17
3/23/2021 6:00:00 PM 11.4 52.52 0.361 8.48 4.5 13.05
3/23/2021 6:15:00 PM 9.88 49.784 0.315 7.31 3.63 11.08
3/23/2021 6:30:00 PM 11.18 52.124 0.355 8.25 4.34 12.22
3/23/2021 6:45:00 PM 11.34 52.412 0.361 8.34 4.44 12.41
3/23/2021 7:00:00 PM 11.35 52.43 0.362 8.32 4.57 12.26
3/23/2021 7:15:00 PM 11.34 52.412 0.362 8.28 4.48 12.07
3/23/2021 7:30:00 PM 11.31 52.358 0.362 8.24 4.37 11.93
3/23/2021 7:45:00 PM 11.28 52.304 0.362 8.2 4.5 11.72
3/23/2021 8:00:00 PM 11.25 52.25 0.363 8.15 4.86 11.54
3/23/2021 8:15:00 PM 11.21 52.178 0.363 8.12 4.58 11.42
3/23/2021 8:30:00 PM 11.18 52.124 0.363 8.09 4.54 11.3
3/23/2021 8:45:00 PM 11.16 52.088 0.363 8.07 4.56 11.09
3/23/2021 9:00:00 PM 11.14 52.052 0.363 8.05 4.71 11.07
3/23/2021 9:15:00 PM 11.12 52.016 0.363 8.02 4.71 11
3/23/2021 9:30:00 PM 11.11 51.998 0.363 8.01 4.82 10.95
3/23/2021 9:45:00 PM 11.08 51.944 0.363 7.99 4.45 10.88
3/23/2021 10:00:00 PM 11.06 51.908 0.363 7.96 4.73 10.78
3/23/2021 10:15:00 PM 11.03 51.854 0.363 7.94 4.64 10.7
3/23/2021 10:30:00 PM 11 51.8 0.363 7.92 4.59 10.64
3/23/2021 10:45:00 PM 9.52 49.136 0.316 6.85 3.73 9.18
3/23/2021 11:00:00 PM 10.75 51.35 0.357 7.75 4.71 10.32
3/23/2021 11:15:00 PM 10.89 51.602 0.362 7.85 4.58 10.42
3/23/2021 11:30:00 PM 10.89 51.602 0.363 7.86 4.61 10.42
3/23/2021 11:45:00 PM 10.87 51.566 0.363 7.85 4.64 10.4
3/24/2021 12:00:00 AM 10.85 51.53 0.363 7.84 4.6 10.35
3/24/2021 12:15:00 AM 10.82 51.476 0.363 7.83 4.7 10.3
3/24/2021 12:30:00 AM 10.81 51.458 0.364 7.81 4.72 10.26
3/24/2021 12:45:00 AM 10.8 51.44 0.363 7.81 4.71 10.26
3/24/2021 1:00:00 AM 10.8 51.44 0.363 7.79 4.61 10.22
3/24/2021 1:15:00 AM 10.79 51.422 0.364 7.79 4.7 10.21
3/24/2021 1:30:00 AM 10.78 51.404 0.363 7.79 4.81 10.15
3/24/2021 1:45:00 AM 10.77 51.386 0.364 7.78 4.9 10.14
3/24/2021 2:00:00 AM 10.76 51.368 0.364 7.77 4.97 10.15
3/24/2021 2:15:00 AM 9.32 48.776 0.316 6.73 4.17 8.76
3/24/2021 2:30:00 AM 10.55 50.99 0.357 7.62 5.12 9.9
3/24/2021 2:45:00 AM 10.7 51.26 0.363 7.74 7.51 10.04
3/24/2021 3:00:00 AM 10.71 51.278 0.363 7.75 5.71 10.07
3/24/2021 3:15:00 AM 10.7 51.26 0.364 7.75 5.28 10.07
3/24/2021 3:30:00 AM 10.69 51.242 0.364 7.74 5.15 10.06
3/24/2021 3:45:00 AM 10.69 51.242 0.364 7.74 5.2 10.03
3/24/2021 4:00:00 AM 10.69 51.242 0.364 7.74 5.08 10.03
3/24/2021 4:15:00 AM 10.69 51.242 0.364 7.73 5.03 10.01
3/24/2021 4:30:00 AM 10.69 51.242 0.364 7.73 5.14 9.99
3/24/2021 4:45:00 AM 10.69 51.242 0.364 7.72 5.26 9.99
3/24/2021 5:00:00 AM 10.69 51.242 0.364 7.72 5.2 9.97
3/24/2021 5:15:00 AM 10.69 51.242 0.364 7.72 5.23 9.96
3/24/2021 5:30:00 AM 10.69 51.242 0.364 7.72 6 9.97
3/24/2021 5:45:00 AM 10.68 51.224 0.364 7.71 5.38 9.99
3/24/2021 6:00:00 AM 10.68 51.224 0.364 7.71 5.17 9.95
3/24/2021 6:15:00 AM 10.67 51.206 0.364 7.71 5.63 9.96
3/24/2021 6:30:00 AM 10.66 51.188 0.364 7.7 5.3 9.94
3/24/2021 6:45:00 AM 10.65 51.17 0.364 7.7 5.22 9.92
3/24/2021 7:00:00 AM 10.64 51.152 0.364 7.7 5.05 9.92
3/24/2021 7:15:00 AM 10.63 51.134 0.364 7.69 4.97 9.92
3/24/2021 7:30:00 AM 10.63 51.134 0.364 7.7 5.06 9.98
3/24/2021 7:45:00 AM 10.62 51.116 0.364 7.7 4.87 9.98
3/24/2021 8:00:00 AM 10.61 51.098 0.364 7.7 4.86 9.99
3/24/2021 8:15:00 AM 10.61 51.098 0.364 7.71 4.82 10.04
3/24/2021 8:30:00 AM 10.6 51.08 0.363 7.71 4.64 10.11
3/24/2021 8:45:00 AM 10.6 51.08 0.363 7.72 4.79 10.14
3/24/2021 9:00:00 AM 10.6 51.08 0.363 7.72 4.64 10.18
3/24/2021 9:15:00 AM 10.6 51.08 0.363 7.72 4.69 10.29
3/24/2021 9:30:00 AM 10.6 51.08 0.363 7.72 4.56 10.31
3/24/2021 9:45:00 AM 10.61 51.098 0.363 7.72 4.45 10.36
3/24/2021 10:00:00 AM 10.61 51.098 0.362 7.73 4.44 10.4
3/24/2021 10:15:00 AM 10.61 51.098 0.362 7.73 4.44 10.43
3/24/2021 10:30:00 AM 10.61 51.098 0.362 7.74 4.37 10.56
3/24/2021 10:45:00 AM 10.63 51.134 0.361 7.76 4.48 10.74
3/24/2021 11:00:00 AM 10.66 51.188 0.361 7.79 4.52 10.95
3/24/2021 11:15:00 AM 10.69 51.242 0.36 7.82 4.36 11.13
3/24/2021 11:30:00 AM 10.7 51.26 0.36 7.83 4.28 11.2
3/24/2021 11:45:00 AM 10.71 51.278 0.36 7.85 4.38 11.25
3/24/2021 12:00:00 PM 10.72 51.296 0.358 7.86 5.56 11.3
3/24/2021 12:15:00 PM 10.73 51.314 0.356 7.86 7.03 11.26
3/24/2021 12:30:00 PM 10.72 51.296 0.354 7.86 9.87 11.17
3/24/2021 12:45:00 PM 10.72 51.296 0.352 7.85 11 11.08
3/24/2021 1:00:00 PM 10.72 51.296 0.35 7.85 10.93 11.13
3/24/2021 1:15:00 PM 10.72 51.296 0.35 7.85 10.68 11.13
3/24/2021 1:30:00 PM 10.72 51.296 0.349 7.85 9.76 11.19
3/24/2021 1:45:00 PM 10.73 51.314 0.348 7.86 9.34 11.23
3/24/2021 2:00:00 PM 10.73 51.314 0.347 7.86 9.22 11.28
3/24/2021 2:15:00 PM 10.74 51.332 0.345 7.88 9.74 11.33
3/24/2021 2:30:00 PM 10.76 51.368 0.343 7.9 10.47 11.37
3/24/2021 2:45:00 PM 10.77 51.386 0.34 7.92 11.58 11.4
3/24/2021 3:00:00 PM 10.77 51.386 0.337 7.92 14.79 11.42
3/24/2021 3:15:00 PM 10.75 51.35 0.333 7.91 20.15 11.35
3/24/2021 3:30:00 PM 10.7 51.26 0.329 7.89 26.26 11.21
3/24/2021 3:45:00 PM 10.64 51.152 0.324 7.87 32.17 11.14
3/24/2021 4:00:00 PM 10.61 51.098 0.321 7.86 39.31 11.09
3/24/2021 4:15:00 PM 10.59 51.062 0.318 7.83 52.71 10.94
3/24/2021 4:30:00 PM 10.59 51.062 0.311 7.79 81.41 10.81
3/24/2021 4:45:00 PM 10.59 51.062 0.302 7.77 105.2 10.74
3/24/2021 5:00:00 PM 10.6 51.08 0.293 7.76 108.08 10.71
3/24/2021 5:15:00 PM 10.64 51.152 0.288 7.76 100.72 10.72
3/24/2021 5:30:00 PM 10.66 51.188 0.283 7.75 97.01 10.69
3/24/2021 5:45:00 PM 10.66 51.188 0.276 7.74 109.87 10.66
3/24/2021 6:00:00 PM 10.66 51.188 0.269 7.71 145.44 10.55
3/24/2021 6:15:00 PM 10.68 51.224 0.263 7.7 194.18 10.48
3/24/2021 6:30:00 PM 10.7 51.26 0.256 7.68 219 10.38
3/24/2021 6:45:00 PM 10.71 51.278 0.249 7.67 211.17 10.35
3/24/2021 7:00:00 PM 10.71 51.278 0.245 7.66 197.16 10.38
3/24/2021 7:15:00 PM 10.7 51.26 0.242 7.67 198.89 10.37
3/24/2021 7:30:00 PM 10.69 51.242 0.241 7.68 192.63 10.38
3/24/2021 7:45:00 PM 10.68 51.224 0.24 7.67 189.1 10.43
3/24/2021 8:00:00 PM 10.67 51.206 0.24 7.65 182.66 10.41
3/24/2021 8:15:00 PM 10.66 51.188 0.241 7.62 174.84 10.41
3/24/2021 8:30:00 PM 10.65 51.17 0.242 7.6 165.35 10.3
3/24/2021 8:45:00 PM 10.64 51.152 0.243 7.58 152.19 10.39
3/24/2021 9:00:00 PM 10.64 51.152 0.244 7.57 141.57 10.37
3/24/2021 9:15:00 PM 10.64 51.152 0.245 7.57 134.03 10.31
3/24/2021 9:30:00 PM 10.63 51.134 0.247 7.56 125.51 10.31
3/24/2021 9:45:00 PM 10.63 51.134 0.248 7.56 116.29 10.31
3/24/2021 10:00:00 PM 10.63 51.134 0.248 7.55 111.43 10.31
3/24/2021 10:15:00 PM 10.62 51.116 0.249 7.55 104.09 10.31
3/24/2021 10:30:00 PM 10.62 51.116 0.249 7.55 101.15 10.33
3/24/2021 10:45:00 PM 10.61 51.098 0.249 7.54 96.8 10.32
3/24/2021 11:00:00 PM 10.6 51.08 0.25 7.54 91.98 10.3
3/24/2021 11:15:00 PM 10.6 51.08 0.25 7.53 89.73 10.31
3/24/2021 11:30:00 PM 10.59 51.062 0.25 7.52 89.86 10.29
3/24/2021 11:45:00 PM 10.59 51.062 0.251 7.53 85.11 10.27
3/25/2021 12:00:00 AM 10.58 51.044 0.252 7.52 82.57 10.26
3/25/2021 12:15:00 AM 10.57 51.026 0.253 7.52 80 10.28
3/25/2021 12:30:00 AM 10.56 51.008 0.254 7.51 76.87 10.26
3/25/2021 12:45:00 AM 10.55 50.99 0.256 7.51 74.49 10.25
3/25/2021 1:00:00 AM 9.13 48.434 0.225 6.51 61.02 8.91
3/25/2021 1:15:00 AM 10.34 50.612 0.256 7.37 67.02 10.08
3/25/2021 1:30:00 AM 10.49 50.882 0.262 7.49 65.05 10.26
3/25/2021 1:45:00 AM 10.5 50.9 0.265 7.5 62.53 10.27
3/25/2021 2:00:00 AM 10.5 50.9 0.267 7.5 60.8 10.2
3/25/2021 2:15:00 AM 10.49 50.882 0.27 7.5 57.87 10.28
3/25/2021 2:30:00 AM 10.48 50.864 0.272 7.5 55.49 10.27
3/25/2021 2:45:00 AM 10.47 50.846 0.274 7.49 53.61 10.25
3/25/2021 3:00:00 AM 10.47 50.846 0.274 7.5 51.38 10.25
3/25/2021 3:15:00 AM 10.46 50.828 0.277 7.49 49.69 10.31
3/25/2021 3:30:00 AM 10.45 50.81 0.279 7.49 48.11 10.25
3/25/2021 3:45:00 AM 10.44 50.792 0.28 7.5 46.56 10.28
3/25/2021 4:00:00 AM 10.43 50.774 0.281 7.49 44.16 10.26
3/25/2021 4:15:00 AM 10.43 50.774 0.283 7.5 42.51 10.25
3/25/2021 4:30:00 AM 10.42 50.756 0.284 7.5 40.49 10.29
3/25/2021 4:45:00 AM 10.41 50.738 0.285 7.5 39.48 10.29
3/25/2021 5:00:00 AM 10.4 50.72 0.286 7.49 38.44 10.28
3/25/2021 5:15:00 AM 10.39 50.702 0.287 7.5 36.69 10.29
3/25/2021 5:30:00 AM 10.38 50.684 0.288 7.5 36.32 10.32
3/25/2021 5:45:00 AM 10.37 50.666 0.289 7.5 34.21 10.29
3/25/2021 6:00:00 AM 10.36 50.648 0.29 7.5 33.82 10.3
3/25/2021 6:15:00 AM 10.35 50.63 0.291 7.5 32.41 10.34
3/25/2021 6:30:00 AM 10.34 50.612 0.292 7.5 31.63 10.29
3/25/2021 6:45:00 AM 10.34 50.612 0.293 7.51 30.2 10.32
3/25/2021 7:00:00 AM 10.33 50.594 0.294 7.5 29.59 10.33
3/25/2021 7:15:00 AM 10.32 50.576 0.295 7.5 28.52 10.34
3/25/2021 7:30:00 AM 8.94 48.092 0.258 6.5 24.14 8.93
3/25/2021 7:45:00 AM 10.13 50.234 0.293 7.37 79.62 10.18
3/25/2021 8:00:00 AM 10.29 50.522 0.298 7.49 33.07 10.33
3/25/2021 8:15:00 AM 10.32 50.576 0.3 7.51 25.85 10.37
3/25/2021 8:30:00 AM 10.33 50.594 0.301 7.52 24.26 10.41
3/25/2021 8:45:00 AM 10.36 50.648 0.302 7.52 23 10.46
3/25/2021 9:00:00 AM 10.38 50.684 0.303 7.53 22.34 10.5
3/25/2021 9:15:00 AM 10.41 50.738 0.304 7.54 21.95 10.54
3/25/2021 9:30:00 AM 10.43 50.774 0.305 7.55 21.15 10.57
3/25/2021 9:45:00 AM 10.48 50.864 0.306 7.56 20.55 10.59
3/25/2021 10:00:00 AM 10.51 50.918 0.307 7.57 19.66 10.68
3/25/2021 10:15:00 AM 10.54 50.972 0.308 7.58 19.4 10.71
3/25/2021 10:30:00 AM 10.56 51.008 0.309 7.58 18.57 10.72
3/25/2021 10:45:00 AM 10.59 51.062 0.31 7.59 18.05 10.77
3/25/2021 11:00:00 AM 10.62 51.116 0.311 7.6 17.48 10.78
3/25/2021 11:15:00 AM 10.68 51.224 0.311 7.61 17.41 10.84
3/25/2021 11:30:00 AM 10.73 51.314 0.312 7.62 16.28 10.91
3/25/2021 11:45:00 AM 10.79 51.422 0.313 7.64 16.11 10.94
3/25/2021 12:00:00 PM 10.85 51.53 0.313 7.65 15.58 11.02
3/25/2021 12:15:00 PM 10.91 51.638 0.314 7.66 14.71 11.06
3/25/2021 12:30:00 PM 10.98 51.764 0.315 7.68 14.63 11.07
3/25/2021 12:45:00 PM 11.04 51.872 0.316 7.7 14.53 11.13
3/25/2021 1:00:00 PM 11.1 51.98 0.316 7.72 14.42 11.2
3/25/2021 1:15:00 PM 11.18 52.124 0.317 7.75 13.88 11.24
3/25/2021 1:30:00 PM 11.27 52.286 0.317 7.76 13.49 11.26
3/25/2021 1:45:00 PM 11.35 52.43 0.318 7.78 13.02 11.28
3/25/2021 2:00:00 PM 11.42 52.556 0.318 7.8 13.01 11.29
3/25/2021 2:15:00 PM 11.48 52.664 0.318 7.81 12.8 11.36
3/25/2021 2:30:00 PM 11.53 52.754 0.319 7.82 12.71 11.34
3/25/2021 2:45:00 PM 11.58 52.844 0.319 7.84 12.19 11.37
3/25/2021 3:00:00 PM 11.68 53.024 0.32 7.86 12.01 11.34
3/25/2021 3:15:00 PM 11.79 53.222 0.32 7.87 11.62 11.41
3/25/2021 3:30:00 PM 11.91 53.438 0.321 7.89 11.51 11.45
3/25/2021 3:45:00 PM 12.01 53.618 0.321 7.91 11.32 11.47
3/25/2021 4:00:00 PM 12.06 53.708 0.321 7.91 11.48 11.45
3/25/2021 4:15:00 PM 12.09 53.762 0.322 7.91 11.16 11.41
3/25/2021 4:30:00 PM 12.14 53.852 0.322 7.92 10.88 11.37
3/25/2021 4:45:00 PM 12.19 53.942 0.323 7.92 11.01 11.36
3/25/2021 5:00:00 PM 12.23 54.014 0.323 7.93 10.94 11.3
3/25/2021 5:15:00 PM 12.29 54.122 0.324 7.92 10.79 11.29
3/25/2021 5:30:00 PM 12.34 54.212 0.324 7.93 10.45 11.23
3/25/2021 5:45:00 PM 12.38 54.284 0.324 7.92 10.58 11.16
3/25/2021 6:00:00 PM 12.41 54.338 0.325 7.91 10.59 11.1
3/25/2021 6:15:00 PM 12.44 54.392 0.325 7.9 10.62 11.02
3/25/2021 6:30:00 PM 12.46 54.428 0.325 7.89 10.48 10.91
3/25/2021 6:45:00 PM 12.47 54.446 0.325 7.88 9.98 10.88
3/25/2021 7:00:00 PM 12.49 54.482 0.326 7.87 10.43 10.79
3/25/2021 7:15:00 PM 12.5 54.5 0.326 7.85 10.35 10.68
3/25/2021 7:30:00 PM 12.5 54.5 0.326 7.84 10.31 10.6
3/25/2021 7:45:00 PM 12.5 54.5 0.327 7.83 10.31 10.54
3/25/2021 8:00:00 PM 12.5 54.5 0.327 7.82 10.51 10.45
3/25/2021 8:15:00 PM 12.49 54.482 0.328 7.81 10.36 10.39
3/25/2021 8:30:00 PM 12.49 54.482 0.328 7.8 10.46 10.35
3/25/2021 8:45:00 PM 12.48 54.464 0.328 7.79 10.45 10.32
3/25/2021 9:00:00 PM 12.47 54.446 0.328 7.78 10.34 10.25
3/25/2021 9:15:00 PM 12.47 54.446 0.328 7.77 10.5 10.26
3/25/2021 9:30:00 PM 12.47 54.446 0.329 7.76 10.41 10.18
3/25/2021 9:45:00 PM 12.46 54.428 0.329 7.76 10.45 10.13
3/25/2021 10:00:00 PM 12.46 54.428 0.329 7.75 10.46 10.11
3/25/2021 10:15:00 PM 12.46 54.428 0.33 7.75 10.29 10.09
3/25/2021 10:30:00 PM 12.46 54.428 0.33 7.74 10.02 10.06
3/25/2021 10:45:00 PM 12.47 54.446 0.33 7.74 10.34 10.04
3/25/2021 11:00:00 PM 12.47 54.446 0.33 7.74 10.51 10.02
3/25/2021 11:15:00 PM 12.46 54.428 0.33 7.74 10.38 9.99
3/25/2021 11:30:00 PM 12.46 54.428 0.331 7.73 10.37 9.99
3/25/2021 11:45:00 PM 12.45 54.41 0.331 7.72 10.43 9.94
3/26/2021 12:00:00 AM 12.45 54.41 0.331 7.72 10.36 9.92
3/26/2021 12:15:00 AM 12.45 54.41 0.331 7.71 10.45 9.9
3/26/2021 12:30:00 AM 12.44 54.392 0.331 7.72 10.45 9.89
3/26/2021 12:45:00 AM 12.44 54.392 0.331 7.72 10.49 9.89
3/26/2021 1:00:00 AM 12.44 54.392 0.332 7.71 10.42 9.9
3/26/2021 1:15:00 AM 12.43 54.374 0.332 7.71 10.53 9.86
3/26/2021 1:30:00 AM 12.42 54.356 0.332 7.71 10.53 9.85
3/26/2021 1:45:00 AM 12.42 54.356 0.332 7.71 10.7 9.83
3/26/2021 2:00:00 AM 12.41 54.338 0.332 7.71 10.47 9.84
3/26/2021 2:15:00 AM 12.4 54.32 0.333 7.71 10.44 9.83
3/26/2021 2:30:00 AM 12.38 54.284 0.333 7.71 10.35 9.83
3/26/2021 2:45:00 AM 12.37 54.266 0.333 7.7 10.29 9.74
3/26/2021 3:00:00 AM 12.36 54.248 0.333 7.7 10.29 9.8
3/26/2021 3:15:00 AM 12.34 54.212 0.333 7.7 10.5 9.78
3/26/2021 3:30:00 AM 12.32 54.176 0.334 7.7 10.74 9.82
3/26/2021 3:45:00 AM 12.3 54.14 0.334 7.7 10.45 9.8
3/26/2021 4:00:00 AM 12.28 54.104 0.334 7.69 10.52 9.76
3/26/2021 4:15:00 AM 12.26 54.068 0.334 7.69 10.78 9.77
3/26/2021 4:30:00 AM 12.24 54.032 0.334 7.69 10.91 9.79
3/26/2021 4:45:00 AM 12.22 53.996 0.335 7.69 10.83 9.82
3/26/2021 5:00:00 AM 12.2 53.96 0.335 7.69 10.57 9.74
3/26/2021 5:15:00 AM 12.18 53.924 0.335 7.69 10.58 9.79
3/26/2021 5:30:00 AM 12.15 53.87 0.335 7.69 10.82 9.82
3/26/2021 5:45:00 AM 12.12 53.816 0.335 7.68 10.64 9.82
3/26/2021 6:00:00 AM 12.09 53.762 0.335 7.68 10.67 9.82
3/26/2021 6:15:00 AM 12.06 53.708 0.335 7.69 10.58 9.81
3/26/2021 6:30:00 AM 12.02 53.636 0.336 7.68 10.51 9.83
3/26/2021 6:45:00 AM 12.01 53.618 0.336 7.69 10.4 9.83
3/26/2021 7:00:00 AM 12 53.6 0.336 7.68 10.04 9.84
3/26/2021 7:15:00 AM 11.99 53.582 0.336 7.68 9.85 9.84
3/26/2021 7:30:00 AM 11.99 53.582 0.336 7.69 9.6 9.85
3/26/2021 7:45:00 AM 11.97 53.546 0.336 7.69 9.56 9.89
3/26/2021 8:00:00 AM 11.97 53.546 0.336 7.7 9.67 9.92
3/26/2021 8:15:00 AM 11.97 53.546 0.337 7.7 9.4 9.97
3/26/2021 8:30:00 AM 11.97 53.546 0.337 7.7 9.38 10
3/26/2021 8:45:00 AM 11.99 53.582 0.337 7.71 9.15 9.97
3/26/2021 9:00:00 AM 12.03 53.654 0.337 7.72 9.12 10.02
3/26/2021 9:15:00 AM 12.09 53.762 0.336 7.73 8.85 10.18
3/26/2021 9:30:00 AM 12.16 53.888 0.336 7.74 8.34 10.27
3/26/2021 9:45:00 AM 12.24 54.032 0.337 7.77 8.82 10.38
3/26/2021 10:00:00 AM 12.35 54.23 0.337 7.79 8.62 10.46
3/26/2021 10:15:00 AM 12.48 54.464 0.337 7.8 8.36 10.51
3/26/2021 10:30:00 AM 12.63 54.734 0.337 7.82 8.33 10.58
3/26/2021 10:45:00 AM 12.81 55.058 0.337 7.84 8.13 10.68
3/26/2021 11:00:00 AM 12.97 55.346 0.337 7.86 8.02 10.77
3/26/2021 11:15:00 AM 13.14 55.652 0.337 7.88 7.9 10.83
3/26/2021 11:30:00 AM 13.32 55.976 0.337 7.9 7.73 10.88
3/26/2021 11:45:00 AM 13.44 56.192 0.337 7.91 7.42 10.91
3/26/2021 12:00:00 PM 13.55 56.39 0.337 7.93 7.51 10.98
3/26/2021 12:15:00 PM 13.77 56.786 0.336 7.95 7.48 10.99
3/26/2021 12:30:00 PM 13.96 57.128 0.336 7.97 7.49 11
3/26/2021 12:45:00 PM 14.16 57.488 0.336 7.99 7.45 11.05
3/26/2021 1:00:00 PM 14.38 57.884 0.336 8.01 7.3 11.12
3/26/2021 1:15:00 PM 14.59 58.262 0.336 8.04 7.13 11.17
3/26/2021 1:30:00 PM 14.77 58.586 0.336 8.05 7.15 11.13
3/26/2021 1:45:00 PM 14.93 58.874 0.337 8.07 7.2 11.14
3/26/2021 2:00:00 PM 15.07 59.126 0.337 8.08 7.25 11.2
3/26/2021 2:15:00 PM 15.21 59.378 0.337 8.1 7.02 11.19
3/26/2021 2:30:00 PM 15.31 59.558 0.337 8.1 7.31 11.07
3/26/2021 2:45:00 PM 15.41 59.738 0.337 8.11 6.97 11.09
3/26/2021 3:00:00 PM 15.53 59.954 0.337 8.12 7.07 11.03
3/26/2021 3:15:00 PM 15.63 60.134 0.337 8.12 7.09 11.07
3/26/2021 3:30:00 PM 15.73 60.314 0.337 8.13 7.01 11.05
3/26/2021 3:45:00 PM 15.81 60.458 0.336 8.14 7.08 10.97
3/26/2021 4:00:00 PM 15.87 60.566 0.336 8.14 7.09 10.99
3/26/2021 4:15:00 PM 15.91 60.638 0.337 8.14 6.86 10.96
3/26/2021 4:30:00 PM 15.92 60.656 0.337 8.13 6.91 10.86
3/26/2021 4:45:00 PM 15.94 60.692 0.337 8.13 6.75 10.76
3/26/2021 5:00:00 PM 15.96 60.728 0.337 8.12 7.38 10.71
3/26/2021 5:15:00 PM 15.96 60.728 0.337 8.11 7.22 10.62
3/26/2021 5:30:00 PM 15.93 60.674 0.337 8.1 7.2 10.58
3/26/2021 5:45:00 PM 15.9 60.62 0.337 8.08 9.52 10.49
3/26/2021 6:00:00 PM 15.87 60.566 0.338 8.06 7.47 10.38
3/26/2021 6:15:00 PM 15.84 60.512 0.338 8.04 7.15 10.31
3/26/2021 6:30:00 PM 15.27 59.486 0.327 7.74 9.53 9.86
3/26/2021 6:45:00 PM 15.69 60.242 0.336 7.97 7.59 10.08
3/26/2021 7:00:00 PM 15.7 60.26 0.338 7.98 7.4 9.96
3/26/2021 7:15:00 PM 15.63 60.134 0.338 7.96 7.31 9.91
3/26/2021 7:30:00 PM 15.57 60.026 0.338 7.93 7.24 9.81
3/26/2021 7:45:00 PM 15.5 59.9 0.338 7.91 7.48 9.76
3/26/2021 8:00:00 PM 15.44 59.792 0.339 7.89 7.65 9.69
3/26/2021 8:15:00 PM 15.37 59.666 0.339 7.88 7.93 9.65
3/26/2021 8:30:00 PM 15.29 59.522 0.339 7.86 8.06 9.54
3/26/2021 8:45:00 PM 15.21 59.378 0.339 7.85 7.94 9.44
3/26/2021 9:00:00 PM 15.13 59.234 0.339 7.83 8.03 9.47
3/26/2021 9:15:00 PM 15.06 59.108 0.339 7.82 7.62 9.45
3/26/2021 9:30:00 PM 15 59 0.34 7.81 7.75 9.4
3/26/2021 9:45:00 PM 14.93 58.874 0.34 7.8 7.99 9.37
3/26/2021 10:00:00 PM 14.86 58.748 0.34 7.79 7.98 9.35
3/26/2021 10:15:00 PM 14.79 58.622 0.34 7.78 8.18 9.33
3/26/2021 10:30:00 PM 14.72 58.496 0.34 7.77 8.07 9.28
3/26/2021 10:45:00 PM 14.64 58.352 0.341 7.77 8.35 9.32
3/26/2021 11:00:00 PM 14.57 58.226 0.341 7.76 8.35 9.28
3/26/2021 11:15:00 PM 14.5 58.1 0.341 7.75 8.25 9.27
3/26/2021 11:30:00 PM 14.42 57.956 0.341 7.75 8.36 9.3
3/26/2021 11:45:00 PM 14.34 57.812 0.341 7.74 8.36 9.3
3/27/2021 12:00:00 AM 14.27 57.686 0.342 7.74 8.69 9.31
3/27/2021 12:15:00 AM 14.19 57.542 0.342 7.73 8.5 9.28
3/27/2021 12:30:00 AM 13.35 56.03 0.324 7.31 8.05 8.79
3/27/2021 12:45:00 AM 13.92 57.056 0.34 7.67 8.87 9.23
3/27/2021 1:00:00 AM 13.92 57.056 0.342 7.71 8.67 9.31
3/27/2021 1:15:00 AM 13.84 56.912 0.342 7.72 8.06 9.36
3/27/2021 1:30:00 AM 13.74 56.732 0.343 7.71 8.59 9.31
3/27/2021 1:45:00 AM 13.64 56.552 0.343 7.71 8.29 9.33
3/27/2021 2:00:00 AM 13.53 56.354 0.343 7.7 8.63 9.33
3/27/2021 2:15:00 AM 13.42 56.156 0.343 7.7 8.48 9.38
3/27/2021 2:30:00 AM 13.32 55.976 0.344 7.7 8.76 9.38
3/27/2021 2:45:00 AM 13.21 55.778 0.344 7.69 8.79 9.38
3/27/2021 3:00:00 AM 13.11 55.598 0.344 7.68 9 9.43
3/27/2021 3:15:00 AM 13.01 55.418 0.344 7.68 8.94 9.49
3/27/2021 3:30:00 AM 12.91 55.238 0.345 7.68 9.1 9.5
3/27/2021 3:45:00 AM 12.81 55.058 0.345 7.68 9.24 9.5
3/27/2021 4:00:00 AM 12.71 54.878 0.345 7.67 9.18 9.53
3/27/2021 4:15:00 AM 12.61 54.698 0.345 7.67 9.21 9.59
3/27/2021 4:30:00 AM 12.51 54.518 0.345 7.67 9.25 9.59
3/27/2021 4:45:00 AM 12.4 54.32 0.345 7.66 9.26 9.61
3/27/2021 5:00:00 AM 12.3 54.14 0.346 7.67 9.25 9.62
3/27/2021 5:15:00 AM 12.19 53.942 0.346 7.66 9.26 9.62
3/27/2021 5:30:00 AM 12.09 53.762 0.346 7.66 9.09 9.69
3/27/2021 5:45:00 AM 11.99 53.582 0.346 7.66 8.78 9.71
3/27/2021 6:00:00 AM 11.89 53.402 0.346 7.66 9.26 9.71
3/27/2021 6:15:00 AM 11.78 53.204 0.346 7.66 8.92 9.79
3/27/2021 6:30:00 AM 11.68 53.024 0.346 7.66 9.24 9.83
3/27/2021 6:45:00 AM 11.58 52.844 0.347 7.65 8.92 9.84
3/27/2021 7:00:00 AM 11.49 52.682 0.347 7.65 8.77 9.88
3/27/2021 7:15:00 AM 11.39 52.502 0.347 7.66 8.62 9.87
3/27/2021 7:30:00 AM 11.31 52.358 0.347 7.66 8.47 9.91
3/27/2021 7:45:00 AM 11.23 52.214 0.347 7.66 8.07 9.99
3/27/2021 8:00:00 AM 11.17 52.106 0.347 7.67 8.22 10.02
3/27/2021 8:15:00 AM 11.14 52.052 0.347 7.67 7.41 10.13
3/27/2021 8:30:00 AM 11.12 52.016 0.347 7.68 7.61 10.25
3/27/2021 8:45:00 AM 11.12 52.016 0.347 7.7 7.53 10.31
3/27/2021 9:00:00 AM 11.12 52.016 0.347 7.71 7.62 10.48
3/27/2021 9:15:00 AM 11.12 52.016 0.347 7.73 7.51 10.49
3/27/2021 9:30:00 AM 11.13 52.034 0.347 7.74 7.1 10.72
3/27/2021 9:45:00 AM 11.15 52.07 0.347 7.76 7.51 10.83
3/27/2021 10:00:00 AM 11.19 52.142 0.347 7.77 7.33 10.95
3/27/2021 10:15:00 AM 11.26 52.268 0.347 7.79 7.28 11.03
3/27/2021 10:30:00 AM 11.36 52.448 0.347 7.81 7.73 11.19
3/27/2021 10:45:00 AM 11.47 52.646 0.347 7.83 7.28 11.22
3/27/2021 11:00:00 AM 10.07 50.126 0.302 6.82 5.82 9.83
3/27/2021 11:15:00 AM 11.51 52.718 0.341 7.73 6.46 11.19
3/27/2021 11:30:00 AM 11.81 53.258 0.346 7.87 6.51 11.4
3/27/2021 11:45:00 AM 11.98 53.564 0.347 7.9 6.86 11.53
3/27/2021 12:00:00 PM 12.13 53.834 0.347 7.93 7.12 11.65
3/27/2021 12:15:00 PM 12.3 54.14 0.347 7.95 7.32 11.69
3/27/2021 12:30:00 PM 12.48 54.464 0.347 7.96 6.68 11.73
3/27/2021 12:45:00 PM 12.65 54.77 0.347 7.99 6.38 11.76
3/27/2021 1:00:00 PM 12.84 55.112 0.347 8.01 6.2 11.85
3/27/2021 1:15:00 PM 13.02 55.436 0.347 8.03 6.26 11.84
3/27/2021 1:30:00 PM 13.18 55.724 0.347 8.04 6.86 11.82
3/27/2021 1:45:00 PM 13.32 55.976 0.347 8.07 7.71 11.86
3/27/2021 2:00:00 PM 13.42 56.156 0.347 8.07 6.71 11.86
3/27/2021 2:15:00 PM 13.53 56.354 0.347 8.1 6.2 11.87
3/27/2021 2:30:00 PM 13.61 56.498 0.347 8.11 6.02 11.89
3/27/2021 2:45:00 PM 13.67 56.606 0.347 8.12 6.13 11.87
3/27/2021 3:00:00 PM 13.75 56.75 0.347 8.13 6.18 11.89
3/27/2021 3:15:00 PM 13.82 56.876 0.347 8.14 6.39 11.83
3/27/2021 3:30:00 PM 13.89 57.002 0.347 8.15 6.26 11.76
3/27/2021 3:45:00 PM 13.93 57.074 0.347 8.16 6.36 11.74
3/27/2021 4:00:00 PM 13.95 57.11 0.347 8.15 6.26 11.75
3/27/2021 4:15:00 PM 13.95 57.11 0.347 8.15 6.37 11.62
3/27/2021 4:30:00 PM 13.95 57.11 0.347 8.14 6.45 11.53
3/27/2021 4:45:00 PM 13.96 57.128 0.347 8.13 6.58 11.45
3/27/2021 5:00:00 PM 13.98 57.164 0.347 8.12 6.84 11.43
3/27/2021 5:15:00 PM 12.15 53.87 0.302 7.03 5.3 9.84
3/27/2021 5:30:00 PM 13.78 56.804 0.341 7.96 6.35 11.01
3/27/2021 5:45:00 PM 14 57.2 0.346 8.07 6.44 11.1
3/27/2021 6:00:00 PM 14.03 57.254 0.347 8.07 6.37 11.01
3/27/2021 6:15:00 PM 14.01 57.218 0.347 8.06 6.43 10.93
3/27/2021 6:30:00 PM 14 57.2 0.347 8.03 6.55 10.84
3/27/2021 6:45:00 PM 13.97 57.146 0.348 8.01 6.59 10.73
3/27/2021 7:00:00 PM 13.95 57.11 0.348 7.99 6.86 10.57
3/27/2021 7:15:00 PM 13.93 57.074 0.348 7.97 7.27 10.48
3/27/2021 7:30:00 PM 13.9 57.02 0.348 7.95 6.81 10.36
3/27/2021 7:45:00 PM 13.87 56.966 0.348 7.92 6.65 10.31
3/27/2021 8:00:00 PM 13.84 56.912 0.348 7.91 6.79 10.21
3/27/2021 8:15:00 PM 13.81 56.858 0.348 7.9 7.02 10.15
3/27/2021 8:30:00 PM 13.78 56.804 0.348 7.89 6.77 10.09
3/27/2021 8:45:00 PM 13.74 56.732 0.348 7.87 6.86 10.03
3/27/2021 9:00:00 PM 13.7 56.66 0.348 7.86 6.79 9.97
3/27/2021 9:15:00 PM 13.67 56.606 0.348 7.85 6.79 9.96
3/27/2021 9:30:00 PM 13.64 56.552 0.348 7.83 6.36 9.86
3/27/2021 9:45:00 PM 13.6 56.48 0.348 7.83 6.81 9.83
3/27/2021 10:00:00 PM 13.56 56.408 0.348 7.82 6.89 9.8
3/27/2021 10:15:00 PM 13.53 56.354 0.348 7.81 7.01 9.72
3/27/2021 10:30:00 PM 13.49 56.282 0.348 7.8 7.19 9.74
3/27/2021 10:45:00 PM 13.46 56.228 0.348 7.79 7.21 9.71
3/27/2021 11:00:00 PM 13.42 56.156 0.348 7.79 7.23 9.69
3/27/2021 11:15:00 PM 13.39 56.102 0.348 7.78 7.32 9.62
3/27/2021 11:30:00 PM 13.36 56.048 0.348 7.78 7.13 9.63
3/27/2021 11:45:00 PM 13.32 55.976 0.348 7.77 7.19 9.63
3/28/2021 12:00:00 AM 13.28 55.904 0.348 7.76 7.76 9.6
3/28/2021 12:15:00 AM 13.24 55.832 0.348 7.76 7.15 9.55
3/28/2021 12:30:00 AM 13.2 55.76 0.348 7.75 7.74 9.57
3/28/2021 12:45:00 AM 13.16 55.688 0.348 7.75 7.26 9.55
3/28/2021 1:00:00 AM 13.12 55.616 0.348 7.75 7.46 9.58
3/28/2021 1:15:00 AM 11.33 52.394 0.303 6.71 6.35 8.27
3/28/2021 1:30:00 AM 12.81 55.058 0.342 7.6 6.99 9.4
3/28/2021 1:45:00 AM 12.97 55.346 0.347 7.71 7.34 9.55
3/28/2021 2:00:00 AM 12.95 55.31 0.348 7.73 7.43 9.55
3/28/2021 2:15:00 AM 12.91 55.238 0.348 7.73 7.66 9.56
3/28/2021 2:30:00 AM 12.88 55.184 0.348 7.73 7.8 9.55
3/28/2021 2:45:00 AM 12.84 55.112 0.348 7.72 7.64 9.55
3/28/2021 3:00:00 AM 12.81 55.058 0.349 7.72 7.76 9.55
3/28/2021 3:15:00 AM 12.77 54.986 0.349 7.72 7.67 9.56
3/28/2021 3:30:00 AM 11.05 51.89 0.304 6.69 6.48 8.25
3/28/2021 3:45:00 AM 12.46 54.428 0.343 7.58 7.57 9.36
3/28/2021 4:00:00 AM 12.62 54.716 0.348 7.69 7.86 9.52
3/28/2021 4:15:00 AM 12.61 54.698 0.349 7.71 8.07 9.53
3/28/2021 4:30:00 AM 12.58 54.644 0.349 7.7 7.85 9.55
3/28/2021 4:45:00 AM 12.55 54.59 0.349 7.71 7.74 9.57
3/28/2021 5:00:00 AM 12.53 54.554 0.349 7.7 7.69 9.54
3/28/2021 5:15:00 AM 12.5 54.5 0.35 7.7 7.87 9.57
3/28/2021 5:30:00 AM 12.47 54.446 0.35 7.7 7.77 9.55
3/28/2021 5:45:00 AM 12.43 54.374 0.35 7.7 7.95 9.6
3/28/2021 6:00:00 AM 12.39 54.302 0.35 7.7 7.99 9.61
3/28/2021 6:15:00 AM 12.36 54.248 0.35 7.7 8.23 9.6
3/28/2021 6:30:00 AM 12.32 54.176 0.35 7.7 8.04 9.63
3/28/2021 6:45:00 AM 12.29 54.122 0.35 7.7 8.01 9.64
3/28/2021 7:00:00 AM 12.26 54.068 0.35 7.7 8.08 9.64
3/28/2021 7:15:00 AM 12.23 54.014 0.35 7.7 7.66 9.64
3/28/2021 7:30:00 AM 12.2 53.96 0.35 7.7 7.72 9.65
3/28/2021 7:45:00 AM 12.16 53.888 0.348 7.7 8.32 9.7
3/28/2021 8:00:00 AM 12.13 53.834 0.347 7.69 8.38 9.69
3/28/2021 8:15:00 AM 12.1 53.78 0.346 7.7 9.05 9.72
3/28/2021 8:30:00 AM 12.07 53.726 0.346 7.7 8.84 9.74
3/28/2021 8:45:00 AM 12.04 53.672 0.346 7.7 8.4 9.79
3/28/2021 9:00:00 AM 12.02 53.636 0.346 7.7 8.06 9.82
3/28/2021 9:15:00 AM 12 53.6 0.346 7.7 7.62 9.82
3/28/2021 9:30:00 AM 11.97 53.546 0.346 7.71 7.49 9.88
3/28/2021 9:45:00 AM 11.95 53.51 0.346 7.71 7.38 9.93
3/28/2021 10:00:00 AM 11.93 53.474 0.345 7.71 7.53 9.95
3/28/2021 10:15:00 AM 11.9 53.42 0.344 7.71 7.8 9.95
3/28/2021 10:30:00 AM 11.87 53.366 0.343 7.72 8.88 10.01
3/28/2021 10:45:00 AM 11.85 53.33 0.343 7.72 8.64 9.98
3/28/2021 11:00:00 AM 11.83 53.294 0.342 7.72 9.67 10.03
3/28/2021 11:15:00 AM 11.81 53.258 0.34 7.73 9.58 10.1
3/28/2021 11:30:00 AM 11.8 53.24 0.34 7.73 9.07 10.15
3/28/2021 11:45:00 AM 11.79 53.222 0.339 7.74 9.26 10.2
3/28/2021 12:00:00 PM 11.78 53.204 0.339 7.74 9.32 10.2
3/28/2021 12:15:00 PM 11.77 53.186 0.338 7.75 9.56 10.24
3/28/2021 12:30:00 PM 11.76 53.168 0.337 7.75 9.7 10.25
3/28/2021 12:45:00 PM 11.74 53.132 0.336 7.76 10.15 10.3
3/28/2021 1:00:00 PM 11.73 53.114 0.336 7.76 11.17 10.31
3/28/2021 1:15:00 PM 11.73 53.114 0.335 7.76 12.05 10.31
3/28/2021 1:30:00 PM 11.73 53.114 0.333 7.77 12.58 10.37
3/28/2021 1:45:00 PM 11.74 53.132 0.332 7.78 12.3 10.41
3/28/2021 2:00:00 PM 11.76 53.168 0.331 7.79 13.42 10.47
3/28/2021 2:15:00 PM 11.78 53.204 0.329 7.8 14.61 10.51
3/28/2021 2:30:00 PM 11.81 53.258 0.328 7.8 82.6 10.55
3/28/2021 2:45:00 PM 11.86 53.348 0.327 7.81 26.84 10.58
3/28/2021 3:00:00 PM 11.93 53.474 0.325 7.82 21.71 10.62
3/28/2021 3:15:00 PM 11.99 53.582 0.323 7.84 24.18 10.64
3/28/2021 3:30:00 PM 12.02 53.636 0.322 7.84 25.34 10.66
3/28/2021 3:45:00 PM 12.01 53.618 0.32 7.83 25.06 10.57
3/28/2021 4:00:00 PM 12.02 53.636 0.317 7.83 25.9 10.52
3/28/2021 4:15:00 PM 12.05 53.69 0.315 7.83 25 10.52
3/28/2021 4:30:00 PM 12.1 53.78 0.313 7.83 43.34 10.54
3/28/2021 4:45:00 PM 12.13 53.834 0.31 7.82 29.72 10.49
3/28/2021 5:00:00 PM 12.14 53.852 0.308 7.81 1632.44 10.41
3/28/2021 5:15:00 PM 12.15 53.87 0.305 7.8 291.17 10.35
3/28/2021 5:30:00 PM 12.17 53.906 0.302 7.79 70.49 10.32
3/28/2021 5:45:00 PM 12.18 53.924 0.298 7.78 114.19 10.24
3/28/2021 6:00:00 PM 12.17 53.906 0.295 7.77 54.79 10.21
3/28/2021 6:15:00 PM 12.17 53.906 0.293 7.76 43.47 10.17
3/28/2021 6:30:00 PM 12.18 53.924 0.292 7.75 63.85 10.16
3/28/2021 6:45:00 PM 12.17 53.906 0.291 7.75 44.79 10.15
3/28/2021 7:00:00 PM 12.17 53.906 0.289 7.74 41.9 10.12
3/28/2021 7:15:00 PM 12.16 53.888 0.288 7.73 40.79 10.12
3/28/2021 7:30:00 PM 12.13 53.834 0.286 7.73 40.63 10.1
3/28/2021 7:45:00 PM 12.11 53.798 0.284 7.71 39.93 10.07
3/28/2021 8:00:00 PM 12.09 53.762 0.284 7.7 39.93 10.04
3/28/2021 8:15:00 PM 12.07 53.726 0.283 7.7 41.05 10.01
3/28/2021 8:30:00 PM 12.04 53.672 0.283 7.69 72.7 10
3/28/2021 8:45:00 PM 12.02 53.636 0.283 7.69 68.59 9.97
3/28/2021 9:00:00 PM 11.99 53.582 0.283 7.69 68.24 9.93
3/28/2021 9:15:00 PM 11.95 53.51 0.284 7.69 60.35 9.91
3/28/2021 9:30:00 PM 11.92 53.456 0.284 7.69 51.63 9.9
3/28/2021 9:45:00 PM 11.89 53.402 0.284 7.68 47.83 9.87
3/28/2021 10:00:00 PM 11.85 53.33 0.283 7.68 44.94 9.88
3/28/2021 10:15:00 PM 11.8 53.24 0.282 7.68 44.82 9.86
3/28/2021 10:30:00 PM 11.74 53.132 0.281 7.67 44.3 9.85
3/28/2021 10:45:00 PM 11.68 53.024 0.279 7.67 44.81 9.87
3/28/2021 11:00:00 PM 11.64 52.952 0.278 7.66 46.5 9.85
3/28/2021 11:15:00 PM 11.6 52.88 0.277 7.66 1954.76 9.87
3/28/2021 11:30:00 PM 11.53 52.754 0.276 7.66 353.79 9.88
3/28/2021 11:45:00 PM 11.46 52.628 0.275 7.66 3206.37 9.88
3/29/2021 12:00:00 AM 11.39 52.502 0.273 7.65 490.04 9.91
3/29/2021 12:15:00 AM 11.32 52.376 0.273 7.65 121.38 9.9
3/29/2021 12:30:00 AM 11.24 52.232 0.272 7.65 72.65 9.94
3/29/2021 12:45:00 AM 11.16 52.088 0.272 7.65 65.2 9.94
3/29/2021 1:00:00 AM 11.08 51.944 0.272 7.64 63.65 9.97
3/29/2021 1:15:00 AM 10.99 51.782 0.272 7.64 62.32 9.95
3/29/2021 1:30:00 AM 10.9 51.62 0.273 7.64 61.13 9.99
3/29/2021 1:45:00 AM 10.8 51.44 0.274 7.63 59.95 10.01
3/29/2021 2:00:00 AM 10.72 51.296 0.274 7.63 60.16 10.02
3/29/2021 2:15:00 AM 10.65 51.17 0.275 7.63 60.69 10.04
3/29/2021 2:30:00 AM 10.58 51.044 0.276 7.63 59.58 10.08
3/29/2021 2:45:00 AM 10.5 50.9 0.276 7.63 58.91 10.08
3/29/2021 3:00:00 AM 10.41 50.738 0.277 7.62 57.33 10.11
3/29/2021 3:15:00 AM 10.31 50.558 0.278 7.61 55.14 10.15
3/29/2021 3:30:00 AM 10.23 50.414 0.278 7.62 53.74 10.18
3/29/2021 3:45:00 AM 10.15 50.27 0.279 7.62 51.13 10.2
3/29/2021 4:00:00 AM 10.07 50.126 0.279 7.62 48.82 10.23
3/29/2021 4:15:00 AM 9.99 49.982 0.28 7.62 46.71 10.26
3/29/2021 4:30:00 AM 9.92 49.856 0.28 7.62 45.89 10.3
3/29/2021 4:45:00 AM 9.85 49.73 0.281 7.62 43.26 10.28
3/29/2021 5:00:00 AM 9.78 49.604 0.282 7.61 42.67 10.35
3/29/2021 5:15:00 AM 9.71 49.478 0.283 7.61 42.31 10.37
3/29/2021 5:30:00 AM 9.63 49.334 0.284 7.62 41.64 10.42
3/29/2021 5:45:00 AM 9.57 49.226 0.286 7.62 41.85 10.42
3/29/2021 6:00:00 AM 9.5 49.1 0.287 7.62 41.24 10.47
3/29/2021 6:15:00 AM 9.43 48.974 0.289 7.62 40.14 10.5
3/29/2021 6:30:00 AM 9.36 48.848 0.289 7.62 39.15 10.52
3/29/2021 6:45:00 AM 9.28 48.704 0.29 7.61 39.08 10.52
3/29/2021 7:00:00 AM 9.22 48.596 0.292 7.61 38.04 10.57
3/29/2021 7:15:00 AM 9.16 48.488 0.293 7.62 36.29 10.61
3/29/2021 7:30:00 AM 9.1 48.38 0.293 7.62 35.76 10.65
3/29/2021 7:45:00 AM 9.03 48.254 0.294 7.61 34.91 10.67
3/29/2021 8:00:00 AM 8.98 48.164 0.295 7.62 33.39 10.71
3/29/2021 8:15:00 AM 8.93 48.074 0.296 7.62 32.15 10.77
3/29/2021 8:30:00 AM 8.9 48.02 0.297 7.62 31.04 10.8
3/29/2021 8:45:00 AM 8.86 47.948 0.297 7.63 30.07 10.9
3/29/2021 9:00:00 AM 8.83 47.894 0.298 7.64 28.35 10.94
3/29/2021 9:15:00 AM 8.8 47.84 0.299 7.64 27.28 10.96
3/29/2021 9:30:00 AM 8.78 47.804 0.3 7.64 26.26 11.06
3/29/2021 9:45:00 AM 8.76 47.768 0.301 7.64 24.86 11.13
3/29/2021 10:00:00 AM 8.78 47.804 0.302 7.65 24.19 11.19
3/29/2021 10:15:00 AM 8.82 47.876 0.303 7.66 23.63 11.26
3/29/2021 10:30:00 AM 8.88 47.984 0.304 7.67 22.67 11.27
3/29/2021 10:45:00 AM 8.93 48.074 0.305 7.68 21.77 11.32
3/29/2021 11:00:00 AM 8.92 48.056 0.305 7.69 20.77 11.36
3/29/2021 11:15:00 AM 9.02 48.236 0.307 7.7 20.1 11.36
3/29/2021 11:30:00 AM 9.14 48.452 0.308 7.71 19.59 11.5
3/29/2021 11:45:00 AM 9.27 48.686 0.309 7.72 18.85 11.5
3/29/2021 12:00:00 PM 9.4 48.92 0.309 7.73 18.22 11.55
3/29/2021 12:15:00 PM 9.6 49.28 0.31 7.75 17.62 11.61
3/29/2021 12:30:00 PM 9.76 49.568 0.311 7.77 17.51 11.61
3/29/2021 12:45:00 PM 9.9 49.82 0.312 7.78 16.23 11.65
3/29/2021 1:00:00 PM 10.1 50.18 0.313 7.8 16.25 11.71
3/29/2021 1:15:00 PM 8.93 48.074 0.274 6.78 12.98 10.16
3/29/2021 1:30:00 PM 10.21 50.378 0.31 7.68 14.42 11.5
3/29/2021 1:45:00 PM 10.5 50.9 0.315 7.82 14.16 11.72
3/29/2021 2:00:00 PM 10.68 51.224 0.316 7.84 14.25 11.75
3/29/2021 2:15:00 PM 10.84 51.512 0.317 7.86 13.8 11.76
3/29/2021 2:30:00 PM 10.95 51.71 0.318 7.87 13.51 11.78
3/29/2021 2:45:00 PM 11.06 51.908 0.318 7.88 13.2 11.77
3/29/2021 3:00:00 PM 11.17 52.106 0.319 7.89 13.16 11.74
3/29/2021 3:15:00 PM 11.28 52.304 0.32 7.89 12.74 11.72
3/29/2021 3:30:00 PM 11.38 52.484 0.32 7.91 12.28 11.73
3/29/2021 3:45:00 PM 11.47 52.646 0.321 7.91 12.07 11.73
3/29/2021 4:00:00 PM 11.54 52.772 0.321 7.91 11.61 11.7
3/29/2021 4:15:00 PM 11.59 52.862 0.322 7.92 11.22 11.64
3/29/2021 4:30:00 PM 11.64 52.952 0.322 7.92 10.94 11.6
3/29/2021 4:45:00 PM 11.68 53.024 0.322 7.92 10.62 11.6
3/29/2021 5:00:00 PM 11.73 53.114 0.323 7.92 10.62 11.53
3/29/2021 5:15:00 PM 11.76 53.168 0.323 7.92 10.33 11.47
3/29/2021 5:30:00 PM 11.79 53.222 0.324 7.92 10.11 11.38
3/29/2021 5:45:00 PM 11.81 53.258 0.324 7.91 10.14 11.33
3/29/2021 6:00:00 PM 11.81 53.258 0.324 7.9 10.4 11.25
3/29/2021 6:15:00 PM 11.79 53.222 0.325 7.89 9.71 11.16
3/29/2021 6:30:00 PM 11.77 53.186 0.325 7.88 9.98 11.13
3/29/2021 6:45:00 PM 11.74 53.132 0.326 7.87 9.99 11.06
3/29/2021 7:00:00 PM 11.72 53.096 0.326 7.86 9.57 11.01
3/29/2021 7:15:00 PM 11.69 53.042 0.326 7.85 9.5 10.92
3/29/2021 7:30:00 PM 11.64 52.952 0.327 7.84 9.99 10.82
3/29/2021 7:45:00 PM 11.6 52.88 0.327 7.83 9.45 10.76
3/29/2021 8:00:00 PM 11.54 52.772 0.327 7.82 10.1 10.72
3/29/2021 8:15:00 PM 11.49 52.682 0.328 7.81 10 10.66
3/29/2021 8:30:00 PM 11.44 52.592 0.328 7.8 10.27 10.59
3/29/2021 8:45:00 PM 11.39 52.502 0.328 7.79 10.1 10.54
3/29/2021 9:00:00 PM 11.34 52.412 0.328 7.78 10.11 10.53
3/29/2021 9:15:00 PM 11.29 52.322 0.329 7.77 10.18 10.48
3/29/2021 9:30:00 PM 11.24 52.232 0.329 7.77 9.85 10.47
3/29/2021 9:45:00 PM 11.19 52.142 0.329 7.76 9.75 10.45
3/29/2021 10:00:00 PM 11.13 52.034 0.33 7.75 9.47 10.43
3/29/2021 10:15:00 PM 11.07 51.926 0.33 7.75 10.15 10.38
3/29/2021 10:30:00 PM 11.02 51.836 0.33 7.74 9.93 10.39
3/29/2021 10:45:00 PM 10.96 51.728 0.331 7.74 9.65 10.4
3/29/2021 11:00:00 PM 10.9 51.62 0.331 7.73 9.42 10.38
3/29/2021 11:15:00 PM 10.84 51.512 0.331 7.73 9.85 10.34
3/29/2021 11:30:00 PM 10.78 51.404 0.332 7.72 10 10.37
3/29/2021 11:45:00 PM 10.71 51.278 0.332 7.72 9.79 10.38
3/30/2021 12:00:00 AM 10.64 51.152 0.332 7.71 9.43 10.38
3/30/2021 12:15:00 AM 10.56 51.008 0.332 7.71 9.71 10.38
3/30/2021 12:30:00 AM 10.48 50.864 0.333 7.7 9.41 10.4
3/30/2021 12:45:00 AM 9.01 48.218 0.29 6.68 7.93 9.02
3/30/2021 1:00:00 AM 10.12 50.216 0.327 7.56 9.45 10.25
3/30/2021 1:15:00 AM 10.19 50.342 0.333 7.68 9.3 10.4
3/30/2021 1:30:00 AM 10.13 50.234 0.334 7.68 9.16 10.44
3/30/2021 1:45:00 AM 10.04 50.072 0.335 7.69 9.01 10.49
3/30/2021 2:00:00 AM 9.95 49.91 0.335 7.69 9.25 10.5
3/30/2021 2:15:00 AM 9.87 49.766 0.335 7.68 9.23 10.52
3/30/2021 2:30:00 AM 9.78 49.604 0.336 7.67 9.27 10.52
3/30/2021 2:45:00 AM 9.7 49.46 0.336 7.68 8.97 10.57
3/30/2021 3:00:00 AM 9.61 49.298 0.336 7.67 9.21 10.58
3/30/2021 3:15:00 AM 9.53 49.154 0.337 7.67 9.14 10.59
3/30/2021 3:30:00 AM 9.44 48.992 0.336 7.67 9.17 10.63
3/30/2021 3:45:00 AM 9.36 48.848 0.337 7.67 9.25 10.69
3/30/2021 4:00:00 AM 9.27 48.686 0.337 7.66 8.97 10.72
3/30/2021 4:15:00 AM 9.19 48.542 0.337 7.66 8.9 10.73
3/30/2021 4:30:00 AM 9.1 48.38 0.338 7.66 8.86 10.71
3/30/2021 4:45:00 AM 9.02 48.236 0.338 7.66 8.8 10.79
3/30/2021 5:00:00 AM 8.93 48.074 0.339 7.66 8.79 10.86
3/30/2021 5:15:00 AM 8.85 47.93 0.338 7.65 8.66 10.87
3/30/2021 5:30:00 AM 8.76 47.768 0.339 7.66 8.3 10.91
3/30/2021 5:45:00 AM 8.68 47.624 0.339 7.66 8.75 10.92
3/30/2021 6:00:00 AM 8.6 47.48 0.339 7.65 8.8 10.93
3/30/2021 6:15:00 AM 8.51 47.318 0.339 7.65 8.39 11
3/30/2021 6:30:00 AM 8.43 47.174 0.339 7.64 8.6 11.04
3/30/2021 6:45:00 AM 8.35 47.03 0.339 7.64 8.5 11.06
3/30/2021 7:00:00 AM 8.27 46.886 0.339 7.64 8.22 11.13
3/30/2021 7:15:00 AM 8.19 46.742 0.34 7.64 7.94 11.16
3/30/2021 7:30:00 AM 8.12 46.616 0.339 7.64 7.74 11.19
3/30/2021 7:45:00 AM 8.07 46.526 0.34 7.64 7.66 11.26
3/30/2021 8:00:00 AM 8.02 46.436 0.34 7.64 7.36 11.33
3/30/2021 8:15:00 AM 8 46.4 0.34 7.65 7.21 11.38
3/30/2021 8:30:00 AM 7.99 46.382 0.34 7.66 7.05 11.43
3/30/2021 8:45:00 AM 8 46.4 0.34 7.67 6.53 11.52
3/30/2021 9:00:00 AM 8.03 46.454 0.34 7.67 6.38 11.62
3/30/2021 9:15:00 AM 8.07 46.526 0.34 7.68 6.29 11.68
3/30/2021 9:30:00 AM 8.12 46.616 0.34 7.69 6.68 11.75
3/30/2021 9:45:00 AM 8.19 46.742 0.341 7.71 6.22 11.83
3/30/2021 10:00:00 AM 8.27 46.886 0.34 7.72 6.1 11.88
3/30/2021 10:15:00 AM 8.38 47.084 0.34 7.73 5.85 11.98
3/30/2021 10:30:00 AM 8.49 47.282 0.34 7.74 5.76 11.98
3/30/2021 10:45:00 AM 8.62 47.516 0.34 7.75 5.62 12.09
3/30/2021 11:00:00 AM 8.75 47.75 0.34 7.77 5.7 12.09
3/30/2021 11:15:00 AM 8.9 48.02 0.34 7.78 5.69 12.11
3/30/2021 11:30:00 AM 9.07 48.326 0.34 7.79 5.45 12.12
3/30/2021 11:45:00 AM 9.25 48.65 0.34 7.81 5.51 12.18
3/30/2021 12:00:00 PM 9.44 48.992 0.34 7.81 5.33 12.19
3/30/2021 12:15:00 PM 9.64 49.352 0.34 7.83 5.2 12.17
3/30/2021 12:30:00 PM 9.85 49.73 0.34 7.85 5.22 12.12
3/30/2021 12:45:00 PM 10.06 50.108 0.34 7.87 5.19 12.19
3/30/2021 1:00:00 PM 10.27 50.486 0.34 7.89 5 12.15
3/30/2021 1:15:00 PM 10.48 50.864 0.339 7.9 5.1 12.15
3/30/2021 1:30:00 PM 10.68 51.224 0.339 7.91 5.11 12.18
3/30/2021 1:45:00 PM 10.87 51.566 0.339 7.93 5.11 12.19
3/30/2021 2:00:00 PM 11.05 51.89 0.339 7.94 5.07 12.16
3/30/2021 2:15:00 PM 11.22 52.196 0.339 7.95 5.18 12.14
3/30/2021 2:30:00 PM 11.37 52.466 0.34 7.96 5.09 12.08
3/30/2021 2:45:00 PM 11.51 52.718 0.34 7.97 5.48 12.09
3/30/2021 3:00:00 PM 11.65 52.97 0.34 7.97 5.64 12.04
3/30/2021 3:15:00 PM 11.78 53.204 0.34 7.98 5.37 12.02
3/30/2021 3:30:00 PM 11.91 53.438 0.34 7.99 5.36 11.99
3/30/2021 3:45:00 PM 12.01 53.618 0.34 7.99 5.21 11.95
3/30/2021 4:00:00 PM 12.11 53.798 0.34 8 5.05 11.9
3/30/2021 4:15:00 PM 12.19 53.942 0.34 8 5 11.85
3/30/2021 4:30:00 PM 12.26 54.068 0.34 8 4.91 11.81
3/30/2021 4:45:00 PM 12.33 54.194 0.339 8.01 5.02 11.71
3/30/2021 5:00:00 PM 12.39 54.302 0.339 8 4.87 11.66
3/30/2021 5:15:00 PM 12.44 54.392 0.339 8 5.11 11.59
3/30/2021 5:30:00 PM 12.49 54.482 0.339 8 5.16 11.48
3/30/2021 5:45:00 PM 12.53 54.554 0.339 7.99 5.2 11.39
3/30/2021 6:00:00 PM 12.56 54.608 0.34 7.98 5.3 11.35
3/30/2021 6:15:00 PM 12.6 54.68 0.339 7.97 5.29 11.24
3/30/2021 6:30:00 PM 12.61 54.698 0.339 7.96 5.31 11.15
3/30/2021 6:45:00 PM 12.61 54.698 0.34 7.95 5.62 11.06
3/30/2021 7:00:00 PM 12.59 54.662 0.34 7.93 5.78 10.92
3/30/2021 7:15:00 PM 12.57 54.626 0.339 7.91 5.72 10.83
3/30/2021 7:30:00 PM 12.55 54.59 0.34 7.9 5.68 10.75
3/30/2021 7:45:00 PM 12.53 54.554 0.34 7.88 5.88 10.64
3/30/2021 8:00:00 PM 12.5 54.5 0.339 7.87 6.33 10.59
3/30/2021 8:15:00 PM 12.48 54.464 0.339 7.86 6.58 10.51
3/30/2021 8:30:00 PM 12.45 54.41 0.339 7.85 6.59 10.42
3/30/2021 8:45:00 PM 12.43 54.374 0.339 7.84 6.68 10.38
3/30/2021 9:00:00 PM 12.4 54.32 0.339 7.84 6.75 10.34
3/30/2021 9:15:00 PM 12.37 54.266 0.339 7.82 6.82 10.28
3/30/2021 9:30:00 PM 12.35 54.23 0.339 7.81 6.94 10.26
3/30/2021 9:45:00 PM 12.32 54.176 0.339 7.81 7.07 10.2
3/30/2021 10:00:00 PM 12.3 54.14 0.339 7.8 7.4 10.16
3/30/2021 10:15:00 PM 12.28 54.104 0.339 7.79 7.69 10.15
3/30/2021 10:30:00 PM 12.26 54.068 0.34 7.78 7.87 10.09
3/30/2021 10:45:00 PM 12.24 54.032 0.34 7.78 7.9 10.09
3/30/2021 11:00:00 PM 12.22 53.996 0.341 7.77 8.43 10.04
3/30/2021 11:15:00 PM 12.19 53.942 0.341 7.77 8.3 10.04
3/30/2021 11:30:00 PM 12.17 53.906 0.341 7.76 8.16 9.9
3/30/2021 11:45:00 PM 12.15 53.87 0.341 7.76 8.01 9.97
3/31/2021 12:00:00 AM 12.12 53.816 0.341 7.76 7.99 9.96
3/31/2021 12:15:00 AM 12.1 53.78 0.341 7.75 7.78 9.97
3/31/2021 12:30:00 AM 12.06 53.708 0.341 7.75 7.8 9.97
3/31/2021 12:45:00 AM 12.03 53.654 0.341 7.75 7.92 9.95
3/31/2021 1:00:00 AM 11.99 53.582 0.341 7.74 7.85 9.96
3/31/2021 1:15:00 AM 11.95 53.51 0.341 7.74 8.02 9.99
3/31/2021 1:30:00 AM 11.91 53.438 0.341 7.74 7.96 9.92
3/31/2021 1:45:00 AM 11.87 53.366 0.341 7.73 8.11 9.94
3/31/2021 2:00:00 AM 11.82 53.276 0.341 7.73 8.11 9.94
3/31/2021 2:15:00 AM 11.77 53.186 0.342 7.73 8.1 9.97
3/31/2021 2:30:00 AM 11.72 53.096 0.342 7.73 7.84 9.94
3/31/2021 2:45:00 AM 11.66 52.988 0.342 7.73 7.85 9.94
3/31/2021 3:00:00 AM 11.61 52.898 0.342 7.72 8.05 9.94
3/31/2021 3:15:00 AM 11.56 52.808 0.342 7.72 8.2 9.92
3/31/2021 3:30:00 AM 11.5 52.7 0.342 7.72 8.17 9.94
3/31/2021 3:45:00 AM 11.45 52.61 0.342 7.71 7.95 9.94
3/31/2021 4:00:00 AM 11.39 52.502 0.342 7.71 8.09 9.94
3/31/2021 4:15:00 AM 11.35 52.43 0.342 7.71 8.03 9.99
3/31/2021 4:30:00 AM 11.3 52.34 0.342 7.71 8.27 9.96
3/31/2021 4:45:00 AM 11.25 52.25 0.342 7.71 7.99 9.98
3/31/2021 5:00:00 AM 11.2 52.16 0.342 7.71 7.99 9.97
3/31/2021 5:15:00 AM 11.14 52.052 0.343 7.71 8.19 10
3/31/2021 5:30:00 AM 11.08 51.944 0.343 7.7 8.27 10.05
3/31/2021 5:45:00 AM 11.03 51.854 0.343 7.7 8.2 10.07
3/31/2021 6:00:00 AM 10.98 51.764 0.343 7.7 8 10.06
3/31/2021 6:15:00 AM 10.93 51.674 0.343 7.7 8.05 10.09
3/31/2021 6:30:00 AM 10.88 51.584 0.343 7.7 7.94 10.09
3/31/2021 6:45:00 AM 10.83 51.494 0.343 7.7 7.99 10.12
3/31/2021 7:00:00 AM 10.78 51.404 0.344 7.69 7.92 10.16
3/31/2021 7:15:00 AM 10.73 51.314 0.344 7.69 8.23 10.16
3/31/2021 7:30:00 AM 10.69 51.242 0.344 7.7 7.91 10.22
3/31/2021 7:45:00 AM 10.68 51.224 0.344 7.7 7.41 10.29
3/31/2021 8:00:00 AM 10.68 51.224 0.344 7.71 7.31 10.34
3/31/2021 8:15:00 AM 10.69 51.242 0.344 7.71 7.18 10.36
3/31/2021 8:30:00 AM 10.69 51.242 0.344 7.72 7.04 10.43
3/31/2021 8:45:00 AM 10.68 51.224 0.344 7.72 6.9 10.43
3/31/2021 9:00:00 AM 10.67 51.206 0.344 7.73 7.17 10.48
3/31/2021 9:15:00 AM 10.66 51.188 0.344 7.73 7.01 10.54
3/31/2021 9:30:00 AM 10.66 51.188 0.344 7.74 6.66 10.6
3/31/2021 9:45:00 AM 10.66 51.188 0.344 7.74 6.5 10.64
3/31/2021 10:00:00 AM 10.66 51.188 0.345 7.75 6.42 10.72
3/31/2021 10:15:00 AM 10.71 51.278 0.344 7.77 6.31 10.82
3/31/2021 10:30:00 AM 10.77 51.386 0.344 7.78 6.23 10.89
3/31/2021 10:45:00 AM 10.8 51.44 0.344 7.79 6.16 10.94
3/31/2021 11:00:00 AM 10.82 51.476 0.344 7.8 6.08 11.03
3/31/2021 11:15:00 AM 10.84 51.512 0.344 7.81 5.95 11.05
3/31/2021 11:30:00 AM 10.85 51.53 0.344 7.82 5.93 11.05
3/31/2021 11:45:00 AM 10.86 51.548 0.344 7.82 5.85 11.05
3/31/2021 12:00:00 PM 10.89 51.602 0.344 7.82 5.94 11.11
3/31/2021 12:15:00 PM 10.93 51.674 0.344 7.84 5.81 11.16
3/31/2021 12:30:00 PM 10.97 51.746 0.344 7.85 5.75 11.16
3/31/2021 12:45:00 PM 11 51.8 0.344 7.85 5.6 11.14
3/31/2021 1:00:00 PM 9.56 49.208 0.298 6.81 4.62 9.66
3/31/2021 1:15:00 PM 10.88 51.584 0.337 7.73 5.34 11
3/31/2021 1:30:00 PM 9.68 49.424 0.299 6.84 4.68 9.8
3/31/2021 1:45:00 PM 11.01 51.818 0.337 7.76 5.37 11.09
3/31/2021 2:00:00 PM 11.24 52.232 0.342 7.89 5.71 11.35
3/31/2021 2:15:00 PM 11.32 52.376 0.343 7.92 5.49 11.38
3/31/2021 2:30:00 PM 11.36 52.448 0.343 7.93 5.24 11.36
3/31/2021 2:45:00 PM 11.38 52.484 0.343 7.93 5.13 11.32
3/31/2021 3:00:00 PM 11.41 52.538 0.343 7.93 5.09 11.37
3/31/2021 3:15:00 PM 11.44 52.592 0.342 7.93 4.95 11.33
3/31/2021 3:30:00 PM 11.49 52.682 0.342 7.93 5.1 11.3
3/31/2021 3:45:00 PM 11.53 52.754 0.342 7.93 5.18 11.28
3/31/2021 4:00:00 PM 11.57 52.826 0.342 7.93 5.06 11.24
3/31/2021 4:15:00 PM 11.6 52.88 0.342 7.92 5.3 11.2
3/31/2021 4:30:00 PM 11.63 52.934 0.342 7.92 5.07 11.13
3/31/2021 4:45:00 PM 11.65 52.97 0.342 7.91 5.19 11.08
3/31/2021 5:00:00 PM 10.14 50.252 0.297 6.86 4.47 9.54
3/31/2021 5:15:00 PM 11.49 52.682 0.336 7.77 5.09 10.83
3/31/2021 5:30:00 PM 11.69 53.042 0.341 7.88 5.13 10.95
3/31/2021 5:45:00 PM 11.72 53.096 0.341 7.89 11.01 10.91
3/31/2021 6:00:00 PM 11.73 53.114 0.341 7.89 6.09 10.87
3/31/2021 6:15:00 PM 11.75 53.15 0.341 7.88 5.26 10.8
3/31/2021 6:30:00 PM 11.76 53.168 0.341 7.87 5.24 10.74
3/31/2021 6:45:00 PM 11.77 53.186 0.341 7.86 5.31 10.67
3/31/2021 7:00:00 PM 11.78 53.204 0.341 7.84 5.23 10.62
3/31/2021 7:15:00 PM 11.79 53.222 0.341 7.84 5.21 10.54
3/31/2021 7:30:00 PM 11.79 53.222 0.341 7.83 5.46 10.5
3/31/2021 7:45:00 PM 11.8 53.24 0.341 7.82 5.55 10.44
3/31/2021 8:00:00 PM 11.81 53.258 0.341 7.81 5.69 10.38
3/31/2021 8:15:00 PM 11.82 53.276 0.34 7.81 5.78 10.38
3/31/2021 8:30:00 PM 11.83 53.294 0.34 7.8 5.98 10.37
3/31/2021 8:45:00 PM 11.84 53.312 0.34 7.8 5.94 10.29
3/31/2021 9:00:00 PM 11.84 53.312 0.34 7.79 5.99 10.17
3/31/2021 9:15:00 PM 11.84 53.312 0.34 7.79 6.36 10.22
3/31/2021 9:30:00 PM 11.84 53.312 0.34 7.78 6.1 10.17
3/31/2021 9:45:00 PM 11.84 53.312 0.34 7.78 6.3 10.15
3/31/2021 10:00:00 PM 11.84 53.312 0.34 7.78 6.3 10.13
3/31/2021 10:15:00 PM 11.84 53.312 0.34 7.77 6.29 10.13
3/31/2021 10:30:00 PM 11.85 53.33 0.34 7.77 6.38 10.08
3/31/2021 10:45:00 PM 11.85 53.33 0.34 7.76 6.63 10.06
3/31/2021 11:00:00 PM 11.86 53.348 0.339 7.77 6.71 10.07
3/31/2021 11:15:00 PM 11.87 53.366 0.339 7.76 6.77 10.03
3/31/2021 11:30:00 PM 11.87 53.366 0.339 7.76 6.89 10.02
3/31/2021 11:45:00 PM 11.87 53.366 0.339 7.75 6.94 10.02
4/1/2021 12:00:00 AM 11.87 53.366 0.339 7.76 6.84 10
4/1/2021 12:15:00 AM 11.85 53.33 0.339 7.76 250.66 9.99
4/1/2021 12:30:00 AM 11.82 53.276 0.339 7.75 39.85 9.99
4/1/2021 12:45:00 AM 11.79 53.222 0.339 7.75 11.41 9.96
4/1/2021 1:00:00 AM 11.75 53.15 0.339 7.75 7.72 9.94
4/1/2021 1:15:00 AM 11.69 53.042 0.339 7.75 7.42 9.98
4/1/2021 1:30:00 AM 11.64 52.952 0.34 7.74 7.33 9.89
4/1/2021 1:45:00 AM 11.59 52.862 0.34 7.75 7.29 9.96
4/1/2021 2:00:00 AM 11.54 52.772 0.34 7.75 7.24 9.99
4/1/2021 2:15:00 AM 11.49 52.682 0.34 7.74 7.5 9.99
4/1/2021 2:30:00 AM 11.44 52.592 0.34 7.74 7.89 9.99
4/1/2021 2:45:00 AM 11.39 52.502 0.34 7.74 7.58 10.04
4/1/2021 3:00:00 AM 11.35 52.43 0.339 7.74 7.41 9.98
4/1/2021 3:15:00 AM 11.3 52.34 0.339 7.74 7.55 9.98
4/1/2021 3:30:00 AM 11.25 52.25 0.339 7.73 7.55 9.99
4/1/2021 3:45:00 AM 11.18 52.124 0.339 7.73 7.36 10.01
4/1/2021 4:00:00 AM 11.12 52.016 0.339 7.73 7.48 10.04
4/1/2021 4:15:00 AM 11.05 51.89 0.339 7.73 7.52 10.05
4/1/2021 4:30:00 AM 10.98 51.764 0.339 7.72 7.54 10.07
4/1/2021 4:45:00 AM 10.91 51.638 0.338 7.73 7.66 10.1
4/1/2021 5:00:00 AM 10.84 51.512 0.338 7.73 8.06 10.1
4/1/2021 5:15:00 AM 10.79 51.422 0.338 7.73 8.04 10.16
4/1/2021 5:30:00 AM 10.73 51.314 0.337 7.72 7.91 10.12
4/1/2021 5:45:00 AM 10.67 51.206 0.337 7.72 7.87 10.1
4/1/2021 6:00:00 AM 10.61 51.098 0.337 7.72 8.28 10.17
4/1/2021 6:15:00 AM 10.56 51.008 0.337 7.72 8.37 10.21
4/1/2021 6:30:00 AM 10.5 50.9 0.336 7.72 8.12 10.23
4/1/2021 6:45:00 AM 10.44 50.792 0.336 7.72 8.32 10.24
4/1/2021 7:00:00 AM 10.37 50.666 0.336 7.72 8.08 10.27
4/1/2021 7:15:00 AM 10.32 50.576 0.337 7.72 7.86 10.3
4/1/2021 7:30:00 AM 10.26 50.468 0.336 7.72 7.9 10.32
4/1/2021 7:45:00 AM 10.2 50.36 0.336 7.72 7.96 10.35
4/1/2021 8:00:00 AM 10.15 50.27 0.336 7.72 7.7 10.4
4/1/2021 8:15:00 AM 10.1 50.18 0.336 7.73 7.69 10.5
4/1/2021 8:30:00 AM 10.05 50.09 0.336 7.74 7.49 10.58
4/1/2021 8:45:00 AM 10 50 0.335 7.74 7.44 10.65
4/1/2021 9:00:00 AM 9.96 49.928 0.335 7.76 7.27 10.74
4/1/2021 9:15:00 AM 9.91 49.838 0.335 7.77 7.2 10.85
4/1/2021 9:30:00 AM 9.87 49.766 0.335 7.77 7.24 10.92
4/1/2021 9:45:00 AM -99999.99 -179968 -99999.99 -99999.99 -99999.99 -99999.99
4/1/2021 10:00:00 AM -99999.99 -179968 -99999.99 -99999.99 -99999.99 -99999.99
4/1/2021 10:15:00 AM 9.72 49.496 0.379 7.8 0.98 11.14
4/1/2021 10:30:00 AM 9.8 49.64 0.378 7.82 2.7 11.27
4/1/2021 10:45:00 AM 9.9 49.82 0.378 7.84 1.16 11.39
4/1/2021 11:00:00 AM 9.99 49.982 0.377 7.86 1.3 11.49
4/1/2021 11:15:00 AM 10.01 50.018 0.376 7.87 1.6 11.54
4/1/2021 11:30:00 AM 10.01 50.018 0.377 7.88 1.18 11.6
4/1/2021 11:45:00 AM 10.06 50.108 0.375 7.9 1.52 11.68
4/1/2021 12:00:00 PM 10.13 50.234 0.375 7.91 1.85 11.75
4/1/2021 12:15:00 PM 10.18 50.324 0.375 7.92 1.53 11.81
4/1/2021 12:30:00 PM 10.3 50.54 0.374 7.93 1.12 11.89
4/1/2021 12:45:00 PM 10.4 50.72 0.374 7.95 1.28 11.94
4/1/2021 1:00:00 PM 10.4 50.72 0.374 7.96 1.03 11.98
4/1/2021 1:15:00 PM 10.42 50.756 0.374 7.97 1.25 12.02
4/1/2021 1:30:00 PM 10.43 50.774 0.374 7.98 1.01 12.05
4/1/2021 1:45:00 PM 10.44 50.792 0.373 7.99 0.8 12.09
4/1/2021 2:00:00 PM 10.43 50.774 0.373 8 0.7 12.1
4/1/2021 2:15:00 PM 10.42 50.756 0.372 8.01 1.4 12.12
4/1/2021 2:30:00 PM 10.47 50.846 0.372 8.02 1.38 12.15
4/1/2021 2:45:00 PM 10.5 50.9 0.371 8.03 1.15 12.16
4/1/2021 3:00:00 PM 10.47 50.846 0.371 8.02 1.37 12.09
4/1/2021 3:15:00 PM 10.42 50.756 0.371 8.02 1.28 12.04
4/1/2021 3:30:00 PM 10.4 50.72 0.37 8.02 1.33 12.02
4/1/2021 3:45:00 PM 10.37 50.666 0.371 8.01 1.61 11.97
4/1/2021 4:00:00 PM 10.36 50.648 0.37 8.01 1.47 11.95
4/1/2021 4:15:00 PM 10.35 50.63 0.37 8.01 1.65 11.93
4/1/2021 4:30:00 PM 10.31 50.558 0.37 8 1.67 11.89
4/1/2021 4:45:00 PM 10.27 50.486 0.37 8 1.55 11.87
4/1/2021 5:00:00 PM 10.27 50.486 0.371 8.01 1.15 11.89
4/1/2021 5:15:00 PM 10.26 50.468 0.37 8.01 1.01 11.88
4/1/2021 5:30:00 PM 10.23 50.414 0.37 8.01 1.73 11.83
4/1/2021 5:45:00 PM 10.2 50.36 0.37 8 1.42 11.8
4/1/2021 6:00:00 PM 10.16 50.288 0.371 7.99 0.82 11.75
4/1/2021 6:15:00 PM 10.08 50.144 0.371 7.98 1 11.65
4/1/2021 6:30:00 PM 10.05 50.09 0.371 7.96 1.19 11.59
4/1/2021 6:45:00 PM 10.03 50.054 0.371 7.95 0.86 11.53
4/1/2021 7:00:00 PM 9.99 49.982 0.371 7.94 0.87 11.44
4/1/2021 7:15:00 PM 9.95 49.91 0.371 7.92 0.84 11.37
4/1/2021 7:30:00 PM 9.88 49.784 0.372 7.91 0.76 11.29
4/1/2021 7:45:00 PM 9.79 49.622 0.372 7.9 0.46 11.23
4/1/2021 8:00:00 PM 9.69 49.442 0.372 7.89 0.68 11.16
4/1/2021 8:15:00 PM 9.6 49.28 0.373 7.88 0.84 11.11
4/1/2021 8:30:00 PM 9.52 49.136 0.373 7.87 0.8 11.07
4/1/2021 8:45:00 PM 9.45 49.01 0.373 7.86 1.15 11.04
4/1/2021 9:00:00 PM 9.38 48.884 0.374 7.85 1.26 11
4/1/2021 9:15:00 PM 9.3 48.74 0.374 7.85 1.13 10.98
4/1/2021 9:30:00 PM 9.22 48.596 0.374 7.84 1.35 10.95
4/1/2021 9:45:00 PM 9.14 48.452 0.375 7.83 1.09 10.92
4/1/2021 10:00:00 PM 9.07 48.326 0.375 7.83 1.12 10.89
4/1/2021 10:15:00 PM 9 48.2 0.375 7.82 0.95 10.87
4/1/2021 10:30:00 PM 8.92 48.056 0.375 7.82 1.24 10.86
4/1/2021 10:45:00 PM 8.85 47.93 0.376 7.81 1.3 10.84
4/1/2021 11:00:00 PM 8.79 47.822 0.377 7.81 1.59 10.83
4/1/2021 11:15:00 PM 8.73 47.714 0.377 7.8 1.45 10.82
4/1/2021 11:30:00 PM 8.66 47.588 0.378 7.8 1.66 10.81
4/1/2021 11:45:00 PM 8.58 47.444 0.378 7.79 1.57 10.79
4/2/2021 12:00:00 AM 8.51 47.318 0.379 7.79 1.75 10.79
4/2/2021 12:15:00 AM 8.43 47.174 0.38 7.79 1.78 10.77
4/2/2021 12:30:00 AM 8.34 47.012 0.381 7.78 2.83 10.76
4/2/2021 12:45:00 AM 8.26 46.868 0.382 7.78 3.37 10.75
4/2/2021 1:00:00 AM 8.19 46.742 0.383 7.78 3.05 10.74
4/2/2021 1:15:00 AM 8.13 46.634 0.384 7.77 2.76 10.74
4/2/2021 1:30:00 AM 8.06 46.508 0.384 7.77 3.13 10.74
4/2/2021 1:45:00 AM 8 46.4 0.385 7.77 3.02 10.74
4/2/2021 2:00:00 AM 7.94 46.292 0.385 7.77 2.51 10.75
4/2/2021 2:15:00 AM 7.88 46.184 0.385 7.77 3.58 10.75
4/2/2021 2:30:00 AM 7.83 46.094 0.385 7.76 3.15 10.76
4/2/2021 2:45:00 AM 7.76 45.968 0.385 7.76 3.2 10.77
4/2/2021 3:00:00 AM 7.67 45.806 0.386 7.76 2.67 10.78
4/2/2021 3:15:00 AM 7.54 45.572 0.385 7.76 2.3 10.81
4/2/2021 3:30:00 AM 7.45 45.41 0.386 7.76 2.79 10.84
4/2/2021 3:45:00 AM 7.35 45.23 0.385 7.76 2.11 10.87
4/2/2021 4:00:00 AM 7.27 45.086 0.385 7.77 2.19 10.9
4/2/2021 4:15:00 AM 7.17 44.906 0.385 7.77 1.64 10.93
4/2/2021 4:30:00 AM 7.08 44.744 0.386 7.77 1.64 10.95
4/2/2021 4:45:00 AM 7.02 44.636 0.386 7.77 1.68 10.98
4/2/2021 5:00:00 AM 6.93 44.474 0.386 7.77 1.67 11.01
4/2/2021 5:15:00 AM 6.84 44.312 0.386 7.77 1.06 11.04
4/2/2021 5:30:00 AM 6.74 44.132 0.386 7.77 1.41 11.07
4/2/2021 5:45:00 AM 6.65 43.97 0.386 7.77 1.47 11.11
4/2/2021 6:00:00 AM 6.57 43.826 0.387 7.77 1.56 11.14
4/2/2021 6:15:00 AM 6.5 43.7 0.387 7.77 1.18 11.17
4/2/2021 6:30:00 AM 6.42 43.556 0.387 7.77 0.91 11.2
4/2/2021 6:45:00 AM 6.35 43.43 0.388 7.77 1.16 11.23
4/2/2021 7:00:00 AM 6.28 43.304 0.388 7.78 0.62 11.26
4/2/2021 7:15:00 AM 6.22 43.196 0.388 7.78 0.55 11.31
4/2/2021 7:30:00 AM 6.18 43.124 0.389 7.78 0.34 11.39
4/2/2021 7:45:00 AM 6.13 43.034 0.389 7.79 0.19 11.46
4/2/2021 8:00:00 AM 6.09 42.962 0.39 7.8 0.12 11.56
4/2/2021 8:15:00 AM 6.03 42.854 0.389 7.81 0.05 11.66
4/2/2021 8:30:00 AM 5.99 42.782 0.39 7.82 -0.25 11.77
4/2/2021 8:45:00 AM 5.97 42.746 0.39 7.83 -0.78 11.89
4/2/2021 9:00:00 AM 5.98 42.764 0.39 7.85 -0.76 12.02
4/2/2021 9:15:00 AM 6 42.8 0.391 7.86 -0.79 12.13
4/2/2021 9:30:00 AM 6.03 42.854 0.391 7.87 -0.9 12.23
4/2/2021 9:45:00 AM 6.05 42.89 0.391 7.88 -0.71 12.32
4/2/2021 10:00:00 AM 6.1 42.98 0.393 7.89 -1.21 12.41
4/2/2021 10:15:00 AM 6.17 43.106 0.392 7.9 -1.08 12.49
4/2/2021 10:30:00 AM 6.25 43.25 0.393 7.91 -0.83 12.57
4/2/2021 10:45:00 AM 6.35 43.43 0.393 7.92 -1.04 12.65
4/2/2021 11:00:00 AM 6.46 43.628 0.393 7.93 -0.91 12.72
4/2/2021 11:15:00 AM 6.59 43.862 0.392 7.94 -0.75 12.8
4/2/2021 11:30:00 AM 6.73 44.114 0.393 7.96 -1.13 12.87
4/2/2021 11:45:00 AM 6.88 44.384 0.393 7.97 -1.16 12.92
4/2/2021 12:00:00 PM 7.06 44.708 0.394 7.98 -1.53 12.96
4/2/2021 12:15:00 PM 7.23 45.014 0.393 7.98 -1.33 13.01
4/2/2021 12:30:00 PM 7.42 45.356 0.393 7.99 -1.71 13.04
4/2/2021 12:45:00 PM 7.59 45.662 0.394 8 -1.71 13.07
4/2/2021 1:00:00 PM 7.77 45.986 0.394 8.01 -1.37 13.09
4/2/2021 1:15:00 PM 7.94 46.292 0.394 8.02 -1.56 13.12
4/2/2021 1:30:00 PM 8.12 46.616 0.394 8.03 -1.4 13.14
4/2/2021 1:45:00 PM 8.27 46.886 0.394 8.04 -1.3 13.13
4/2/2021 2:00:00 PM 8.44 47.192 0.394 8.05 -1.47 13.15
4/2/2021 2:15:00 PM 8.59 47.462 0.394 8.06 -1.3 13.15
4/2/2021 2:30:00 PM 8.7 47.66 0.395 8.06 -1.41 13.13
4/2/2021 2:45:00 PM 8.8 47.84 0.394 8.07 -1.21 13.12
4/2/2021 3:00:00 PM 8.89 48.002 0.395 8.07 -1.04 13.1
4/2/2021 3:15:00 PM 8.98 48.164 0.394 8.08 -1.05 13.08
4/2/2021 3:30:00 PM 9.04 48.272 0.394 8.08 -1 13.06
4/2/2021 3:45:00 PM 9.12 48.416 0.393 8.09 -0.93 13.04
4/2/2021 4:00:00 PM 9.14 48.452 0.394 8.09 -1.13 13.01
4/2/2021 4:15:00 PM 9.15 48.47 0.394 8.09 -1.43 12.96
4/2/2021 4:30:00 PM 9.17 48.506 0.394 8.09 -1.39 12.91
4/2/2021 4:45:00 PM 9.15 48.47 0.394 8.09 -1.53 12.85
4/2/2021 5:00:00 PM 9.14 48.452 0.393 8.09 -1.68 12.78
4/2/2021 5:15:00 PM 9.12 48.416 0.394 8.08 -1.73 12.71
4/2/2021 5:30:00 PM 9.12 48.416 0.394 8.07 -1.68 12.63
4/2/2021 5:45:00 PM 9.12 48.416 0.394 8.07 -1.43 12.55
4/2/2021 6:00:00 PM 9.1 48.38 0.394 8.06 -1.63 12.46
4/2/2021 6:15:00 PM 9.07 48.326 0.394 8.05 -1.43 12.36
4/2/2021 6:30:00 PM 9.05 48.29 0.395 8.04 -1.5 12.26
4/2/2021 6:45:00 PM 9.02 48.236 0.395 8.02 -1.77 12.15
4/2/2021 7:00:00 PM 8.98 48.164 0.394 8.01 -1.41 12.04
4/2/2021 7:15:00 PM 8.93 48.074 0.394 7.99 -1.27 11.93
4/2/2021 7:30:00 PM 8.88 47.984 0.395 7.98 -1.25 11.82
4/2/2021 7:45:00 PM 8.83 47.894 0.395 7.96 -0.94 11.71
4/2/2021 8:00:00 PM 8.77 47.786 0.394 7.95 -1.01 11.64
4/2/2021 8:15:00 PM 8.73 47.714 0.395 7.94 -1.14 11.56
4/2/2021 8:30:00 PM 8.68 47.624 0.395 7.93 -0.42 11.5
4/2/2021 8:45:00 PM 8.62 47.516 0.395 7.92 -0.85 11.44
4/2/2021 9:00:00 PM 8.57 47.426 0.396 7.91 -0.48 11.39
4/2/2021 9:15:00 PM 8.51 47.318 0.395 7.9 -0.37 11.35
4/2/2021 9:30:00 PM 8.45 47.21 0.395 7.89 -0.38 11.3
4/2/2021 9:45:00 PM 8.39 47.102 0.396 7.88 -0.35 11.27
4/2/2021 10:00:00 PM 8.33 46.994 0.395 7.87 -0.14 11.23
4/2/2021 10:15:00 PM 8.27 46.886 0.396 7.87 -0.75 11.19
4/2/2021 10:30:00 PM 8.22 46.796 0.395 7.86 -0.48 11.16
4/2/2021 10:45:00 PM 8.17 46.706 0.395 7.86 -0.7 11.14
4/2/2021 11:00:00 PM 8.13 46.634 0.396 7.85 -0.57 11.11
4/2/2021 11:15:00 PM 8.07 46.526 0.396 7.85 -0.42 11.1
4/2/2021 11:30:00 PM 8.02 46.436 0.396 7.84 -0.39 11.08
4/2/2021 11:45:00 PM 7.97 46.346 0.397 7.84 -0.7 11.07
4/3/2021 12:00:00 AM 7.92 46.256 0.397 7.83 -0.29 11.06
4/3/2021 12:15:00 AM 7.87 46.166 0.397 7.83 -0.08 11.05
4/3/2021 12:30:00 AM 7.81 46.058 0.397 7.83 -0.37 11.04
4/3/2021 12:45:00 AM 7.74 45.932 0.397 7.83 -0.12 11.03
4/3/2021 1:00:00 AM 7.68 45.824 0.398 7.82 0.25 11.03
4/3/2021 1:15:00 AM 7.64 45.752 0.398 7.82 0.55 11.03
4/3/2021 1:30:00 AM 7.58 45.644 0.398 7.82 0.01 11.03
4/3/2021 1:45:00 AM 7.52 45.536 0.398 7.82 0.05 11.04
4/3/2021 2:00:00 AM 7.46 45.428 0.398 7.82 -0.13 11.05
4/3/2021 2:15:00 AM 7.39 45.302 0.398 7.81 0.8 11.06
4/3/2021 2:30:00 AM 7.32 45.176 0.398 7.81 0.57 11.07
4/3/2021 2:45:00 AM 7.24 45.032 0.398 7.81 1.07 11.08
4/3/2021 3:00:00 AM 7.17 44.906 0.398 7.81 0.49 11.08
4/3/2021 3:15:00 AM 7.1 44.78 0.398 7.81 0.41 11.1
4/3/2021 3:30:00 AM 7.02 44.636 0.399 7.81 0.42 11.11
4/3/2021 3:45:00 AM 6.95 44.51 0.399 7.8 0.15 11.13
4/3/2021 4:00:00 AM 6.87 44.366 0.398 7.8 -0.04 11.14
4/3/2021 4:15:00 AM 6.8 44.24 0.399 7.8 0.42 11.17
4/3/2021 4:30:00 AM 6.73 44.114 0.401 7.8 -0.21 11.18
4/3/2021 4:45:00 AM 6.65 43.97 0.4 7.8 0.28 11.21
4/3/2021 5:00:00 AM 6.58 43.844 0.399 7.8 0.17 11.22
4/3/2021 5:15:00 AM 6.51 43.718 0.4 7.8 -0.1 11.23
4/3/2021 5:30:00 AM 6.44 43.592 0.401 7.8 -0.23 11.25
4/3/2021 5:45:00 AM 6.38 43.484 0.4 7.8 -0.33 11.28
4/3/2021 6:00:00 AM 6.31 43.358 0.4 7.8 -0.2 11.3
4/3/2021 6:15:00 AM 6.24 43.232 0.401 7.8 0.11 11.32
4/3/2021 6:30:00 AM 6.17 43.106 0.401 7.8 -0.35 11.34
4/3/2021 6:45:00 AM 6.1 42.98 0.4 7.8 0.28 11.37
4/3/2021 7:00:00 AM 6.04 42.872 0.4 7.8 -0.36 11.41
4/3/2021 7:15:00 AM 5.97 42.746 0.4 7.8 -0.44 11.46
4/3/2021 7:30:00 AM 5.93 42.674 0.401 7.8 -0.15 11.51
4/3/2021 7:45:00 AM 5.89 42.602 0.401 7.81 -0.27 11.6
4/3/2021 8:00:00 AM 5.87 42.566 0.401 7.82 -0.34 11.71
4/3/2021 8:15:00 AM 5.86 42.548 0.4 7.83 -0.65 11.82
4/3/2021 8:30:00 AM 5.87 42.566 0.401 7.84 0.65 11.95
4/3/2021 8:45:00 AM 5.9 42.62 0.401 7.85 -0.67 12.07
4/3/2021 9:00:00 AM 5.93 42.674 0.401 7.86 0.14 12.19
4/3/2021 9:15:00 AM 5.98 42.764 0.401 7.87 0.02 12.3
4/3/2021 9:30:00 AM 6.03 42.854 0.402 7.89 0.4 12.41
4/3/2021 9:45:00 AM 6.09 42.962 0.401 7.9 0.09 12.51
4/3/2021 10:00:00 AM 6.18 43.124 0.401 7.91 1.73 12.61
4/3/2021 10:15:00 AM 6.29 43.322 0.401 7.92 -0.19 12.69
4/3/2021 10:30:00 AM 6.41 43.538 0.401 7.93 -0.43 12.78
4/3/2021 10:45:00 AM 6.55 43.79 0.4 7.94 -0.04 12.87
4/3/2021 11:00:00 AM 6.68 44.024 0.401 7.95 -0.86 12.95
4/3/2021 11:15:00 AM 6.84 44.312 0.4 7.96 -1.07 13.01
4/3/2021 11:30:00 AM 7.01 44.618 0.4 7.98 -1.14 13.07
4/3/2021 11:45:00 AM 7.19 44.942 0.402 7.98 -1.09 13.12
4/3/2021 12:00:00 PM 7.38 45.284 0.401 8 0.47 13.18
4/3/2021 12:15:00 PM 7.6 45.68 0.4 8.01 -1 13.21
4/3/2021 12:30:00 PM 7.81 46.058 0.4 8.02 -1.03 13.25
4/3/2021 12:45:00 PM 8.02 46.436 0.4 8.03 -0.7 13.29
4/3/2021 1:00:00 PM 8.23 46.814 0.4 8.04 -1.27 13.3
4/3/2021 1:15:00 PM 8.44 47.192 0.401 8.05 -1.17 13.32
4/3/2021 1:30:00 PM 8.64 47.552 0.4 8.06 -1.71 13.34
4/3/2021 1:45:00 PM 8.82 47.876 0.4 8.07 -1.49 13.34
4/3/2021 2:00:00 PM 8.92 48.056 0.4 8.08 -1.36 13.35
4/3/2021 2:15:00 PM 9.08 48.344 0.4 8.1 -1.62 13.37
4/3/2021 2:30:00 PM 9.25 48.65 0.4 8.1 -1.62 13.37
4/3/2021 2:45:00 PM 9.38 48.884 0.4 8.11 -1.04 13.34
4/3/2021 3:00:00 PM 9.5 49.1 0.4 8.11 -0.81 13.31
4/3/2021 3:15:00 PM 9.61 49.298 0.399 8.12 -1.36 13.29
4/3/2021 3:30:00 PM 9.69 49.442 0.4 8.12 -1.23 13.25
4/3/2021 3:45:00 PM 9.66 49.388 0.399 8.12 -0.5 13.19
4/3/2021 4:00:00 PM 9.66 49.388 0.4 8.13 -0.86 13.15
4/3/2021 4:15:00 PM 9.62 49.316 0.4 8.13 -1.21 13.11
4/3/2021 4:30:00 PM 9.66 49.388 0.399 8.13 -0.76 13.08
4/3/2021 4:45:00 PM 9.73 49.514 0.4 8.14 1.73 13.05
4/3/2021 5:00:00 PM 9.8 49.64 0.4 8.14 0.28 13
4/3/2021 5:15:00 PM 9.84 49.712 0.4 8.13 0.23 12.92
4/3/2021 5:30:00 PM 9.87 49.766 0.4 8.13 -0.92 12.83
4/3/2021 5:45:00 PM 9.86 49.748 0.4 8.11 -1.3 12.72
4/3/2021 6:00:00 PM 9.85 49.73 0.4 8.1 -1.08 12.61
4/3/2021 6:15:00 PM 9.84 49.712 0.4 8.09 -0.74 12.5
4/3/2021 6:30:00 PM 9.83 49.694 0.402 8.08 -0.48 12.39
4/3/2021 6:45:00 PM 9.82 49.676 0.401 8.06 -0.45 12.27
4/3/2021 7:00:00 PM 9.81 49.658 0.401 8.04 -0.67 12.13
4/3/2021 7:15:00 PM 9.8 49.64 0.4 8.02 -0.15 11.98
4/3/2021 7:30:00 PM 9.77 49.586 0.4 8.01 -0.75 11.84
4/3/2021 7:45:00 PM 9.74 49.532 0.4 7.99 -0.17 11.7
4/3/2021 8:00:00 PM 9.7 49.46 0.4 7.97 -0.17 11.57
4/3/2021 8:15:00 PM 9.66 49.388 0.4 7.95 -0.32 11.47
4/3/2021 8:30:00 PM 9.64 49.352 0.399 7.94 -0.44 11.39
4/3/2021 8:45:00 PM 9.61 49.298 0.4 7.93 -0.53 11.32
4/3/2021 9:00:00 PM 9.58 49.244 0.399 7.92 -0.03 11.25
4/3/2021 9:15:00 PM 9.56 49.208 0.4 7.91 -0.67 11.19
4/3/2021 9:30:00 PM 9.55 49.19 0.4 7.9 -0.09 11.13
4/3/2021 9:45:00 PM 9.52 49.136 0.4 7.89 -0.55 11.06
4/3/2021 10:00:00 PM 9.48 49.064 0.4 7.88 0.05 11.01
4/3/2021 10:15:00 PM 9.45 49.01 0.401 7.87 -0.03 10.95
4/3/2021 10:30:00 PM 9.42 48.956 0.4 7.86 -0.03 10.9
4/3/2021 10:45:00 PM 9.4 48.92 0.4 7.85 -0.04 10.85
4/3/2021 11:00:00 PM 9.39 48.902 0.4 7.84 0.14 10.81
4/3/2021 11:15:00 PM 9.39 48.902 0.401 7.83 0.22 10.77
4/3/2021 11:30:00 PM 9.38 48.884 0.401 7.83 -0.03 10.73
4/3/2021 11:45:00 PM 9.38 48.884 0.402 7.82 0.56 10.69
4/4/2021 12:00:00 AM 9.37 48.866 0.402 7.82 0.37 10.66
4/4/2021 12:15:00 AM 9.36 48.848 0.403 7.81 0.45 10.63
4/4/2021 12:30:00 AM 9.35 48.83 0.402 7.8 0.33 10.6
4/4/2021 12:45:00 AM 9.35 48.83 0.402 7.8 0.54 10.58
4/4/2021 1:00:00 AM 9.34 48.812 0.403 7.8 0.88 10.56
4/4/2021 1:15:00 AM 9.33 48.794 0.403 7.79 0.51 10.54
4/4/2021 1:30:00 AM 9.32 48.776 0.402 7.79 0.77 10.52
4/4/2021 1:45:00 AM 9.31 48.758 0.402 7.78 0.8 10.51
4/4/2021 2:00:00 AM 9.3 48.74 0.402 7.78 0.4 10.5
4/4/2021 2:15:00 AM 9.28 48.704 0.402 7.78 0.21 10.49
4/4/2021 2:30:00 AM 9.27 48.686 0.403 7.77 0.41 10.48
4/4/2021 2:45:00 AM 9.25 48.65 0.402 7.77 0.44 10.47
4/4/2021 3:00:00 AM 9.22 48.596 0.401 7.77 0.32 10.47
4/4/2021 3:15:00 AM 9.2 48.56 0.401 7.77 0.41 10.46
4/4/2021 3:30:00 AM 9.17 48.506 0.401 7.76 0.28 10.45
4/4/2021 3:45:00 AM 9.14 48.452 0.401 7.76 0.17 10.45
4/4/2021 4:00:00 AM 9.1 48.38 0.401 7.76 0.39 10.44
4/4/2021 4:15:00 AM 9.07 48.326 0.401 7.76 0.55 10.44
4/4/2021 4:30:00 AM 9.04 48.272 0.401 7.76 0.12 10.44
4/4/2021 4:45:00 AM 9.01 48.218 0.402 7.75 0.68 10.44
4/4/2021 5:00:00 AM 8.98 48.164 0.401 7.75 0.37 10.43
4/4/2021 5:15:00 AM 8.95 48.11 0.401 7.75 0.45 10.43
4/4/2021 5:30:00 AM 8.91 48.038 0.402 7.75 0.2 10.44
4/4/2021 5:45:00 AM 8.88 47.984 0.402 7.74 0.08 10.44
4/4/2021 6:00:00 AM 8.84 47.912 0.403 7.74 0.25 10.45
4/4/2021 6:15:00 AM 8.8 47.84 0.402 7.74 -0.07 10.45
4/4/2021 6:30:00 AM 8.76 47.768 0.402 7.74 0.33 10.46
4/4/2021 6:45:00 AM 8.73 47.714 0.402 7.74 0.41 10.47
4/4/2021 7:00:00 AM 8.69 47.642 0.403 7.74 0.19 10.49
4/4/2021 7:15:00 AM 8.66 47.588 0.402 7.74 -0.36 10.52
4/4/2021 7:30:00 AM 8.64 47.552 0.402 7.75 -0.17 10.57
4/4/2021 7:45:00 AM 8.62 47.516 0.404 7.75 -0.61 10.65
4/4/2021 8:00:00 AM 8.6 47.48 0.403 7.76 -0.29 10.72
4/4/2021 8:15:00 AM 8.6 47.48 0.403 7.77 -0.66 10.81
4/4/2021 8:30:00 AM 8.6 47.48 0.402 7.78 -0.43 10.9
4/4/2021 8:45:00 AM 8.61 47.498 0.402 7.79 -0.58 11.04
4/4/2021 9:00:00 AM 8.62 47.516 0.402 7.81 -0.4 11.19
4/4/2021 9:15:00 AM 8.66 47.588 0.402 7.82 -0.76 11.37
4/4/2021 9:30:00 AM 8.71 47.678 0.403 7.84 -0.91 11.54
4/4/2021 9:45:00 AM 8.78 47.804 0.402 7.87 -1.3 11.7
4/4/2021 10:00:00 AM 8.88 47.984 0.402 7.89 -1 11.84
4/4/2021 10:15:00 AM 8.99 48.182 0.403 7.9 -0.7 11.97
4/4/2021 10:30:00 AM 9.12 48.416 0.402 7.92 -0.8 12.09
4/4/2021 10:45:00 AM 9.26 48.668 0.401 7.94 -0.64 12.2
4/4/2021 11:00:00 AM 9.41 48.938 0.402 7.96 -0.25 12.3
4/4/2021 11:15:00 AM 9.57 49.226 0.402 7.97 -0.33 12.39
4/4/2021 11:30:00 AM 9.75 49.55 0.403 7.99 -0.27 12.5
4/4/2021 11:45:00 AM 9.94 49.892 0.402 8.01 -0.14 12.58
4/4/2021 12:00:00 PM 10.13 50.234 0.403 8.03 -0.92 12.66
4/4/2021 12:15:00 PM 10.34 50.612 0.402 8.05 -0.71 12.74
4/4/2021 12:30:00 PM 10.56 51.008 0.402 8.07 -0.82 12.81
4/4/2021 12:45:00 PM 10.79 51.422 0.401 8.09 -0.77 12.86
4/4/2021 1:00:00 PM 11.01 51.818 0.4 8.1 -1.03 12.91
4/4/2021 1:15:00 PM 11.23 52.214 0.401 8.12 -0.41 12.96
4/4/2021 1:30:00 PM 11.44 52.592 0.402 8.14 -0.71 12.99
4/4/2021 1:45:00 PM 11.64 52.952 0.401 8.15 1.1 13.01
4/4/2021 2:00:00 PM 11.83 53.294 0.401 8.16 2.84 13.03
4/4/2021 2:15:00 PM 11.99 53.582 0.401 8.17 0.18 13.02
4/4/2021 2:30:00 PM 12.14 53.852 0.401 8.18 0.02 13.01
4/4/2021 2:45:00 PM 12.19 53.942 0.401 8.18 -0.21 12.93
4/4/2021 3:00:00 PM 12.27 54.086 0.401 8.19 0.66 12.89
4/4/2021 3:15:00 PM 12.39 54.302 0.402 8.19 0.1 12.89
4/4/2021 3:30:00 PM 12.49 54.482 0.401 8.2 0.6 12.85
4/4/2021 3:45:00 PM 12.54 54.572 0.401 8.2 -0.01 12.79
4/4/2021 4:00:00 PM 12.6 54.68 0.402 8.21 2.6 12.74
4/4/2021 4:15:00 PM 12.6 54.68 0.402 8.2 -0.11 12.62
4/4/2021 4:30:00 PM 12.62 54.716 0.401 8.2 2.3 12.53
4/4/2021 4:45:00 PM 12.59 54.662 0.401 8.18 0.29 12.37
4/4/2021 5:00:00 PM 12.62 54.716 0.4 8.17 1.82 12.29
4/4/2021 5:15:00 PM 12.64 54.752 0.401 8.16 1.19 12.18
4/4/2021 5:30:00 PM 12.66 54.788 0.401 8.16 1.37 12.1
4/4/2021 5:45:00 PM 12.68 54.824 0.401 8.15 1.27 12
4/4/2021 6:00:00 PM 12.69 54.842 0.401 8.13 1.25 11.9
4/4/2021 6:15:00 PM 12.67 54.806 0.402 8.12 0.39 11.78
4/4/2021 6:30:00 PM 12.65 54.77 0.401 8.1 0.47 11.64
4/4/2021 6:45:00 PM 12.62 54.716 0.401 8.08 0.22 11.49
4/4/2021 7:00:00 PM 12.6 54.68 0.402 8.06 -0.16 11.33
4/4/2021 7:15:00 PM 12.58 54.644 0.402 8.03 0.19 11.18
4/4/2021 7:30:00 PM 12.55 54.59 0.402 8.01 0.26 11.02
4/4/2021 7:45:00 PM 12.52 54.536 0.401 7.99 0.23 10.88
4/4/2021 8:00:00 PM 12.49 54.482 0.402 7.96 0.51 10.75
4/4/2021 8:15:00 PM 12.44 54.392 0.401 7.95 0.3 10.63
4/4/2021 8:30:00 PM 12.4 54.32 0.402 7.93 0.35 10.54
4/4/2021 8:45:00 PM 12.36 54.248 0.401 7.92 0.47 10.46
4/4/2021 9:00:00 PM 12.32 54.176 0.401 7.9 0.49 10.39
4/4/2021 9:15:00 PM 12.29 54.122 0.401 7.89 0.37 10.32
4/4/2021 9:30:00 PM 12.25 54.05 0.402 7.88 1.54 10.25
4/4/2021 9:45:00 PM 12.2 53.96 0.402 7.87 1.17 10.18
4/4/2021 10:00:00 PM 12.16 53.888 0.402 7.86 0.71 10.12
4/4/2021 10:15:00 PM 12.11 53.798 0.402 7.85 2.06 10.06
4/4/2021 10:30:00 PM 12.06 53.708 0.402 7.84 1.16 10.01
4/4/2021 10:45:00 PM 12.01 53.618 0.402 7.83 0.45 9.97
4/4/2021 11:00:00 PM 11.97 53.546 0.403 7.82 0.52 9.92
4/4/2021 11:15:00 PM 11.93 53.474 0.402 7.82 0.77 9.89
4/4/2021 11:30:00 PM 11.89 53.402 0.402 7.81 0.58 9.86
4/4/2021 11:45:00 PM 11.85 53.33 0.402 7.81 1.79 9.83
4/5/2021 12:00:00 AM 11.81 53.258 0.402 7.8 4.09 9.81
4/5/2021 12:15:00 AM 11.76 53.168 0.402 7.8 24.5 9.79
4/5/2021 12:30:00 AM 11.7 53.06 0.402 7.79 1.23 9.77
4/5/2021 12:45:00 AM 11.64 52.952 0.353 7.78 0.33 9.76
4/5/2021 1:00:00 AM 11.58 52.844 0.403 7.79 0.75 9.75
4/5/2021 1:15:00 AM 11.52 52.736 0.402 7.78 0.99 9.73
4/5/2021 1:30:00 AM 11.45 52.61 0.402 7.78 0.34 9.73
4/5/2021 1:45:00 AM 11.38 52.484 0.401 7.77 2.42 9.73
4/5/2021 2:00:00 AM 11.3 52.34 0.401 7.77 0.67 9.73
4/5/2021 2:15:00 AM 11.22 52.196 0.403 7.77 0.43 9.74
4/5/2021 2:30:00 AM 11.14 52.052 0.402 7.77 1.21 9.74
4/5/2021 2:45:00 AM 11.06 51.908 0.402 7.76 1.52 9.75
4/5/2021 3:00:00 AM 10.98 51.764 0.402 7.76 1.71 9.75
4/5/2021 3:15:00 AM 10.91 51.638 0.402 7.76 1.23 9.76
4/5/2021 3:30:00 AM 10.83 51.494 0.402 7.75 0.97 9.76
4/5/2021 3:45:00 AM 10.75 51.35 0.402 7.75 1.45 9.77
4/5/2021 4:00:00 AM 10.67 51.206 0.403 7.75 1.45 9.79
4/5/2021 4:15:00 AM 10.59 51.062 0.404 7.75 0.99 9.8
4/5/2021 4:30:00 AM 10.51 50.918 0.403 7.74 1.05 9.81
4/5/2021 4:45:00 AM 10.43 50.774 0.403 7.74 1.38 9.83
4/5/2021 5:00:00 AM 10.35 50.63 0.403 7.74 1.14 9.84
4/5/2021 5:15:00 AM 10.27 50.486 0.403 7.74 0.69 9.86
4/5/2021 5:30:00 AM 10.18 50.324 0.403 7.73 1.08 9.87
4/5/2021 5:45:00 AM 10.1 50.18 0.403 7.73 1.32 9.89
4/5/2021 6:00:00 AM 10.02 50.036 0.403 7.73 1.53 9.91
4/5/2021 6:15:00 AM 9.94 49.892 0.403 7.73 1.05 9.93
4/5/2021 6:30:00 AM 9.86 49.748 0.403 7.73 0.81 9.96
4/5/2021 6:45:00 AM 9.78 49.604 0.403 7.73 0.67 9.98
4/5/2021 7:00:00 AM 9.71 49.478 0.403 7.73 1.57 10.01
4/5/2021 7:15:00 AM 9.64 49.352 0.403 7.73 1.47 10.06
4/5/2021 7:30:00 AM 9.58 49.244 0.405 7.74 1.34 10.14
4/5/2021 7:45:00 AM 9.54 49.172 0.403 7.75 0.74 10.25
4/5/2021 8:00:00 AM 9.52 49.136 0.404 7.76 -0.11 10.38
4/5/2021 8:15:00 AM 9.52 49.136 0.405 7.77 -0.03 10.53
4/5/2021 8:30:00 AM 9.54 49.172 0.404 7.79 0.15 10.69
4/5/2021 8:45:00 AM 9.59 49.262 0.404 7.8 1.72 10.86
4/5/2021 9:00:00 AM 9.63 49.334 0.404 7.83 -0.41 11.04
4/5/2021 9:15:00 AM 9.68 49.424 0.405 7.84 -0.09 11.21
4/5/2021 9:30:00 AM 9.74 49.532 0.404 7.86 -0.49 11.38
4/5/2021 9:45:00 AM 9.81 49.658 0.405 7.88 -0.65 11.53
4/5/2021 10:00:00 AM 9.89 49.802 0.405 7.9 -0.66 11.69
4/5/2021 10:15:00 AM 9.99 49.982 0.404 7.92 -0.33 11.83
4/5/2021 10:30:00 AM 10.1 50.18 0.404 7.94 0.67 11.96
4/5/2021 10:45:00 AM 10.23 50.414 0.404 7.96 0.32 12.09
4/5/2021 11:00:00 AM 10.36 50.648 0.404 7.98 -0.31 12.23
4/5/2021 11:15:00 AM 10.51 50.918 0.405 8 0.12 12.35
4/5/2021 11:30:00 AM 10.68 51.224 0.404 8.03 -0.35 12.47
4/5/2021 11:45:00 AM 10.85 51.53 0.404 8.05 -0.59 12.57
4/5/2021 12:00:00 PM 11.04 51.872 0.405 8.07 -0.86 12.68
4/5/2021 12:15:00 PM 11.24 52.232 0.404 8.1 -0.95 12.77
4/5/2021 12:30:00 PM 11.45 52.61 0.404 8.12 -0.28 12.84
4/5/2021 12:45:00 PM 11.66 52.988 0.404 8.14 -0.82 12.92
4/5/2021 1:00:00 PM 11.85 53.33 0.402 8.16 -1.19 12.99
4/5/2021 1:15:00 PM 12.05 53.69 0.404 8.18 -1.38 13.04
4/5/2021 1:30:00 PM 12.24 54.032 0.404 8.2 -0.68 13.1
4/5/2021 1:45:00 PM 12.43 54.374 0.404 8.22 -1.14 13.15
4/5/2021 2:00:00 PM 12.61 54.698 0.403 8.24 -0.51 13.18
4/5/2021 2:15:00 PM 12.76 54.968 0.404 8.25 -0.38 13.19
4/5/2021 2:30:00 PM 12.9 55.22 0.404 8.27 -0.74 13.19
4/5/2021 2:45:00 PM 13.02 55.436 0.404 8.28 -0.28 13.19
4/5/2021 3:00:00 PM 13.15 55.67 0.404 8.29 -0.14 13.18
4/5/2021 3:15:00 PM 13.24 55.832 0.403 8.3 0.11 13.16
4/5/2021 3:30:00 PM 13.27 55.886 0.404 8.31 1.64 13.12
4/5/2021 3:45:00 PM 13.26 55.868 0.403 8.31 0.33 13.08
4/5/2021 4:00:00 PM 13.25 55.85 0.403 8.32 0.73 13.03
4/5/2021 4:15:00 PM 13.27 55.886 0.403 8.32 0.02 12.99
4/5/2021 4:30:00 PM 13.3 55.94 0.404 8.32 -0.18 12.92
4/5/2021 4:45:00 PM 13.33 55.994 0.403 8.32 -1.07 12.82
4/5/2021 5:00:00 PM 13.35 56.03 0.404 8.31 -0.56 12.7
4/5/2021 5:15:00 PM 13.36 56.048 0.404 8.3 -0.4 12.57
4/5/2021 5:30:00 PM 13.35 56.03 0.404 8.28 -0.25 12.43
4/5/2021 5:45:00 PM 13.36 56.048 0.404 8.27 0.07 12.33
4/5/2021 6:00:00 PM 13.35 56.03 0.404 8.25 0.2 12.21
4/5/2021 6:15:00 PM 13.33 55.994 0.404 8.24 0.33 12.08
4/5/2021 6:30:00 PM 13.31 55.958 0.404 8.22 -0.02 11.93
4/5/2021 6:45:00 PM 13.31 55.958 0.404 8.2 -0.33 11.79
4/5/2021 7:00:00 PM 13.3 55.94 0.405 8.17 -0.13 11.62
4/5/2021 7:15:00 PM 13.28 55.904 0.404 8.14 0.01 11.42
4/5/2021 7:30:00 PM 13.24 55.832 0.405 8.1 3.39 11.2
4/5/2021 7:45:00 PM 13.19 55.742 0.405 8.07 -0.23 10.99
4/5/2021 8:00:00 PM 13.15 55.67 0.405 8.03 -0.19 10.81
4/5/2021 8:15:00 PM 13.11 55.598 0.405 8.01 -0.31 10.66
4/5/2021 8:30:00 PM 13.09 55.562 0.405 7.98 -0.4 10.54
4/5/2021 8:45:00 PM 13.07 55.526 0.405 7.97 0.04 10.44
4/5/2021 9:00:00 PM 13.06 55.508 0.405 7.95 -0.32 10.36
4/5/2021 9:15:00 PM 13.04 55.472 0.405 7.93 0.19 10.28
4/5/2021 9:30:00 PM 13.01 55.418 0.405 7.92 0.26 10.2
4/5/2021 9:45:00 PM 12.98 55.364 0.405 7.9 -0.16 10.13
4/5/2021 10:00:00 PM 12.93 55.274 0.406 7.89 0.11 10.04
4/5/2021 10:15:00 PM 12.88 55.184 0.405 7.87 -0.07 9.97
4/5/2021 10:30:00 PM 12.84 55.112 0.405 7.86 0.19 9.91
4/5/2021 10:45:00 PM 12.79 55.022 0.405 7.85 0.51 9.84
4/5/2021 11:00:00 PM 12.75 54.95 0.406 7.83 1.03 9.78
4/5/2021 11:15:00 PM 12.72 54.896 0.406 7.82 0.97 9.74
4/5/2021 11:30:00 PM 12.7 54.86 0.405 7.81 0.24 9.68
4/5/2021 11:45:00 PM 12.67 54.806 0.406 7.81 0.37 9.65
4/6/2021 12:00:00 AM 12.66 54.788 0.405 7.8 0.26 9.61
4/6/2021 12:15:00 AM 12.64 54.752 0.406 7.79 0.17 9.58
4/6/2021 12:30:00 AM 12.61 54.698 0.406 7.78 -0.24 9.55
4/6/2021 12:45:00 AM 12.59 54.662 0.406 7.78 0.35 9.53
4/6/2021 1:00:00 AM 12.56 54.608 0.405 7.77 0.24 9.5
4/6/2021 1:15:00 AM 12.53 54.554 0.405 7.77 0.12 9.48
4/6/2021 1:30:00 AM 12.51 54.518 0.405 7.76 0.15 9.46
4/6/2021 1:45:00 AM 12.49 54.482 0.405 7.76 0.22 9.44
4/6/2021 2:00:00 AM 12.46 54.428 0.405 7.75 0.79 9.42
4/6/2021 2:15:00 AM 12.44 54.392 0.404 7.75 1.02 9.41
4/6/2021 2:30:00 AM 12.42 54.356 0.404 7.75 0.12 9.4
4/6/2021 2:45:00 AM 12.39 54.302 0.405 7.75 0.51 9.39
4/6/2021 3:00:00 AM 12.37 54.266 0.405 7.74 1.1 9.38
4/6/2021 3:15:00 AM 12.34 54.212 0.405 7.74 1.51 9.37
4/6/2021 3:30:00 AM 12.31 54.158 0.405 7.74 1.21 9.37
4/6/2021 3:45:00 AM 12.27 54.086 0.405 7.73 0.14 9.36
4/6/2021 4:00:00 AM 12.23 54.014 0.405 7.73 1 9.35
4/6/2021 4:15:00 AM 12.16 53.888 0.405 7.73 1.01 9.35
4/6/2021 4:30:00 AM 12.09 53.762 0.404 7.72 0.64 9.35
4/6/2021 4:45:00 AM 12.01 53.618 0.405 7.72 1.19 9.35
4/6/2021 5:00:00 AM 11.93 53.474 0.406 7.72 0.89 9.36
4/6/2021 5:15:00 AM 11.86 53.348 0.405 7.72 0.68 9.37
4/6/2021 5:30:00 AM 11.79 53.222 0.406 7.72 1.44 9.38
4/6/2021 5:45:00 AM 11.72 53.096 0.405 7.71 1.02 9.39
4/6/2021 6:00:00 AM 11.65 52.97 0.406 7.71 0.9 9.4
4/6/2021 6:15:00 AM 11.59 52.862 0.405 7.71 0.8 9.41
4/6/2021 6:30:00 AM 11.52 52.736 0.405 7.71 1.27 9.41
4/6/2021 6:45:00 AM 11.46 52.628 0.405 7.71 0.39 9.43
4/6/2021 7:00:00 AM 11.39 52.502 0.405 7.71 0.41 9.47
4/6/2021 7:15:00 AM 11.33 52.394 0.407 7.71 0.5 9.53
4/6/2021 7:30:00 AM 11.28 52.304 0.406 7.71 0.05 9.61
4/6/2021 7:45:00 AM 11.24 52.232 0.406 7.73 0.11 9.73
4/6/2021 8:00:00 AM 11.23 52.214 0.405 7.74 0.01 9.89
4/6/2021 8:15:00 AM 11.22 52.196 0.405 7.75 -0.21 10.06
4/6/2021 8:30:00 AM 11.23 52.214 0.406 7.77 -0.35 10.25
4/6/2021 8:45:00 AM 11.26 52.268 0.406 7.8 0.19 10.46
4/6/2021 9:00:00 AM 11.31 52.358 0.405 7.82 -1.73 10.66
4/6/2021 9:15:00 AM 11.37 52.466 0.406 7.84 -0.65 10.88
4/6/2021 9:30:00 AM 11.41 52.538 0.406 7.87 0.69 11.07
4/6/2021 9:45:00 AM 11.47 52.646 0.405 7.89 0.16 11.26
4/6/2021 10:00:00 AM 11.5 52.7 0.406 7.91 -0.69 11.39
4/6/2021 10:15:00 AM 11.58 52.844 0.405 7.94 0.42 11.57
4/6/2021 10:30:00 AM 11.68 53.024 0.405 7.96 0.63 11.73
4/6/2021 10:45:00 AM 11.81 53.258 0.405 7.99 -0.59 11.89
4/6/2021 11:00:00 AM 11.96 53.528 0.404 8.02 -0.13 12.04
4/6/2021 11:15:00 AM 12.05 53.69 0.405 8.04 -0.26 12.16
4/6/2021 11:30:00 AM 12.19 53.942 0.405 8.07 -0.78 12.29
4/6/2021 11:45:00 AM 12.42 54.356 0.405 8.1 -0.69 12.47
4/6/2021 12:00:00 PM 12.64 54.752 0.405 8.13 0.14 12.6
4/6/2021 12:15:00 PM 12.85 55.13 0.406 8.16 1.18 12.71
4/6/2021 12:30:00 PM 13.07 55.526 0.404 8.19 -0.13 12.81
4/6/2021 12:45:00 PM 13.28 55.904 0.405 8.21 -0.93 12.88
4/6/2021 1:00:00 PM 13.5 56.3 0.405 8.24 -0.6 12.97
4/6/2021 1:15:00 PM 13.7 56.66 0.404 8.26 -0.69 13.05
4/6/2021 1:30:00 PM 13.89 57.002 0.404 8.29 -0.4 13.11
4/6/2021 1:45:00 PM 14.09 57.362 0.404 8.31 -0.98 13.17
4/6/2021 2:00:00 PM 14.25 57.65 0.403 8.33 -0.7 13.21
4/6/2021 2:15:00 PM 14.42 57.956 0.405 8.36 -0.36 13.23
4/6/2021 2:30:00 PM 14.55 58.19 0.402 8.37 -0.23 13.24
4/6/2021 2:45:00 PM 14.68 58.424 0.403 8.38 0.2 13.23
4/6/2021 3:00:00 PM 14.77 58.586 0.401 8.39 -0.18 13.21
4/6/2021 3:15:00 PM 14.86 58.748 0.41 8.4 0.19 13.18
4/6/2021 3:30:00 PM 14.92 58.856 0.412 8.41 -0.14 13.16
4/6/2021 3:45:00 PM 14.97 58.946 0.4 8.42 -0.34 13.1
4/6/2021 4:00:00 PM 15 59 0.399 8.42 -0.68 13.03
4/6/2021 4:15:00 PM 15.01 59.018 0.399 8.42 0.25 12.95
4/6/2021 4:30:00 PM 15.02 59.036 0.399 8.42 -0.88 12.85
4/6/2021 4:45:00 PM 15.02 59.036 0.399 8.41 -0.19 12.74
4/6/2021 5:00:00 PM 15.01 59.018 0.399 8.4 -0.27 12.62
4/6/2021 5:15:00 PM 15 59 0.399 8.39 -0.19 12.48
4/6/2021 5:30:00 PM 14.98 58.964 0.411 8.37 0.06 12.32
4/6/2021 5:45:00 PM 14.97 58.946 0.399 8.35 -0.38 12.15
4/6/2021 6:00:00 PM 14.94 58.892 0.399 8.32 -0.18 11.97
4/6/2021 6:15:00 PM 14.92 58.856 0.399 8.3 0.56 11.79
4/6/2021 6:30:00 PM 14.89 58.802 0.411 8.27 -1.65 11.6
4/6/2021 6:45:00 PM 14.87 58.766 0.4 8.24 0.75 11.4
4/6/2021 7:00:00 PM 14.84 58.712 0.401 8.2 0.74 11.2
4/6/2021 7:15:00 PM 14.8 58.64 0.402 8.17 -0.15 10.99
4/6/2021 7:30:00 PM 14.76 58.568 0.402 8.13 -0.27 10.79
4/6/2021 7:45:00 PM 14.7 58.46 0.403 8.1 -0.26 10.59
4/6/2021 8:00:00 PM 14.65 58.37 0.403 8.06 1.46 10.41
4/6/2021 8:15:00 PM 14.58 58.244 0.404 8.03 0.08 10.26
4/6/2021 8:30:00 PM 14.51 58.118 0.435 8.01 1.17 10.14
4/6/2021 8:45:00 PM 14.45 58.01 0.403 7.99 0.71 10.04
4/6/2021 9:00:00 PM 14.38 57.884 0.403 7.97 0.28 9.95
4/6/2021 9:15:00 PM 14.33 57.794 0.401 7.96 2.02 9.87
4/6/2021 9:30:00 PM 14.27 57.686 0.405 7.94 0.7 9.78
4/6/2021 9:45:00 PM 14.21 57.578 0.405 7.92 1.01 9.7
4/6/2021 10:00:00 PM 14.16 57.488 0.406 7.9 0.61 9.63
4/6/2021 10:15:00 PM 14.11 57.398 0.406 7.89 0.61 9.55
4/6/2021 10:30:00 PM 14.07 57.326 0.407 7.87 0.87 9.48
4/6/2021 10:45:00 PM 14.02 57.236 0.406 7.86 0.5 9.42
4/6/2021 11:00:00 PM 13.97 57.146 0.406 7.84 0.57 9.36
4/6/2021 11:15:00 PM 13.91 57.038 0.407 7.83 0.58 9.31
4/6/2021 11:30:00 PM 13.85 56.93 0.406 7.82 0.96 9.28
4/6/2021 11:45:00 PM 13.79 56.822 0.406 7.81 1.1 9.25
4/7/2021 12:00:00 AM 13.74 56.732 0.406 7.8 0.85 9.21
4/7/2021 12:15:00 AM 13.69 56.642 0.406 7.79 1.26 9.19
4/7/2021 12:30:00 AM 13.64 56.552 0.406 7.78 1.07 9.17
4/7/2021 12:45:00 AM 13.6 56.48 0.406 7.78 0.36 9.14
4/7/2021 1:00:00 AM 13.55 56.39 0.406 7.77 1.23 9.13
4/7/2021 1:15:00 AM 13.51 56.318 0.406 7.77 1.28 9.11
4/7/2021 1:30:00 AM 13.47 56.246 0.406 7.76 0.96 9.09
4/7/2021 1:45:00 AM 13.44 56.192 0.405 7.76 0.58 9.08
4/7/2021 2:00:00 AM 13.4 56.12 0.406 7.75 0.38 9.07
4/7/2021 2:15:00 AM 13.36 56.048 0.406 7.75 1.15 9.06
4/7/2021 2:30:00 AM 13.32 55.976 0.407 7.74 1.1 9.05
4/7/2021 2:45:00 AM 13.27 55.886 0.406 7.74 2.19 9.05
4/7/2021 3:00:00 AM 13.21 55.778 0.406 7.73 0.74 9.05
4/7/2021 3:15:00 AM 13.14 55.652 0.406 7.73 1.87 9.05
4/7/2021 3:30:00 AM 13.07 55.526 0.405 7.73 1.97 9.05
4/7/2021 3:45:00 AM 13.02 55.436 0.406 7.72 1.08 9.05
4/7/2021 4:00:00 AM 12.99 55.382 0.407 7.72 0.65 9.05
4/7/2021 4:15:00 AM 12.96 55.328 0.408 7.71 1.15 9.05
4/7/2021 4:30:00 AM 12.93 55.274 0.407 7.71 0.53 9.05
4/7/2021 4:45:00 AM 12.89 55.202 0.407 7.71 1.25 9.04
4/7/2021 5:00:00 AM 12.82 55.076 0.407 7.7 0.8 9.05
4/7/2021 5:15:00 AM 12.76 54.968 0.407 7.7 2.4 9.06
4/7/2021 5:30:00 AM 12.68 54.824 0.407 7.7 1.86 9.06
4/7/2021 5:45:00 AM 12.6 54.68 0.408 7.69 0.77 9.08
4/7/2021 6:00:00 AM 12.52 54.536 0.406 7.69 0.93 9.09
4/7/2021 6:15:00 AM 12.44 54.392 0.407 7.69 0.62 9.1
4/7/2021 6:30:00 AM 12.38 54.284 0.408 7.69 0.99 9.12
4/7/2021 6:45:00 AM 12.33 54.194 0.409 7.69 1.28 9.13
4/7/2021 7:00:00 AM 12.28 54.104 0.41 7.69 0.77 9.16
4/7/2021 7:15:00 AM 12.25 54.05 0.411 7.69 0.68 9.23
4/7/2021 7:30:00 AM 12.24 54.032 0.411 7.7 0.99 9.35
4/7/2021 7:45:00 AM 12.24 54.032 0.411 7.72 0.23 9.52
4/7/2021 8:00:00 AM 12.25 54.05 0.411 7.74 0.2 9.73
4/7/2021 8:15:00 AM 12.27 54.086 0.411 7.76 -0.28 9.97
4/7/2021 8:30:00 AM 12.27 54.086 0.411 7.78 0.16 10.15
4/7/2021 8:45:00 AM 12.31 54.158 0.411 7.81 -0.05 10.42
4/7/2021 9:00:00 AM 12.32 54.176 0.41 7.83 0.49 10.58
4/7/2021 9:15:00 AM 12.32 54.176 0.41 7.86 -0.16 10.74
4/7/2021 9:30:00 AM 12.32 54.176 0.41 7.87 -0.34 10.86
4/7/2021 9:45:00 AM 12.33 54.194 0.409 7.9 -0.71 11.02
4/7/2021 10:00:00 AM 12.35 54.23 0.409 7.92 -0.96 11.21
4/7/2021 10:15:00 AM 12.41 54.338 0.408 7.96 -1.02 11.44
4/7/2021 10:30:00 AM 12.43 54.374 0.408 7.98 -0.78 11.6
4/7/2021 10:45:00 AM 12.56 54.608 0.408 8.03 -1.01 11.86
4/7/2021 11:00:00 AM 12.67 54.806 0.408 8.06 -0.77 12.04
4/7/2021 11:15:00 AM 12.75 54.95 0.408 8.09 -0.98 12.2
4/7/2021 11:30:00 AM 12.79 55.022 0.407 8.11 -0.56 12.28
4/7/2021 11:45:00 AM 12.77 54.986 0.407 8.12 -0.72 12.29
4/7/2021 12:00:00 PM 12.72 54.896 0.408 8.11 -0.46 12.2
4/7/2021 12:15:00 PM 12.65 54.77 0.411 8.08 -0.24 11.99
4/7/2021 12:30:00 PM 12.62 54.716 0.412 8.07 -0.68 11.93
4/7/2021 12:45:00 PM 12.71 54.878 0.409 8.11 -1.02 12.11
4/7/2021 1:00:00 PM 12.85 55.13 0.407 8.16 -1.1 12.39
4/7/2021 1:15:00 PM 13.08 55.544 0.408 8.22 -1.26 12.69
4/7/2021 1:30:00 PM 13.35 56.03 0.41 8.28 -1.11 12.93
4/7/2021 1:45:00 PM 13.73 56.714 0.408 8.34 -1.05 13.2
4/7/2021 2:00:00 PM 13.99 57.182 0.407 8.38 0.52 13.32
4/7/2021 2:15:00 PM 14.2 57.56 0.405 8.41 -0.55 13.39
4/7/2021 2:30:00 PM 14.34 57.812 0.405 8.42 -1 13.39
4/7/2021 2:45:00 PM 14.45 58.01 0.404 8.43 -0.76 13.37
4/7/2021 3:00:00 PM 14.53 58.154 0.403 8.44 -1.02 13.36
4/7/2021 3:15:00 PM 14.6 58.28 0.403 8.45 -0.03 13.35
4/7/2021 3:30:00 PM 14.66 58.388 0.403 8.45 -0.71 13.34
4/7/2021 3:45:00 PM 14.72 58.496 0.402 8.46 0.22 13.32
4/7/2021 4:00:00 PM 14.76 58.568 0.402 8.47 -0.79 13.28
4/7/2021 4:15:00 PM 14.8 58.64 0.402 8.47 -0.42 13.24
4/7/2021 4:30:00 PM 14.83 58.694 0.401 8.48 -0.64 13.17
4/7/2021 4:45:00 PM 14.84 58.712 0.401 8.47 -0.36 13.08
4/7/2021 5:00:00 PM 14.86 58.748 0.401 8.46 -0.39 12.96
4/7/2021 5:15:00 PM 14.86 58.748 0.402 8.45 -0.85 12.82
4/7/2021 5:30:00 PM 14.86 58.748 0.401 8.43 -0.54 12.67
4/7/2021 5:45:00 PM 14.87 58.766 0.4 8.41 -0.45 12.47
4/7/2021 6:00:00 PM 14.87 58.766 0.4 8.39 -0.61 12.27
4/7/2021 6:15:00 PM 14.86 58.748 0.401 8.36 -0.63 12.07
4/7/2021 6:30:00 PM 14.85 58.73 0.4 8.33 -0.75 11.85
4/7/2021 6:45:00 PM 14.85 58.73 0.401 8.3 0.51 11.64
4/7/2021 7:00:00 PM 14.82 58.676 0.401 8.26 -0.47 11.4
4/7/2021 7:15:00 PM 14.79 58.622 0.401 8.22 -0.97 11.17
4/7/2021 7:30:00 PM 14.75 58.55 0.402 8.18 -0.21 10.93
4/7/2021 7:45:00 PM 14.69 58.442 0.402 8.14 1.7 10.71
4/7/2021 8:00:00 PM 14.63 58.334 0.403 8.1 0.35 10.52
4/7/2021 8:15:00 PM 14.57 58.226 0.404 8.07 0.03 10.37
4/7/2021 8:30:00 PM 14.51 58.118 0.404 8.05 0.21 10.24
4/7/2021 8:45:00 PM 14.47 58.046 0.404 8.03 -0.29 10.14
4/7/2021 9:00:00 PM 14.44 57.992 0.404 8.01 0.03 10.04
4/7/2021 9:15:00 PM 14.4 57.92 0.404 7.99 0.54 9.95
4/7/2021 9:30:00 PM 14.37 57.866 0.404 7.96 -0.12 9.86
4/7/2021 9:45:00 PM 14.34 57.812 0.404 7.94 4.81 9.76
4/7/2021 10:00:00 PM 14.28 57.704 0.404 7.92 0.26 9.67
4/7/2021 10:15:00 PM 14.22 57.596 0.403 7.9 0.19 9.59
4/7/2021 10:30:00 PM 14.16 57.488 0.408 7.88 -0.57 9.51
4/7/2021 10:45:00 PM 14.1 57.38 0.407 7.87 1.04 9.45
4/7/2021 11:00:00 PM 14.04 57.272 0.407 7.85 2.12 9.39
4/7/2021 11:15:00 PM 13.99 57.182 0.407 7.84 1.12 9.33
4/7/2021 11:30:00 PM 13.94 57.092 0.407 7.83 0.96 9.29
4/7/2021 11:45:00 PM 13.9 57.02 0.407 7.82 1.29 9.24
4/8/2021 12:00:00 AM 13.87 56.966 0.407 7.81 1.13 9.2
4/8/2021 12:15:00 AM 13.84 56.912 0.406 7.8 0.88 9.18
4/8/2021 12:30:00 AM 13.81 56.858 0.407 7.8 1.13 9.15
4/8/2021 12:45:00 AM 13.75 56.75 0.407 7.79 0.89 9.13
4/8/2021 1:00:00 AM 13.68 56.624 0.407 7.79 0.93 9.11
4/8/2021 1:15:00 AM 13.62 56.516 0.407 7.78 1.64 9.09
4/8/2021 1:30:00 AM 13.56 56.408 0.408 7.77 3.33 9.08
4/8/2021 1:45:00 AM 13.5 56.3 0.408 7.77 2.39 9.07
4/8/2021 2:00:00 AM 13.44 56.192 0.41 7.76 1.9 9.05
4/8/2021 2:15:00 AM 13.38 56.084 0.408 7.76 2.48 9.05
4/8/2021 2:30:00 AM 13.31 55.958 0.408 7.76 1.53 9.04
4/8/2021 2:45:00 AM 13.25 55.85 0.408 7.75 1.39 9.04
4/8/2021 3:00:00 AM 13.19 55.742 0.409 7.75 1.06 9.04
4/8/2021 3:15:00 AM 13.13 55.634 0.408 7.75 1.42 9.04
4/8/2021 3:30:00 AM 13.07 55.526 0.408 7.74 1.37 9.04
4/8/2021 3:45:00 AM 13.02 55.436 0.406 7.74 1.36 9.04
4/8/2021 4:00:00 AM 12.96 55.328 0.407 7.74 0.75 9.04
4/8/2021 4:15:00 AM 12.91 55.238 0.408 7.73 1.42 9.04
4/8/2021 4:30:00 AM 12.85 55.13 0.408 7.73 1.32 9.04
4/8/2021 4:45:00 AM 12.79 55.022 0.407 7.73 1.03 9.05
4/8/2021 5:00:00 AM 12.72 54.896 0.407 7.73 1.21 9.05
4/8/2021 5:15:00 AM 12.65 54.77 0.407 7.73 1.85 9.06
4/8/2021 5:30:00 AM 12.58 54.644 0.406 7.72 1.83 9.08
4/8/2021 5:45:00 AM 12.52 54.536 0.407 7.72 1.42 9.09
4/8/2021 6:00:00 AM 12.44 54.392 0.406 7.72 1.38 9.1
4/8/2021 6:15:00 AM 12.38 54.284 0.407 7.72 1.63 9.11
4/8/2021 6:30:00 AM 12.31 54.158 0.407 7.71 0.56 9.13
4/8/2021 6:45:00 AM 12.25 54.05 0.409 7.71 0.45 9.14
4/8/2021 7:00:00 AM 12.2 53.96 0.409 7.71 0.09 9.19
4/8/2021 7:15:00 AM 12.15 53.87 0.408 7.72 0.36 9.26
4/8/2021 7:30:00 AM 12.12 53.816 0.407 7.73 0.8 9.38
4/8/2021 7:45:00 AM 12.09 53.762 0.408 7.74 -0.11 9.51
4/8/2021 8:00:00 AM 12.07 53.726 0.408 7.75 -0.26 9.67
4/8/2021 8:15:00 AM 12.06 53.708 0.408 7.77 0.89 9.86
4/8/2021 8:30:00 AM 12.07 53.726 0.409 7.8 0.07 10.1
4/8/2021 8:45:00 AM 12.09 53.762 0.407 7.82 -0.15 10.34
4/8/2021 9:00:00 AM 12.13 53.834 0.407 7.86 -0.1 10.6
4/8/2021 9:15:00 AM 12.18 53.924 0.408 7.89 -0.67 10.86
4/8/2021 9:30:00 AM 12.25 54.05 0.407 7.92 0.02 11.11
4/8/2021 9:45:00 AM 12.34 54.212 0.408 7.96 -0.9 11.35
4/8/2021 10:00:00 AM 12.45 54.41 0.406 7.99 -0.4 11.56
4/8/2021 10:15:00 AM 12.56 54.608 0.406 8.02 -0.8 11.76
4/8/2021 10:30:00 AM 12.68 54.824 0.407 8.06 -0.45 11.94
4/8/2021 10:45:00 AM 12.82 55.076 0.407 8.09 0.46 12.12
4/8/2021 11:00:00 AM 12.97 55.346 0.407 8.12 0.03 12.3
4/8/2021 11:15:00 AM 13.13 55.634 0.407 8.16 -0.17 12.47
4/8/2021 11:30:00 AM 13.3 55.94 0.407 8.2 -0.81 12.63
4/8/2021 11:45:00 AM 13.49 56.282 0.406 8.23 0.47 12.79
4/8/2021 12:00:00 PM 13.69 56.642 0.405 8.26 1.3 12.95
4/8/2021 12:15:00 PM 13.9 57.02 0.405 8.3 -0.11 13.08
4/8/2021 12:30:00 PM 14.12 57.416 0.405 8.34 0.25 13.2
4/8/2021 12:45:00 PM 14.33 57.794 0.404 8.37 -0.06 13.32
4/8/2021 1:00:00 PM 14.55 58.19 0.403 8.4 -0.29 13.41
4/8/2021 1:15:00 PM 14.76 58.568 0.402 8.43 -0.86 13.5
4/8/2021 1:30:00 PM 14.96 58.928 0.4 8.45 0.27 13.58
4/8/2021 1:45:00 PM 15.14 59.252 0.41 8.47 3.85 13.63
4/8/2021 2:00:00 PM 15.32 59.576 0.483 8.49 1.53 13.65
4/8/2021 2:15:00 PM 15.47 59.846 0.393 8.51 -0.23 13.68
4/8/2021 2:30:00 PM 15.61 60.098 0.482 8.53 0.11 13.69
4/8/2021 2:45:00 PM 15.72 60.296 0.433 8.54 0.06 13.69
4/8/2021 3:00:00 PM 15.82 60.476 0.409 8.55 0.28 13.67
4/8/2021 3:15:00 PM 15.9 60.62 0.432 8.56 -0.43 13.63
4/8/2021 3:30:00 PM 15.98 60.764 0.417 8.57 1.6 13.61
4/8/2021 3:45:00 PM 16.01 60.818 0.417 8.57 4.14 13.53
4/8/2021 4:00:00 PM 16.04 60.872 0.433 8.58 2.79 13.46
4/8/2021 4:15:00 PM 16.05 60.89 0.432 8.58 0.4 13.36
4/8/2021 4:30:00 PM 16.04 60.872 0.417 8.57 0 13.25
4/8/2021 4:45:00 PM 16.03 60.854 0.433 8.57 -0.26 13.14
4/8/2021 5:00:00 PM 16.01 60.818 0.417 8.56 0.76 13.01
4/8/2021 5:15:00 PM 15.97 60.746 0.433 8.55 1.1 12.85
4/8/2021 5:30:00 PM 15.92 60.656 0.482 8.53 0.43 12.67
4/8/2021 5:45:00 PM 15.87 60.566 0.433 8.51 0.66 12.46
4/8/2021 6:00:00 PM 15.82 60.476 0.41 8.48 0.34 12.24
4/8/2021 6:15:00 PM 15.76 60.368 0.483 8.45 1.11 12.03
4/8/2021 6:30:00 PM 15.7 60.26 0.484 8.42 -0.26 11.79
4/8/2021 6:45:00 PM 15.64 60.152 0.435 8.37 0.03 11.54
4/8/2021 7:00:00 PM 15.58 60.044 0.485 8.33 0.53 11.29
4/8/2021 7:15:00 PM 15.53 59.954 0.485 8.29 1.17 11.03
4/8/2021 7:30:00 PM 15.46 59.828 0.412 8.24 0.06 10.79
4/8/2021 7:45:00 PM 15.4 59.72 0.486 8.2 1.61 10.56
4/8/2021 8:00:00 PM 15.34 59.612 0.487 8.16 0.31 10.36
4/8/2021 8:15:00 PM 15.27 59.486 0.398 8.13 0.43 10.2
4/8/2021 8:30:00 PM 15.21 59.378 0.412 8.11 0.29 10.06
4/8/2021 8:45:00 PM 15.14 59.252 0.396 8.09 0.93 9.95
4/8/2021 9:00:00 PM 15.07 59.126 0.412 8.06 0.4 9.86
4/8/2021 9:15:00 PM 15.01 59.018 0.397 8.05 0.13 9.76
4/8/2021 9:30:00 PM 14.95 58.91 0.4 8.02 -0.36 9.67
4/8/2021 9:45:00 PM 14.88 58.784 0.401 8 0.02 9.59
4/8/2021 10:00:00 PM 14.81 58.658 0.4 7.98 0.41 9.5
4/8/2021 10:15:00 PM 14.76 58.568 0.402 7.96 -0.86 9.41
4/8/2021 10:30:00 PM 14.7 58.46 0.403 7.94 3.69 9.33
4/8/2021 10:45:00 PM 14.64 58.352 0.402 7.92 0.95 9.26
4/8/2021 11:00:00 PM 14.58 58.244 0.403 7.91 0.13 9.19
4/8/2021 11:15:00 PM 14.51 58.118 0.405 7.89 0.54 9.13
4/8/2021 11:30:00 PM 14.46 58.028 0.404 7.88 0.59 9.09
4/8/2021 11:45:00 PM 14.41 57.938 0.405 7.86 0.52 9.04
4/9/2021 12:00:00 AM 14.36 57.848 0.406 7.85 0.87 9.01
4/9/2021 12:15:00 AM 14.31 57.758 0.405 7.84 0.72 8.97
4/9/2021 12:30:00 AM 14.26 57.668 0.407 7.83 1.32 8.94
4/9/2021 12:45:00 AM 14.2 57.56 0.405 7.82 0.56 8.92
4/9/2021 1:00:00 AM 14.15 57.47 0.405 7.82 0.64 8.89
4/9/2021 1:15:00 AM 14.1 57.38 0.407 7.81 0.93 8.88
4/9/2021 1:30:00 AM 14.04 57.272 0.407 7.8 0.69 8.86
4/9/2021 1:45:00 AM 13.99 57.182 0.409 7.8 0.78 8.85
4/9/2021 2:00:00 AM 13.93 57.074 0.408 7.79 0.31 8.84
4/9/2021 2:15:00 AM 13.88 56.984 0.408 7.79 1.06 8.84
4/9/2021 2:30:00 AM 13.83 56.894 0.409 7.78 1.07 8.83
4/9/2021 2:45:00 AM 13.79 56.822 0.409 7.78 1.73 8.83
4/9/2021 3:00:00 AM 13.76 56.768 0.408 7.77 2 8.82
4/9/2021 3:15:00 AM 13.74 56.732 0.408 7.77 1.59 8.81
4/9/2021 3:30:00 AM 13.72 56.696 0.408 7.77 1.28 8.81
4/9/2021 3:45:00 AM 13.69 56.642 0.408 7.76 2.51 8.8
4/9/2021 4:00:00 AM 13.66 56.588 0.409 7.76 1.93 8.8
4/9/2021 4:15:00 AM 13.63 56.534 0.408 7.75 1.91 8.8
4/9/2021 4:30:00 AM 13.59 56.462 0.407 7.75 18.12 8.8
4/9/2021 4:45:00 AM 13.55 56.39 0.409 7.75 2.11 8.8
4/9/2021 5:00:00 AM 13.5 56.3 0.408 7.74 1.89 8.81
4/9/2021 5:15:00 AM 13.46 56.228 0.409 7.74 2.15 8.81
4/9/2021 5:30:00 AM 13.41 56.138 0.408 7.74 0.75 8.81
4/9/2021 5:45:00 AM 13.35 56.03 0.408 7.73 1.3 8.81
4/9/2021 6:00:00 AM 13.3 55.94 0.407 7.73 0.93 8.83
4/9/2021 6:15:00 AM 13.25 55.85 0.407 7.73 0.69 8.83
4/9/2021 6:30:00 AM 13.2 55.76 0.408 7.72 0.76 8.84
4/9/2021 6:45:00 AM 13.16 55.688 0.408 7.72 0.28 8.86
4/9/2021 7:00:00 AM 13.12 55.616 0.408 7.72 0.33 8.88
4/9/2021 7:15:00 AM 13.09 55.562 0.408 7.72 0.5 8.91
4/9/2021 7:30:00 AM 13.06 55.508 0.408 7.73 1.04 9
4/9/2021 7:45:00 AM 13.05 55.49 0.409 7.74 0.75 9.12
4/9/2021 8:00:00 AM 13.04 55.472 0.408 7.75 1.19 9.24
4/9/2021 8:15:00 AM 13.03 55.454 0.41 7.76 0.75 9.36
4/9/2021 8:30:00 AM 13.05 55.49 0.408 7.78 0.02 9.57
4/9/2021 8:45:00 AM 13.05 55.49 0.408 7.8 0.17 9.77
4/9/2021 9:00:00 AM 13.05 55.49 0.408 7.82 -0.07 9.95
4/9/2021 9:15:00 AM 13.04 55.472 0.41 7.83 0.86 10.02
4/9/2021 9:30:00 AM 13.02 55.436 0.409 7.83 0.44 10.06
4/9/2021 9:45:00 AM 13 55.4 0.408 7.84 0.07 10.12
4/9/2021 10:00:00 AM 12.98 55.364 0.409 7.84 0.45 10.16
4/9/2021 10:15:00 AM 12.95 55.31 0.397 7.85 -1.18 10.19
4/9/2021 10:30:00 AM 12.92 55.256 0.409 7.84 0.55 10.21
4/9/2021 10:45:00 AM 12.91 55.238 0.409 7.85 0.35 10.3
4/9/2021 11:00:00 AM 12.92 55.256 0.409 7.88 0.38 10.48
4/9/2021 11:15:00 AM 12.94 55.292 0.408 7.91 1.19 10.72
4/9/2021 11:30:00 AM 12.96 55.328 0.409 7.94 0.48 10.92
4/9/2021 11:45:00 AM 12.98 55.364 0.408 7.97 0.33 11.15
4/9/2021 12:00:00 PM 13.02 55.436 0.407 8.01 0.35 11.39
4/9/2021 12:15:00 PM 13.05 55.49 0.407 8.05 0.09 11.61
4/9/2021 12:30:00 PM 13.07 55.526 0.408 8.08 -0.21 11.76
4/9/2021 12:45:00 PM 13.1 55.58 0.408 8.11 2.77 11.89
4/9/2021 1:00:00 PM 13.12 55.616 0.408 8.14 0.15 12.01
4/9/2021 1:15:00 PM 13.16 55.688 0.409 8.17 0.11 12.14
4/9/2021 1:30:00 PM 13.17 55.706 0.409 8.18 0.29 12.21
4/9/2021 1:45:00 PM 13.17 55.706 0.408 8.19 0.44 12.21
4/9/2021 2:00:00 PM 13.17 55.706 0.408 8.19 0.9 12.17
4/9/2021 2:15:00 PM 13.17 55.706 0.408 8.19 -0.5 12.15
4/9/2021 2:30:00 PM 13.17 55.706 0.407 8.2 2.56 12.18
4/9/2021 2:45:00 PM 13.17 55.706 0.408 8.21 -1.14 12.2
4/9/2021 3:00:00 PM 13.18 55.724 0.409 8.21 -0.85 12.21
4/9/2021 3:15:00 PM 13.18 55.724 0.408 8.22 -0.83 12.21
4/9/2021 3:30:00 PM 13.19 55.742 0.407 8.24 -1.13 12.24
4/9/2021 3:45:00 PM 13.21 55.778 0.407 8.26 -0.2 12.3
4/9/2021 4:00:00 PM 13.21 55.778 0.407 8.25 -0.94 12.24
4/9/2021 4:15:00 PM 13.2 55.76 0.408 8.24 -0.98 12.14
4/9/2021 4:30:00 PM 13.19 55.742 0.407 8.23 -0.66 12.04
4/9/2021 4:45:00 PM 13.18 55.724 0.407 8.21 -0.83 11.9
4/9/2021 5:00:00 PM 13.16 55.688 0.407 8.19 -0.23 11.77
4/9/2021 5:15:00 PM 13.15 55.67 0.407 8.17 -0.69 11.67
4/9/2021 5:30:00 PM 13.12 55.616 0.407 8.15 -0.5 11.51
4/9/2021 5:45:00 PM 13.1 55.58 0.408 8.13 -0.93 11.4
4/9/2021 6:00:00 PM 13.07 55.526 0.408 8.11 1.35 11.26
4/9/2021 6:15:00 PM 13.05 55.49 0.408 8.1 -0.62 11.19
4/9/2021 6:30:00 PM 13.04 55.472 0.408 8.09 -0.22 11.13
4/9/2021 6:45:00 PM 13.01 55.418 0.408 8.07 -0.64 11.01
4/9/2021 7:00:00 PM 12.98 55.364 0.409 8.04 -0.82 10.87
4/9/2021 7:15:00 PM 12.96 55.328 0.409 8.02 -0.17 10.74
4/9/2021 7:30:00 PM 12.94 55.292 0.408 8 -0.33 10.61
4/9/2021 7:45:00 PM 12.91 55.238 0.409 7.97 -0.81 10.47
4/9/2021 8:00:00 PM 12.88 55.184 0.41 7.95 -0.81 10.34
4/9/2021 8:15:00 PM 12.86 55.148 0.411 7.93 -0.65 10.24
4/9/2021 8:30:00 PM 12.83 55.094 0.41 7.91 -0.66 10.15
4/9/2021 8:45:00 PM 12.8 55.04 0.409 7.9 -0.8 10.09
4/9/2021 9:00:00 PM 12.78 55.004 0.409 7.89 -0.78 10.02
4/9/2021 9:15:00 PM 12.76 54.968 0.41 7.88 0.67 9.97
4/9/2021 9:30:00 PM 12.73 54.914 0.41 7.87 -0.49 9.92
4/9/2021 9:45:00 PM 12.71 54.878 0.41 7.86 -0.42 9.87
4/9/2021 10:00:00 PM 12.69 54.842 0.41 7.85 -0.54 9.82
4/9/2021 10:15:00 PM 12.67 54.806 0.41 7.84 -0.67 9.78
4/9/2021 10:30:00 PM 12.65 54.77 0.41 7.83 -0.83 9.73
4/9/2021 10:45:00 PM 12.63 54.734 0.41 7.82 -0.72 9.69
4/9/2021 11:00:00 PM 12.61 54.698 0.41 7.81 -0.58 9.65
4/9/2021 11:15:00 PM 12.59 54.662 0.411 7.8 -0.64 9.62
4/9/2021 11:30:00 PM 12.57 54.626 0.411 7.8 0.22 9.58
4/9/2021 11:45:00 PM 12.55 54.59 0.41 7.79 -0.51 9.56
4/10/2021 12:00:00 AM 12.53 54.554 0.409 7.79 -0.13 9.54
4/10/2021 12:15:00 AM 12.51 54.518 0.409 7.78 0.27 9.52
4/10/2021 12:30:00 AM 12.5 54.5 0.408 7.78 -0.39 9.5
4/10/2021 12:45:00 AM 12.48 54.464 0.41 7.77 -0.53 9.48
4/10/2021 1:00:00 AM 12.46 54.428 0.409 7.77 -0.11 9.46
4/10/2021 1:15:00 AM 12.44 54.392 0.41 7.77 -0.19 9.46
4/10/2021 1:30:00 AM 12.42 54.356 0.41 7.76 0.08 9.44
4/10/2021 1:45:00 AM 12.41 54.338 0.409 7.76 -0.15 9.43
4/10/2021 2:00:00 AM 12.39 54.302 0.409 7.76 1.45 9.41
4/10/2021 2:15:00 AM 12.37 54.266 0.409 7.75 -0.15 9.41
4/10/2021 2:30:00 AM 12.36 54.248 0.411 7.75 0.31 9.4
4/10/2021 2:45:00 AM 12.34 54.212 0.409 7.75 0.15 9.4
4/10/2021 3:00:00 AM 12.32 54.176 0.409 7.75 0.01 9.39
4/10/2021 3:15:00 AM 12.31 54.158 0.409 7.75 2.14 9.38
4/10/2021 3:30:00 AM 12.29 54.122 0.409 7.74 2.54 9.38
4/10/2021 3:45:00 AM 12.28 54.104 0.409 7.74 2.68 9.35
4/10/2021 4:00:00 AM 12.27 54.086 0.409 7.74 1.27 9.36
4/10/2021 4:15:00 AM 12.25 54.05 0.41 7.68 0.67 9.36
4/10/2021 4:30:00 AM 12.24 54.032 0.408 7.73 1.2 9.36
4/10/2021 4:45:00 AM 12.22 53.996 0.409 7.73 0.48 9.35
4/10/2021 5:00:00 AM 12.21 53.978 0.409 7.73 0.27 9.35
4/10/2021 5:15:00 AM 12.2 53.96 0.411 7.71 0.42 9.35
4/10/2021 5:30:00 AM 12.18 53.924 0.409 7.72 1.54 9.34
4/10/2021 5:45:00 AM 12.17 53.906 0.409 7.72 1.25 9.34
4/10/2021 6:00:00 AM 12.16 53.888 0.411 7.72 0.7 9.34
4/10/2021 6:15:00 AM 12.14 53.852 0.41 7.72 0.2 9.34
4/10/2021 6:30:00 AM 12.13 53.834 0.41 7.72 0.26 9.34
4/10/2021 6:45:00 AM 12.11 53.798 0.41 7.72 0.99 9.35
4/10/2021 7:00:00 AM 12.1 53.78 0.409 7.72 0.3 9.37
4/10/2021 7:15:00 AM 12.08 53.744 0.409 7.72 0.95 9.38
4/10/2021 7:30:00 AM 12.08 53.744 0.41 7.72 0.14 9.43
4/10/2021 7:45:00 AM 12.07 53.726 0.409 7.73 -0.08 9.49
4/10/2021 8:00:00 AM 12.08 53.744 0.41 7.74 0.1 9.6
4/10/2021 8:15:00 AM 12.08 53.744 0.409 7.75 0.42 9.69
4/10/2021 8:30:00 AM 12.09 53.762 0.409 7.76 0.55 9.8
4/10/2021 8:45:00 AM 12.11 53.798 0.41 7.78 -0.87 9.93
4/10/2021 9:00:00 AM 12.13 53.834 0.408 7.8 0.12 10.12
4/10/2021 9:15:00 AM 12.16 53.888 0.409 7.82 0.05 10.34
4/10/2021 9:30:00 AM 12.19 53.942 0.409 7.85 -0.46 10.54
4/10/2021 9:45:00 AM 12.23 54.014 0.409 7.88 -0.33 10.77
4/10/2021 10:00:00 AM 12.28 54.104 0.407 7.91 -0.24 10.98
4/10/2021 10:15:00 AM 12.32 54.176 0.408 7.94 2.21 11.19
4/10/2021 10:30:00 AM 12.38 54.284 0.407 7.98 -1.1 11.41
4/10/2021 10:45:00 AM 12.45 54.41 0.408 8.02 -0.61 11.62
4/10/2021 11:00:00 AM 12.51 54.518 0.407 8.05 -1.41 11.8
4/10/2021 11:15:00 AM 12.56 54.608 0.408 8.07 -0.56 11.93
4/10/2021 11:30:00 AM 12.62 54.716 0.408 8.1 0.72 12.04
4/10/2021 11:45:00 AM 12.67 54.806 0.407 8.13 1.24 12.18
4/10/2021 12:00:00 PM 12.74 54.932 0.407 8.16 0.19 12.31
4/10/2021 12:15:00 PM 12.8 55.04 0.405 8.2 -0.55 12.44
4/10/2021 12:30:00 PM 12.84 55.112 0.406 8.21 0.65 12.5
4/10/2021 12:45:00 PM 12.86 55.148 0.407 8.22 -0.1 12.49
4/10/2021 1:00:00 PM 12.87 55.166 0.405 8.21 -0.04 12.41
4/10/2021 1:15:00 PM 12.87 55.166 0.406 8.2 2.05 12.32
4/10/2021 1:30:00 PM 12.9 55.22 0.406 8.2 -0.85 12.33
4/10/2021 1:45:00 PM 12.94 55.292 0.407 8.22 -0.51 12.4
4/10/2021 2:00:00 PM 13.02 55.436 0.406 8.27 -0.35 12.58
4/10/2021 2:15:00 PM 13.22 55.796 0.406 8.34 0.1 12.89
4/10/2021 2:30:00 PM 13.38 56.084 0.404 8.4 -0.45 13.13
4/10/2021 2:45:00 PM 13.52 56.336 0.405 8.45 -0.41 13.31
4/10/2021 3:00:00 PM 13.63 56.534 0.403 8.48 -0.27 13.39
4/10/2021 3:15:00 PM 13.7 56.66 0.404 8.5 -0.32 13.44
4/10/2021 3:30:00 PM 13.71 56.678 0.403 8.5 -0.83 13.37
4/10/2021 3:45:00 PM 13.74 56.732 0.404 8.51 -0.14 13.34
4/10/2021 4:00:00 PM 13.76 56.768 0.404 8.51 0.78 13.3
4/10/2021 4:15:00 PM 13.8 56.84 0.404 8.52 -0.28 13.3
4/10/2021 4:30:00 PM 13.86 56.948 0.404 8.53 0.61 13.31
4/10/2021 4:45:00 PM 13.9 57.02 0.406 8.54 0.25 13.28
4/10/2021 5:00:00 PM 13.97 57.146 0.404 8.55 -0.11 13.28
4/10/2021 5:15:00 PM 14.02 57.236 0.404 8.56 -0.2 13.24
4/10/2021 5:30:00 PM 14.03 57.254 0.405 8.55 -0.4 13.12
4/10/2021 5:45:00 PM 14.03 57.254 0.404 8.53 -0.18 12.98
4/10/2021 6:00:00 PM 14.02 57.236 0.404 8.51 -0.28 12.8
4/10/2021 6:15:00 PM 14 57.2 0.404 8.48 -0.13 12.6
4/10/2021 6:30:00 PM 13.98 57.164 0.404 8.45 -0.63 12.39
4/10/2021 6:45:00 PM 13.97 57.146 0.404 8.41 -0.77 12.15
4/10/2021 7:00:00 PM 13.96 57.128 0.405 8.37 -0.76 11.9
4/10/2021 7:15:00 PM 13.94 57.092 0.407 8.33 -1.25 11.64
4/10/2021 7:30:00 PM 13.91 57.038 0.407 8.28 -0.39 11.37
4/10/2021 7:45:00 PM 13.88 56.984 0.407 8.23 0.27 11.12
4/10/2021 8:00:00 PM 13.84 56.912 0.406 8.19 -0.48 10.89
4/10/2021 8:15:00 PM 13.82 56.876 0.406 8.15 -1.08 10.7
4/10/2021 8:30:00 PM 13.79 56.822 0.407 8.12 0.11 10.55
4/10/2021 8:45:00 PM 13.76 56.768 0.407 8.09 -0.73 10.43
4/10/2021 9:00:00 PM 13.73 56.714 0.407 8.07 0.89 10.33
4/10/2021 9:15:00 PM 13.7 56.66 0.406 8.06 0.26 10.23
4/10/2021 9:30:00 PM 13.67 56.606 0.406 8.04 -0.19 10.14
4/10/2021 9:45:00 PM 13.63 56.534 0.406 8.02 -0.16 10.06
4/10/2021 10:00:00 PM 13.59 56.462 0.407 8 0.66 9.96
4/10/2021 10:15:00 PM 13.54 56.372 0.407 7.97 -0.16 9.87
4/10/2021 10:30:00 PM 13.5 56.3 0.407 7.95 0.17 9.78
4/10/2021 10:45:00 PM 13.47 56.246 0.407 7.93 0.2 9.69
4/10/2021 11:00:00 PM 13.44 56.192 0.406 7.91 0.21 9.62
4/10/2021 11:15:00 PM 13.41 56.138 0.406 7.89 0.28 9.55
4/10/2021 11:30:00 PM 13.38 56.084 0.407 7.87 0.18 9.48
4/10/2021 11:45:00 PM 13.35 56.03 0.407 7.86 1.03 9.42
4/11/2021 12:00:00 AM 13.32 55.976 0.406 7.84 -0.02 9.37
4/11/2021 12:15:00 AM 13.3 55.94 0.406 7.83 0.81 9.32
4/11/2021 12:30:00 AM 13.28 55.904 0.407 7.82 0.86 9.28
4/11/2021 12:45:00 AM 13.27 55.886 0.409 7.81 0.7 9.24
4/11/2021 1:00:00 AM 13.26 55.868 0.407 7.8 0.09 9.21
4/11/2021 1:15:00 AM 13.25 55.85 0.407 7.79 0.92 9.18
4/11/2021 1:30:00 AM 13.24 55.832 0.407 7.79 0.17 9.16
4/11/2021 1:45:00 AM 13.23 55.814 0.409 7.78 0.45 9.14
4/11/2021 2:00:00 AM 13.21 55.778 0.408 7.78 3 9.12
4/11/2021 2:15:00 AM 13.2 55.76 0.408 7.77 0.38 9.1
4/11/2021 2:30:00 AM 13.18 55.724 0.407 7.77 0.2 9.08
4/11/2021 2:45:00 AM 13.17 55.706 0.408 7.76 0.91 9.07
4/11/2021 3:00:00 AM 13.16 55.688 0.408 7.75 0.72 9.04
4/11/2021 3:15:00 AM 13.16 55.688 0.407 7.75 -0.04 9.03
4/11/2021 3:30:00 AM 13.15 55.67 0.407 7.74 0.33 9.01
4/11/2021 3:45:00 AM 13.14 55.652 0.404 7.74 0.71 8.99
4/11/2021 4:00:00 AM 13.14 55.652 0.404 7.73 0.6 8.97
4/11/2021 4:15:00 AM 13.13 55.634 0.404 7.73 0.69 8.94
4/11/2021 4:30:00 AM 13.12 55.616 0.404 7.73 0.05 8.93
4/11/2021 4:45:00 AM 13.11 55.598 0.404 7.72 1.23 8.92
4/11/2021 5:00:00 AM 13.1 55.58 0.404 7.72 1.95 8.91
4/11/2021 5:15:00 AM 13.1 55.58 0.403 7.71 0.54 8.9
4/11/2021 5:30:00 AM 13.1 55.58 0.403 7.71 1.93 8.9
4/11/2021 5:45:00 AM 13.1 55.58 0.401 7.71 2.9 8.9
4/11/2021 6:00:00 AM 13.1 55.58 0.398 7.71 3.68 8.91
4/11/2021 6:15:00 AM 13.09 55.562 0.397 7.71 3.85 8.91
4/11/2021 6:30:00 AM 13.09 55.562 0.396 7.71 4.74 8.91
4/11/2021 6:45:00 AM 13.08 55.544 0.395 7.71 4.32 8.91
4/11/2021 7:00:00 AM 13.08 55.544 0.393 7.71 6.38 8.93
4/11/2021 7:15:00 AM 13.08 55.544 0.391 7.71 7.22 8.95
4/11/2021 7:30:00 AM 13.07 55.526 0.39 7.71 6.79 8.97
4/11/2021 7:45:00 AM 13.07 55.526 0.388 7.71 7.32 9
4/11/2021 8:00:00 AM 13.07 55.526 0.388 7.71 7.4 9.02
4/11/2021 8:15:00 AM 13.07 55.526 0.388 7.71 5.58 9.05
4/11/2021 8:30:00 AM 13.07 55.526 0.387 7.71 3.56 9.1
4/11/2021 8:45:00 AM 13.08 55.544 0.387 7.71 5.71 9.18
4/11/2021 9:00:00 AM 13.09 55.562 0.384 7.72 5.01 9.24
4/11/2021 9:15:00 AM 13.09 55.562 0.382 7.73 5 9.31
4/11/2021 9:30:00 AM 13.1 55.58 0.379 7.73 7.65 9.35
4/11/2021 9:45:00 AM 13.09 55.562 0.377 7.73 9.86 9.36
4/11/2021 10:00:00 AM 13.08 55.544 0.374 7.73 13.26 9.37
4/11/2021 10:15:00 AM 13.07 55.526 0.371 7.73 13.78 9.38
4/11/2021 10:30:00 AM 13.06 55.508 0.368 7.74 14.25 9.44
4/11/2021 10:45:00 AM 13.05 55.49 0.367 7.74 13.24 9.53
4/11/2021 11:00:00 AM 13.06 55.508 0.366 7.75 25.66 9.6
4/11/2021 11:15:00 AM 13.09 55.562 0.366 7.76 22.97 9.66
4/11/2021 11:30:00 AM 13.12 55.616 0.362 7.77 27.14 9.68
4/11/2021 11:45:00 AM 13.13 55.634 0.359 7.76 22.17 9.64
4/11/2021 12:00:00 PM 13.18 55.724 0.355 7.77 38.1 9.68
4/11/2021 12:15:00 PM 13.25 55.85 0.351 7.78 39.43 9.76
4/11/2021 12:30:00 PM 13.3 55.94 0.348 7.79 69.65 9.81
4/11/2021 12:45:00 PM 13.35 56.03 0.346 7.8 40.72 9.85
4/11/2021 1:00:00 PM 13.43 56.174 0.345 7.81 49.85 9.95
4/11/2021 1:15:00 PM 13.51 56.318 0.344 7.83 31.65 10.02
4/11/2021 1:30:00 PM 13.57 56.426 0.343 7.83 19.69 10.05
4/11/2021 1:45:00 PM 13.65 56.57 0.341 7.83 30.1 10.08
4/11/2021 2:00:00 PM 13.92 57.056 0.338 7.85 40.96 10.19
4/11/2021 2:15:00 PM 14.01 57.218 0.335 7.86 43.3 10.16
4/11/2021 2:30:00 PM 14.04 57.272 0.331 7.84 29.9 10.06
4/11/2021 2:45:00 PM 13.95 57.11 0.327 7.81 42.47 9.87
4/11/2021 3:00:00 PM 13.97 57.146 0.323 7.79 50.1 9.76
4/11/2021 3:15:00 PM 14.18 57.524 0.319 7.8 47.53 9.83
4/11/2021 3:30:00 PM 14.34 57.812 0.315 7.81 43.34 9.88
4/11/2021 3:45:00 PM 14.41 57.938 0.314 7.8 37.66 9.89
4/11/2021 4:00:00 PM 14.5 58.1 0.311 7.81 37.35 9.87
4/11/2021 4:15:00 PM 14.61 58.298 0.306 7.8 45.41 9.86
4/11/2021 4:30:00 PM 14.7 58.46 0.304 7.8 67.2 9.86
4/11/2021 4:45:00 PM 14.77 58.586 0.3 7.8 39.24 9.85
4/11/2021 5:00:00 PM 14.78 58.604 0.294 7.79 37.51 9.81
4/11/2021 5:15:00 PM 14.87 58.766 0.163 7.8 35.29 9.84
4/11/2021 5:30:00 PM 14.91 58.838 0.29 7.8 34.79 9.83
4/11/2021 5:45:00 PM 14.93 58.874 0.25 7.8 31.08 9.79
4/11/2021 6:00:00 PM 14.95 58.91 0.298 7.79 71.34 9.76
4/11/2021 6:15:00 PM 14.98 58.964 0.302 7.79 33.57 9.72
4/11/2021 6:30:00 PM 15.04 59.072 0.3 7.79 34.4 9.69
4/11/2021 6:45:00 PM 15.07 59.126 0.301 7.78 37.49 9.65
4/11/2021 7:00:00 PM 15.08 59.144 0.3 7.77 29.4 9.59
4/11/2021 7:15:00 PM 15.09 59.162 0.3 7.76 23.89 9.53
4/11/2021 7:30:00 PM 15.09 59.162 0.301 7.75 25.46 9.47
4/11/2021 7:45:00 PM 15.09 59.162 0.295 7.74 24.59 9.41
4/11/2021 8:00:00 PM 15.07 59.126 0.303 7.73 30.78 9.34
4/11/2021 8:15:00 PM 15.05 59.09 0.302 7.73 28.56 9.29
4/11/2021 8:30:00 PM 15.04 59.072 0.302 7.71 23.37 9.24
4/11/2021 8:45:00 PM 15.05 59.09 0.304 7.71 22.12 9.19
4/11/2021 9:00:00 PM 15.06 59.108 0.304 7.7 19.81 9.14
4/11/2021 9:15:00 PM 15.08 59.144 0.304 7.69 23.56 9.09
4/11/2021 9:30:00 PM 15.09 59.162 0.305 7.69 26.3 9.05
4/11/2021 9:45:00 PM 15.07 59.126 0.306 7.68 25.31 9.02
4/11/2021 10:00:00 PM 15.03 59.054 0.307 7.67 22.72 8.97
4/11/2021 10:15:00 PM 14.99 58.982 0.309 7.66 24.7 8.94
4/11/2021 10:30:00 PM 14.92 58.856 0.305 7.66 26.32 8.92
4/11/2021 10:45:00 PM 14.84 58.712 0.305 7.67 30.49 8.97
4/11/2021 11:00:00 PM 14.79 58.622 0.306 7.66 30.28 8.95
4/11/2021 11:15:00 PM 14.74 58.532 0.308 7.66 27.36 8.91
4/11/2021 11:30:00 PM 14.69 58.442 0.31 7.65 24.61 8.88
4/11/2021 11:45:00 PM 14.62 58.316 0.311 7.64 24.96 8.85
4/12/2021 12:00:00 AM 14.55 58.19 0.313 7.63 35.02 8.83
4/12/2021 12:15:00 AM 14.47 58.046 0.315 7.63 23.39 8.83
4/12/2021 12:30:00 AM 14.4 57.92 0.317 7.62 27.09 8.84
4/12/2021 12:45:00 AM 14.34 57.812 0.318 7.62 23.02 8.83
4/12/2021 1:00:00 AM 14.28 57.704 0.319 7.62 25.83 8.84
4/12/2021 1:15:00 AM 14.21 57.578 0.321 7.62 25.47 8.85
4/12/2021 1:30:00 AM 14.15 57.47 0.322 7.61 24.35 8.85
4/12/2021 1:45:00 AM 14.1 57.38 0.325 7.61 23.33 8.84
4/12/2021 2:00:00 AM 14.05 57.29 0.324 7.6 28.27 8.84
4/12/2021 2:15:00 AM 14.01 57.218 0.326 7.61 29.28 8.86
4/12/2021 2:30:00 AM 13.97 57.146 0.323 7.62 44.67 8.88
4/12/2021 2:45:00 AM 13.91 57.038 0.323 7.62 68.77 8.88
4/12/2021 3:00:00 AM 13.86 56.948 0.322 7.62 69 8.89
4/12/2021 3:15:00 AM 13.82 56.876 0.316 7.62 53.51 8.93
4/12/2021 3:30:00 AM 13.78 56.804 0.315 7.61 57.51 8.95
4/12/2021 3:45:00 AM 13.73 56.714 0.314 7.62 48.81 8.97
4/12/2021 4:00:00 AM 13.67 56.606 0.31 7.63 55.68 8.98
4/12/2021 4:15:00 AM 13.61 56.498 0.306 7.63 69.79 9
4/12/2021 4:30:00 AM 13.55 56.39 0.303 7.62 89.54 9.01
4/12/2021 4:45:00 AM 13.48 56.264 0.298 7.62 131.39 8.99
4/12/2021 5:00:00 AM 13.39 56.102 0.294 7.62 166.06 8.99
4/12/2021 5:15:00 AM 13.31 55.958 0.293 7.62 160.9 9
4/12/2021 5:30:00 AM 13.23 55.814 0.29 7.62 150.58 9.04
4/12/2021 5:45:00 AM 13.15 55.67 0.288 7.6 148.61 9.07
4/12/2021 6:00:00 AM 13.07 55.526 0.287 7.59 124.56 9.11
4/12/2021 6:15:00 AM 13.01 55.418 0.286 7.58 104.38 9.13
4/12/2021 6:30:00 AM 12.95 55.31 0.286 7.58 110.53 9.16
4/12/2021 6:45:00 AM 12.89 55.202 0.286 7.58 109.26 9.17
4/12/2021 7:00:00 AM 12.83 55.094 0.285 7.58 109.41 9.18
4/12/2021 7:15:00 AM 12.77 54.986 0.284 7.59 104.1 9.2
4/12/2021 7:30:00 AM 12.71 54.878 0.283 7.59 114.33 9.21
4/12/2021 7:45:00 AM 12.66 54.788 0.282 7.59 88 9.23
4/12/2021 8:00:00 AM 12.62 54.716 0.281 7.59 118.33 9.26
4/12/2021 8:15:00 AM 12.57 54.626 0.281 7.59 99.46 9.28
4/12/2021 8:30:00 AM 12.53 54.554 0.281 7.59 80.99 9.31
4/12/2021 8:45:00 AM 12.5 54.5 0.282 7.59 94.53 9.34
4/12/2021 9:00:00 AM 12.48 54.464 0.282 7.59 98.01 9.36
4/12/2021 9:15:00 AM 12.46 54.428 0.282 7.59 100.37 9.38
4/12/2021 9:30:00 AM 12.44 54.392 0.284 7.59 87.36 9.39
4/12/2021 9:45:00 AM 12.4 54.32 0.286 7.59 69.01 9.4
4/12/2021 10:00:00 AM 12.37 54.266 0.287 7.6 66.57 9.42
4/12/2021 10:15:00 AM 12.36 54.248 0.289 7.6 95.9 9.44
4/12/2021 10:30:00 AM 12.36 54.248 0.292 7.6 72.25 9.47
4/12/2021 10:45:00 AM 12.36 54.248 0.293 7.61 67.47 9.5
4/12/2021 11:00:00 AM 12.37 54.266 0.295 7.61 52.44 9.55
4/12/2021 11:15:00 AM 12.37 54.266 0.298 7.62 52.69 9.59
4/12/2021 11:30:00 AM 12.38 54.284 0.3 7.63 58.05 9.63
4/12/2021 11:45:00 AM 12.39 54.302 0.302 7.63 48.9 9.68
4/12/2021 12:00:00 PM 12.38 54.284 0.303 7.64 57.67 9.72
4/12/2021 12:15:00 PM 12.39 54.302 0.305 7.64 42.95 9.78
4/12/2021 12:30:00 PM 12.4 54.32 0.308 7.65 43.29 9.82
4/12/2021 12:45:00 PM 12.39 54.302 0.31 7.66 37.17 9.85
4/12/2021 1:00:00 PM 12.38 54.284 0.311 7.66 34.03 9.87
4/12/2021 1:15:00 PM 12.38 54.284 0.313 7.66 34.29 9.91
4/12/2021 1:30:00 PM 12.38 54.284 0.314 7.67 39.33 9.94
4/12/2021 1:45:00 PM 12.38 54.284 0.315 7.67 30.31 9.97
4/12/2021 2:00:00 PM 12.42 54.356 0.318 7.68 32.1 10.03
4/12/2021 2:15:00 PM 12.45 54.41 0.318 7.69 26.41 10.07
4/12/2021 2:30:00 PM 12.46 54.428 0.319 7.7 27.17 10.11
4/12/2021 2:45:00 PM 12.48 54.464 0.32 7.7 25.69 10.15
4/12/2021 3:00:00 PM 12.49 54.482 0.322 7.71 25.92 10.18
4/12/2021 3:15:00 PM 12.47 54.446 0.323 7.72 22.93 10.16
4/12/2021 3:30:00 PM 12.47 54.446 0.323 7.72 24.12 10.2
4/12/2021 3:45:00 PM 12.47 54.446 0.324 7.72 23.27 10.16
4/12/2021 4:00:00 PM 12.46 54.428 0.325 7.72 24.72 10.21
4/12/2021 4:15:00 PM 12.46 54.428 0.327 7.73 19.57 10.21
4/12/2021 4:30:00 PM 12.46 54.428 0.327 7.73 21.53 10.24
4/12/2021 4:45:00 PM 12.46 54.428 0.329 7.74 16.2 10.23
4/12/2021 5:00:00 PM 12.45 54.41 0.331 7.74 15.94 10.25
4/12/2021 5:15:00 PM 12.45 54.41 0.332 7.74 22.82 10.25
4/12/2021 5:30:00 PM 12.43 54.374 0.333 7.74 17.93 10.25
4/12/2021 5:45:00 PM 12.4 54.32 0.336 7.74 17.22 10.21
4/12/2021 6:00:00 PM 12.38 54.284 0.337 7.74 21.43 10.16
4/12/2021 6:15:00 PM 12.36 54.248 0.338 7.73 17.13 10.13
4/12/2021 6:30:00 PM 12.34 54.212 0.339 7.73 17.66 10.09
4/12/2021 6:45:00 PM 12.33 54.194 0.342 7.73 16.55 10.07
4/12/2021 7:00:00 PM 12.3 54.14 0.342 7.73 29.3 10.03
4/12/2021 7:15:00 PM 12.28 54.104 0.343 7.72 15.96 10.03
4/12/2021 7:30:00 PM 12.26 54.068 0.344 7.72 13.5 10
4/12/2021 7:45:00 PM 12.23 54.014 0.346 7.72 12.74 9.98
4/12/2021 8:00:00 PM 12.2 53.96 0.346 7.71 16.46 9.94
4/12/2021 8:15:00 PM 12.17 53.906 0.347 7.71 14.8 9.92
4/12/2021 8:30:00 PM 12.14 53.852 0.348 7.71 14.63 9.91
4/12/2021 8:45:00 PM 12.12 53.816 0.349 7.71 12.88 9.88
4/12/2021 9:00:00 PM 12.09 53.762 0.35 7.7 13.14 9.86
4/12/2021 9:15:00 PM 12.07 53.726 0.35 7.7 12.65 9.82
4/12/2021 9:30:00 PM 12.04 53.672 0.35 7.69 11.67 9.83
4/12/2021 9:45:00 PM 12.02 53.636 0.351 7.69 12.24 9.8
4/12/2021 10:00:00 PM 11.99 53.582 0.352 7.69 11.17 9.76
4/12/2021 10:15:00 PM 11.97 53.546 0.353 7.69 10.72 9.78
4/12/2021 10:30:00 PM 11.94 53.492 0.353 7.69 12.62 9.76
4/12/2021 10:45:00 PM 11.91 53.438 0.354 7.68 11.04 9.76
4/12/2021 11:00:00 PM 11.88 53.384 0.355 7.68 11.6 9.74
4/12/2021 11:15:00 PM 11.86 53.348 0.356 7.68 11.48 9.75
4/12/2021 11:30:00 PM 11.83 53.294 0.356 7.68 8.76 9.75
4/12/2021 11:45:00 PM 11.81 53.258 0.357 7.68 10.03 9.73
4/13/2021 12:00:00 AM 11.79 53.222 0.358 7.68 9.88 9.76
4/13/2021 12:15:00 AM 11.76 53.168 0.358 7.68 9.91 9.75
4/13/2021 12:30:00 AM 11.74 53.132 0.36 7.68 12.12 9.74
4/13/2021 12:45:00 AM 11.71 53.078 0.36 7.68 9.13 9.74
4/13/2021 1:00:00 AM 11.68 53.024 0.361 7.68 8.97 9.74
4/13/2021 1:15:00 AM 11.66 52.988 0.361 7.67 10.29 9.72
4/13/2021 1:30:00 AM 11.64 52.952 0.362 7.67 7.16 9.74
4/13/2021 1:45:00 AM 11.61 52.898 0.363 7.67 11.7 9.74
4/13/2021 2:00:00 AM 11.59 52.862 0.363 7.67 9.1 9.71
4/13/2021 2:15:00 AM 11.56 52.808 0.364 7.67 9.4 9.71
4/13/2021 2:30:00 AM 11.54 52.772 0.365 7.67 7.88 9.74
4/13/2021 2:45:00 AM 11.52 52.736 0.365 7.67 8.13 9.74
4/13/2021 3:00:00 AM 11.49 52.682 0.366 7.67 7.14 9.74
4/13/2021 3:15:00 AM 11.47 52.646 0.366 7.67 8.12 9.74
4/13/2021 3:30:00 AM 11.44 52.592 0.367 7.67 7 9.74
4/13/2021 3:45:00 AM 11.41 52.538 0.368 7.67 8 9.76
4/13/2021 4:00:00 AM 11.39 52.502 0.368 7.67 7.38 9.76
4/13/2021 4:15:00 AM 11.36 52.448 0.369 7.67 7.62 9.76
4/13/2021 4:30:00 AM 11.33 52.394 0.369 7.67 7.52 9.76
4/13/2021 4:45:00 AM 11.31 52.358 0.37 7.67 7.72 9.77
4/13/2021 5:00:00 AM 11.28 52.304 0.37 7.67 7.54 9.78
4/13/2021 5:15:00 AM 11.25 52.25 0.371 7.67 9.08 9.79
4/13/2021 5:30:00 AM 11.22 52.196 0.371 7.67 7.42 9.8
4/13/2021 5:45:00 AM 11.2 52.16 0.372 7.67 8.25 9.81
4/13/2021 6:00:00 AM 11.17 52.106 0.373 7.67 7.81 9.8
4/13/2021 6:15:00 AM 11.14 52.052 0.373 7.67 7.16 9.82
4/13/2021 6:30:00 AM 11.12 52.016 0.373 7.67 7.22 9.84
4/13/2021 6:45:00 AM 11.09 51.962 0.375 7.67 7.4 9.84
4/13/2021 7:00:00 AM 11.07 51.926 0.374 7.67 7.09 9.85
4/13/2021 7:15:00 AM 11.06 51.908 0.373 7.67 6.57 9.88
4/13/2021 7:30:00 AM 11.04 51.872 0.375 7.67 6.12 9.91
4/13/2021 7:45:00 AM 11.02 51.836 0.375 7.68 6.13 9.94
4/13/2021 8:00:00 AM 11 51.8 0.376 7.68 5.44 9.96
4/13/2021 8:15:00 AM 10.99 51.782 0.376 7.68 5.35 10
4/13/2021 8:30:00 AM 10.99 51.782 0.377 7.69 4.9 10.05
4/13/2021 8:45:00 AM 10.99 51.782 0.377 7.7 4.73 10.13
4/13/2021 9:00:00 AM 11 51.8 0.377 7.71 5.31 10.21
4/13/2021 9:15:00 AM 11.02 51.836 0.377 7.72 5.14 10.32
4/13/2021 9:30:00 AM 11.03 51.854 0.377 7.73 4.06 10.42
4/13/2021 9:45:00 AM 11.05 51.89 0.379 7.74 4.05 10.51
4/13/2021 10:00:00 AM 11.05 51.89 0.378 7.75 3.44 10.56
4/13/2021 10:15:00 AM 11.06 51.908 0.378 7.76 4 10.64
4/13/2021 10:30:00 AM 11.11 51.998 0.378 7.78 3.45 10.78
4/13/2021 10:45:00 AM 11.23 52.214 0.379 7.8 3.11 10.99
4/13/2021 11:00:00 AM 11.43 52.574 0.378 7.83 3.27 11.17
4/13/2021 11:15:00 AM 11.58 52.844 0.378 7.85 3.02 11.29
4/13/2021 11:30:00 AM 11.68 53.024 0.379 7.88 2.77 11.42
4/13/2021 11:45:00 AM 11.78 53.204 0.379 7.9 2.89 11.52
4/13/2021 12:00:00 PM 11.94 53.492 0.379 7.92 2.59 11.62
4/13/2021 12:15:00 PM 12.09 53.762 0.38 7.94 3.15 11.72
4/13/2021 12:30:00 PM 12.21 53.978 0.38 7.96 2.05 11.8
4/13/2021 12:45:00 PM 12.36 54.248 0.38 7.98 2.58 11.87
4/13/2021 1:00:00 PM 12.66 54.788 0.38 8 2.55 11.93
4/13/2021 1:15:00 PM 12.95 55.31 0.38 8.02 3.27 12.02
4/13/2021 1:30:00 PM 13.17 55.706 0.38 8.05 2.25 12.06
4/13/2021 1:45:00 PM 13.25 55.85 0.38 8.07 3.7 12.09
4/13/2021 2:00:00 PM 13.3 55.94 0.381 8.09 3.36 12.14
4/13/2021 2:15:00 PM 13.24 55.832 0.382 8.09 3.02 12.06
4/13/2021 2:30:00 PM 13.35 56.03 0.381 8.11 2.59 12.13
4/13/2021 2:45:00 PM 13.36 56.048 0.381 8.12 3.37 12.1
4/13/2021 3:00:00 PM 13.38 56.084 0.382 8.12 3.9 12.07
4/13/2021 3:15:00 PM 13.53 56.354 0.383 8.15 3.53 12.15
4/13/2021 3:30:00 PM 13.74 56.732 0.381 8.17 2.69 12.19
4/13/2021 3:45:00 PM 13.81 56.858 0.382 8.18 2.52 12.14
4/13/2021 4:00:00 PM 13.79 56.822 0.381 8.17 2.78 12.01
4/13/2021 4:15:00 PM 13.74 56.732 0.381 8.16 2.34 11.91
4/13/2021 4:30:00 PM 13.7 56.66 0.382 8.15 2.11 11.81
4/13/2021 4:45:00 PM 13.72 56.696 0.381 8.15 2.72 11.78
4/13/2021 5:00:00 PM 13.77 56.786 0.381 8.16 2.57 11.77
4/13/2021 5:15:00 PM 13.83 56.894 0.381 8.16 2.36 11.74
4/13/2021 5:30:00 PM 13.86 56.948 0.382 8.16 2.74 11.69
4/13/2021 5:45:00 PM 13.87 56.966 0.381 8.15 2.86 11.59
4/13/2021 6:00:00 PM 13.87 56.966 0.382 8.14 2.81 11.49
4/13/2021 6:15:00 PM 13.84 56.912 0.382 8.12 3 11.37
4/13/2021 6:30:00 PM 13.81 56.858 0.382 8.09 2.6 11.23
4/13/2021 6:45:00 PM 13.79 56.822 0.383 8.07 2.56 11.11
4/13/2021 7:00:00 PM 13.78 56.804 0.383 8.04 2.66 10.97
4/13/2021 7:15:00 PM 13.77 56.786 0.384 8.02 2.56 10.85
4/13/2021 7:30:00 PM 13.75 56.75 0.383 7.99 2.24 10.7
4/13/2021 7:45:00 PM 13.74 56.732 0.384 7.97 3.77 10.57
4/13/2021 8:00:00 PM 13.72 56.696 0.385 7.95 3.89 10.46
4/13/2021 8:15:00 PM 13.69 56.642 0.384 7.92 3.12 10.35
4/13/2021 8:30:00 PM 13.65 56.57 0.384 7.91 3.81 10.25
4/13/2021 8:45:00 PM 13.6 56.48 0.384 7.89 3.67 10.17
4/13/2021 9:00:00 PM 13.55 56.39 0.385 7.87 3.5 10.09
4/13/2021 9:15:00 PM 13.5 56.3 0.384 7.85 4.21 10.02
4/13/2021 9:30:00 PM 13.44 56.192 0.386 7.84 5.79 9.95
4/13/2021 9:45:00 PM 13.38 56.084 0.385 7.82 4.67 9.87
4/13/2021 10:00:00 PM 13.32 55.976 0.385 7.81 6.4 9.83
4/13/2021 10:15:00 PM 13.27 55.886 0.386 7.8 4.29 9.77
4/13/2021 10:30:00 PM 13.23 55.814 0.384 7.78 4.12 9.71
4/13/2021 10:45:00 PM 13.18 55.724 0.385 7.77 4.1 9.67
4/13/2021 11:00:00 PM 13.14 55.652 0.384 7.76 4.08 9.63
4/13/2021 11:15:00 PM 13.11 55.598 0.386 7.75 4.64 9.6
4/13/2021 11:30:00 PM 13.07 55.526 0.386 7.74 4.44 9.56
4/13/2021 11:45:00 PM 13.04 55.472 0.387 7.74 4.36 9.53
4/14/2021 12:00:00 AM 12.99 55.382 0.386 7.73 6.12 9.51
4/14/2021 12:15:00 AM 12.95 55.31 0.386 7.72 5.58 9.49
4/14/2021 12:30:00 AM 12.9 55.22 0.386 7.72 4.59 9.47
4/14/2021 12:45:00 AM 12.86 55.148 0.386 7.71 6.38 9.45
4/14/2021 1:00:00 AM 12.81 55.058 0.385 7.71 4.89 9.44
4/14/2021 1:15:00 AM 12.76 54.968 0.386 7.7 4.39 9.43
4/14/2021 1:30:00 AM 12.71 54.878 0.386 7.7 4.74 9.42
4/14/2021 1:45:00 AM 12.66 54.788 0.387 7.69 5.38 9.42
4/14/2021 2:00:00 AM 12.6 54.68 0.387 7.69 5.16 9.42
4/14/2021 2:15:00 AM 12.55 54.59 0.387 7.69 6.82 9.42
4/14/2021 2:30:00 AM 12.49 54.482 0.387 7.68 5.58 9.42
4/14/2021 2:45:00 AM 12.42 54.356 0.388 7.68 4.96 9.41
4/14/2021 3:00:00 AM 12.36 54.248 0.388 7.68 4.59 9.43
4/14/2021 3:15:00 AM 12.29 54.122 0.388 7.67 5.59 9.42
4/14/2021 3:30:00 AM 12.22 53.996 0.388 7.67 5.61 9.43
4/14/2021 3:45:00 AM 12.15 53.87 0.389 7.67 5.95 9.43
4/14/2021 4:00:00 AM 12.09 53.762 0.389 7.67 18.34 9.44
4/14/2021 4:15:00 AM 12.02 53.636 0.389 7.66 5.7 9.45
4/14/2021 4:30:00 AM 11.95 53.51 0.389 7.66 4.39 9.46
4/14/2021 4:45:00 AM 11.89 53.402 0.39 7.66 7.03 9.48
4/14/2021 5:00:00 AM 11.83 53.294 0.39 7.66 6.74 9.48
4/14/2021 5:15:00 AM 11.78 53.204 0.389 7.66 6.26 9.5
4/14/2021 5:30:00 AM 11.73 53.114 0.389 7.66 7.14 9.51
4/14/2021 5:45:00 AM 11.69 53.042 0.39 7.65 10.09 9.53
4/14/2021 6:00:00 AM 11.64 52.952 0.39 7.65 7.12 9.54
4/14/2021 6:15:00 AM 11.6 52.88 0.39 7.65 12.98 9.55
4/14/2021 6:30:00 AM 11.56 52.808 0.391 7.65 63.66 9.57
4/14/2021 6:45:00 AM 11.51 52.718 0.39 7.65 3.59 9.59
4/14/2021 7:00:00 AM 11.46 52.628 0.391 7.65 3.96 9.62
4/14/2021 7:15:00 AM 11.42 52.556 0.39 7.66 4.33 9.67
4/14/2021 7:30:00 AM 11.38 52.484 0.391 7.66 3.44 9.75
4/14/2021 7:45:00 AM 11.36 52.448 0.391 7.67 2.95 9.87
4/14/2021 8:00:00 AM 11.35 52.43 0.391 7.68 3.09 9.97
4/14/2021 8:15:00 AM 11.36 52.448 0.391 7.7 2.51 10.1
4/14/2021 8:30:00 AM 11.37 52.466 0.391 7.71 2.55 10.23
4/14/2021 8:45:00 AM 11.4 52.52 0.392 7.73 2.08 10.4
4/14/2021 9:00:00 AM 11.44 52.592 0.393 7.75 1.79 10.58
4/14/2021 9:15:00 AM 11.48 52.664 0.392 7.77 2.66 10.73
4/14/2021 9:30:00 AM 11.56 52.808 0.392 7.79 2.24 10.92
4/14/2021 9:45:00 AM 11.61 52.898 0.392 7.81 1.7 11.07
4/14/2021 10:00:00 AM 11.65 52.97 0.391 7.82 1.22 11.16
4/14/2021 10:15:00 AM 11.72 53.096 0.393 7.85 1.62 11.34
4/14/2021 10:30:00 AM 11.8 53.24 0.392 7.87 1.84 11.48
4/14/2021 10:45:00 AM 11.83 53.294 0.392 7.88 0.94 11.54
4/14/2021 11:00:00 AM 11.85 53.33 0.392 7.9 1.1 11.6
4/14/2021 11:15:00 AM 11.84 53.312 0.393 7.9 0.96 11.61
4/14/2021 11:30:00 AM 11.85 53.33 0.392 7.91 1.56 11.67
4/14/2021 11:45:00 AM 11.85 53.33 0.392 7.92 1.03 11.65
4/14/2021 12:00:00 PM 11.91 53.438 0.392 7.95 0.88 11.81
4/14/2021 12:15:00 PM 11.97 53.546 0.391 7.96 0.74 11.85
4/14/2021 12:30:00 PM 12.09 53.762 0.392 8 0.85 12.06
4/14/2021 12:45:00 PM 12.2 53.96 0.39 8.04 0.3 12.18
4/14/2021 1:00:00 PM 12.31 54.158 0.391 8.07 1.55 12.32
4/14/2021 1:15:00 PM 12.36 54.248 0.391 8.09 1.29 12.33
4/14/2021 1:30:00 PM 12.36 54.248 0.392 8.08 1.84 12.26
4/14/2021 1:45:00 PM 12.32 54.176 0.391 8.08 0.79 12.19
4/14/2021 2:00:00 PM 12.32 54.176 0.391 8.09 0.82 12.21
4/14/2021 2:15:00 PM 12.35 54.23 0.391 8.11 0.78 12.26
4/14/2021 2:30:00 PM 12.39 54.302 0.391 8.12 0.93 12.28
4/14/2021 2:45:00 PM 12.44 54.392 0.391 8.14 1.06 12.31
4/14/2021 3:00:00 PM 12.49 54.482 0.391 8.16 1.18 12.36
4/14/2021 3:15:00 PM 12.54 54.572 0.391 8.18 2.34 12.39
4/14/2021 3:30:00 PM 12.55 54.59 0.391 8.17 0.89 12.29
4/14/2021 3:45:00 PM 12.55 54.59 0.391 8.17 0.64 12.2
4/14/2021 4:00:00 PM 12.54 54.572 0.39 8.15 0.6 12.06
4/14/2021 4:15:00 PM 12.54 54.572 0.392 8.15 0.88 12
4/14/2021 4:30:00 PM 12.56 54.608 0.391 8.15 1.6 12
4/14/2021 4:45:00 PM 12.6 54.68 0.391 8.17 0.61 12.02
4/14/2021 5:00:00 PM 12.64 54.752 0.39 8.18 3.14 12.04
4/14/2021 5:15:00 PM 12.66 54.788 0.39 8.18 3.57 12.02
4/14/2021 5:30:00 PM 12.68 54.824 0.389 8.18 2.48 11.96
4/14/2021 5:45:00 PM 12.68 54.824 0.391 8.16 4.55 11.82
4/14/2021 6:00:00 PM 12.67 54.806 0.391 8.14 2.65 11.7
4/14/2021 6:15:00 PM 12.66 54.788 0.391 8.12 2.04 11.57
4/14/2021 6:30:00 PM 12.66 54.788 0.391 8.1 1.74 11.45
4/14/2021 6:45:00 PM 12.65 54.77 0.39 8.08 1.27 11.34
4/14/2021 7:00:00 PM 12.65 54.77 0.39 8.06 1.35 11.22
4/14/2021 7:15:00 PM 12.65 54.77 0.392 8.04 0.77 11.09
4/14/2021 7:30:00 PM 12.64 54.752 0.391 8.02 1.34 10.95
4/14/2021 7:45:00 PM 12.63 54.734 0.392 7.99 1.9 10.81
4/14/2021 8:00:00 PM 12.62 54.716 0.391 7.97 1.26 10.68
4/14/2021 8:15:00 PM 12.62 54.716 0.392 7.95 1.68 10.58
4/14/2021 8:30:00 PM 12.6 54.68 0.391 7.93 2.05 10.48
4/14/2021 8:45:00 PM 12.57 54.626 0.391 7.91 1.75 10.4
4/14/2021 9:00:00 PM 12.54 54.572 0.391 7.9 2.11 10.34
4/14/2021 9:15:00 PM 12.51 54.518 0.39 7.88 2.28 10.27
4/14/2021 9:30:00 PM 12.47 54.446 0.392 7.87 3.71 10.21
4/14/2021 9:45:00 PM 12.43 54.374 0.391 7.85 2.28 10.14
4/14/2021 10:00:00 PM 12.4 54.32 0.391 7.84 4.46 10.07
4/14/2021 10:15:00 PM 12.36 54.248 0.391 7.83 2.34 10.01
4/14/2021 10:30:00 PM 12.32 54.176 0.391 7.81 2.48 9.96
4/14/2021 10:45:00 PM 12.28 54.104 0.392 7.8 3.49 9.92
4/14/2021 11:00:00 PM 12.25 54.05 0.391 7.79 2.94 9.87
4/14/2021 11:15:00 PM 12.21 53.978 0.39 7.78 2.66 9.82
4/14/2021 11:30:00 PM 12.17 53.906 0.391 7.77 3.38 9.78
4/14/2021 11:45:00 PM 12.13 53.834 0.392 7.76 2.95 9.75
4/15/2021 12:00:00 AM 12.09 53.762 0.391 7.75 3.12 9.72
4/15/2021 12:15:00 AM 12.04 53.672 0.391 7.75 4.93 9.69
4/15/2021 12:30:00 AM 12 53.6 0.391 7.74 5.95 9.69
4/15/2021 12:45:00 AM 11.95 53.51 0.391 7.73 5.52 9.67
4/15/2021 1:00:00 AM 11.91 53.438 0.391 7.73 2.08 9.65
4/15/2021 1:15:00 AM 11.88 53.384 0.393 7.72 4.96 9.63
4/15/2021 1:30:00 AM 11.85 53.33 0.392 7.72 3.13 9.63
4/15/2021 1:45:00 AM 11.82 53.276 0.392 7.71 3.67 9.62
4/15/2021 2:00:00 AM 11.8 53.24 0.392 7.71 4.02 9.61
4/15/2021 2:15:00 AM 11.77 53.186 0.393 7.7 3.59 9.6
4/15/2021 2:30:00 AM 11.74 53.132 0.392 7.7 3.27 9.59
4/15/2021 2:45:00 AM 11.7 53.06 0.391 7.7 3.39 9.59
4/15/2021 3:00:00 AM 11.66 52.988 0.393 7.7 3.35 9.58
4/15/2021 3:15:00 AM 11.62 52.916 0.392 7.69 1.87 9.55
4/15/2021 3:30:00 AM 11.57 52.826 0.391 7.69 3.85 9.58
4/15/2021 3:45:00 AM 11.53 52.754 0.392 7.69 4.96 9.57
4/15/2021 4:00:00 AM 11.51 52.718 0.391 7.68 4.18 9.57
4/15/2021 4:15:00 AM 11.49 52.682 0.393 7.68 5.04 9.57
4/15/2021 4:30:00 AM 11.49 52.682 0.392 7.68 3.84 9.57
4/15/2021 4:45:00 AM 11.48 52.664 0.394 7.68 2.9 9.57
4/15/2021 5:00:00 AM 11.48 52.664 0.393 7.68 3.42 9.55
4/15/2021 5:15:00 AM 11.47 52.646 0.393 7.67 1.9 9.56
4/15/2021 5:30:00 AM 11.45 52.61 0.393 7.67 5.64 9.56
4/15/2021 5:45:00 AM 11.44 52.592 0.394 7.67 4.33 9.56
4/15/2021 6:00:00 AM 11.42 52.556 0.394 7.67 13.78 9.56
4/15/2021 6:15:00 AM 11.4 52.52 0.394 7.67 3.22 9.57
4/15/2021 6:30:00 AM 11.39 52.502 0.394 7.67 3.91 9.56
4/15/2021 6:45:00 AM 11.38 52.484 0.394 7.67 2.4 9.57
4/15/2021 7:00:00 AM 11.37 52.466 0.394 7.67 2.49 9.6
4/15/2021 7:15:00 AM 11.36 52.448 0.395 7.67 2.46 9.63
4/15/2021 7:30:00 AM 11.36 52.448 0.394 7.68 2.02 9.66
4/15/2021 7:45:00 AM 11.36 52.448 0.394 7.68 2.25 9.72
4/15/2021 8:00:00 AM 11.36 52.448 0.394 7.69 2.71 9.8
4/15/2021 8:15:00 AM 11.39 52.502 0.395 7.71 1.83 9.96
4/15/2021 8:30:00 AM 11.41 52.538 0.394 7.72 1.85 10.12
4/15/2021 8:45:00 AM 11.45 52.61 0.394 7.75 1.79 10.34
4/15/2021 9:00:00 AM 11.49 52.682 0.395 7.77 1.75 10.52
4/15/2021 9:15:00 AM 11.51 52.718 0.394 7.79 1.35 10.64
4/15/2021 9:30:00 AM 11.53 52.754 0.394 7.8 1.86 10.74
4/15/2021 9:45:00 AM 11.55 52.79 0.393 7.82 1.35 10.88
4/15/2021 10:00:00 AM 11.57 52.826 0.395 7.84 1.86 10.97
4/15/2021 10:15:00 AM 11.58 52.844 0.395 7.85 1.73 11.03
4/15/2021 10:30:00 AM 11.6 52.88 0.394 7.87 0.8 11.15
4/15/2021 10:45:00 AM 11.65 52.97 0.395 7.9 1.23 11.35
4/15/2021 11:00:00 AM 11.7 53.06 0.394 7.92 0.82 11.47
4/15/2021 11:15:00 AM 11.75 53.15 0.393 7.95 0.85 11.6
4/15/2021 11:30:00 AM 11.84 53.312 0.395 7.99 0.6 11.8
4/15/2021 11:45:00 AM 11.97 53.546 0.393 8.03 0.57 12.03
4/15/2021 12:00:00 PM 12.11 53.798 0.393 8.07 0.61 12.17
4/15/2021 12:15:00 PM 12.22 53.996 0.393 8.09 0.59 12.26
4/15/2021 12:30:00 PM 12.28 54.104 0.393 8.12 0.81 12.36
4/15/2021 12:45:00 PM 12.35 54.23 0.393 8.16 0.68 12.48
4/15/2021 1:00:00 PM 12.4 54.32 0.392 8.18 0.99 12.53
4/15/2021 1:15:00 PM 12.48 54.464 0.393 8.21 0.29 12.64
4/15/2021 1:30:00 PM 12.49 54.482 0.393 8.22 0.96 12.6
4/15/2021 1:45:00 PM 12.46 54.428 0.394 8.19 0.9 12.41
4/15/2021 2:00:00 PM 12.5 54.5 0.393 8.2 1.11 12.4
4/15/2021 2:15:00 PM 12.52 54.536 0.394 8.2 0.85 12.29
4/15/2021 2:30:00 PM 12.52 54.536 0.393 8.22 0.74 12.32
4/15/2021 2:45:00 PM 12.59 54.662 0.393 8.26 0.57 12.46
4/15/2021 3:00:00 PM 12.75 54.95 0.393 8.3 2.59 12.62
4/15/2021 3:15:00 PM 12.93 55.274 0.393 8.34 1.6 12.74
4/15/2021 3:30:00 PM 13.02 55.436 0.392 8.36 0.7 12.73
4/15/2021 3:45:00 PM 13.08 55.544 0.392 8.39 0.97 12.78
4/15/2021 4:00:00 PM 13.08 55.544 0.392 8.39 3.22 12.71
4/15/2021 4:15:00 PM 13.08 55.544 0.392 8.4 0.95 12.67
4/15/2021 4:30:00 PM 13.01 55.418 0.392 8.38 0.66 12.48
4/15/2021 4:45:00 PM 12.96 55.328 0.391 8.37 1.15 12.42
4/15/2021 5:00:00 PM 12.95 55.31 0.392 8.38 1.09 12.41
4/15/2021 5:15:00 PM 12.98 55.364 0.393 8.38 1.37 12.39
4/15/2021 5:30:00 PM 13.04 55.472 0.392 8.39 1.53 12.32
4/15/2021 5:45:00 PM 13.06 55.508 0.392 8.39 4.05 12.26
4/15/2021 6:00:00 PM 13.05 55.49 0.392 8.38 2.01 12.17
4/15/2021 6:15:00 PM 13.04 55.472 0.392 8.37 0.94 12.07
4/15/2021 6:30:00 PM 12.98 55.364 0.392 8.35 0.37 11.93
4/15/2021 6:45:00 PM 12.92 55.256 0.392 8.33 0.92 11.73
4/15/2021 7:00:00 PM 12.88 55.184 0.393 8.3 0.47 11.6
4/15/2021 7:15:00 PM 12.82 55.076 0.393 8.27 1.13 11.42
4/15/2021 7:30:00 PM 12.77 54.986 0.394 8.23 1.25 11.25
4/15/2021 7:45:00 PM 12.71 54.878 0.393 8.2 0.41 11.05
4/15/2021 8:00:00 PM 12.67 54.806 0.393 8.17 1.17 10.9
4/15/2021 8:15:00 PM 12.62 54.716 0.393 8.14 2.35 10.76
4/15/2021 8:30:00 PM 12.56 54.608 0.393 8.11 1.28 10.65
4/15/2021 8:45:00 PM 12.49 54.482 0.394 8.09 2.51 10.56
4/15/2021 9:00:00 PM 12.42 54.356 0.393 8.07 1.1 10.47
4/15/2021 9:15:00 PM 12.35 54.23 0.394 8.04 2.06 10.4
4/15/2021 9:30:00 PM 12.28 54.104 0.394 8.02 1.81 10.32
4/15/2021 9:45:00 PM 12.21 53.978 0.395 8 1.38 10.24
4/15/2021 10:00:00 PM 12.15 53.87 0.394 7.98 1.33 10.16
4/15/2021 10:15:00 PM 12.09 53.762 0.395 7.96 1.99 10.1
4/15/2021 10:30:00 PM 12.02 53.636 0.395 7.94 1.39 10.03
4/15/2021 10:45:00 PM 11.96 53.528 0.395 7.92 2.06 9.98
4/15/2021 11:00:00 PM 11.89 53.402 0.395 7.9 2.51 9.92
4/15/2021 11:15:00 PM 11.82 53.276 0.396 7.88 1.84 9.87
4/15/2021 11:30:00 PM 11.75 53.15 0.396 7.87 2.46 9.84
4/15/2021 11:45:00 PM 11.68 53.024 0.395 7.86 2.63 9.81
4/16/2021 12:00:00 AM 11.63 52.934 0.396 7.85 2.14 9.77
4/16/2021 12:15:00 AM 11.57 52.826 0.395 7.84 1.91 9.75
4/16/2021 12:30:00 AM 11.51 52.718 0.397 7.82 2.55 9.73
4/16/2021 12:45:00 AM 11.44 52.592 0.395 7.82 2.13 9.69
4/16/2021 1:00:00 AM 11.37 52.466 0.395 7.81 2.18 9.69
4/16/2021 1:15:00 AM 11.31 52.358 0.396 7.8 2.75 9.69
4/16/2021 1:30:00 AM 11.24 52.232 0.397 7.8 1.96 9.69
4/16/2021 1:45:00 AM 11.18 52.124 0.395 7.79 1.92 9.69
4/16/2021 2:00:00 AM 11.11 51.998 0.395 7.79 2.5 9.69
4/16/2021 2:15:00 AM 11.05 51.89 0.396 7.78 1.66 9.68
4/16/2021 2:30:00 AM 10.99 51.782 0.397 7.78 2.43 9.67
4/16/2021 2:45:00 AM 10.92 51.656 0.397 7.77 3.51 9.68
4/16/2021 3:00:00 AM 10.86 51.548 0.396 7.77 1.89 9.68
4/16/2021 3:15:00 AM 10.8 51.44 0.396 7.76 1.8 9.68
4/16/2021 3:30:00 AM 10.75 51.35 0.397 7.76 2.4 9.69
4/16/2021 3:45:00 AM 10.71 51.278 0.397 7.75 2.44 9.69
4/16/2021 4:00:00 AM 10.66 51.188 0.398 7.75 5.79 9.68
4/16/2021 4:15:00 AM 10.61 51.098 0.397 7.75 1.48 9.71
4/16/2021 4:30:00 AM 10.56 51.008 0.397 7.75 4.78 9.71
4/16/2021 4:45:00 AM 10.51 50.918 0.397 7.74 4 9.72
4/16/2021 5:00:00 AM 10.46 50.828 0.397 7.74 2.28 9.74
4/16/2021 5:15:00 AM 10.41 50.738 0.397 7.74 2.5 9.74
4/16/2021 5:30:00 AM 10.34 50.612 0.398 7.73 2.37 9.76
4/16/2021 5:45:00 AM 10.28 50.504 0.398 7.73 2.01 9.76
4/16/2021 6:00:00 AM 10.23 50.414 0.398 7.73 5.86 9.76
4/16/2021 6:15:00 AM 10.18 50.324 0.398 7.73 3.21 9.78
4/16/2021 6:30:00 AM 10.12 50.216 0.399 7.73 2.27 9.79
4/16/2021 6:45:00 AM 10.06 50.108 0.398 7.73 2.84 9.81
4/16/2021 7:00:00 AM 9.99 49.982 0.398 7.73 1.63 9.88
4/16/2021 7:15:00 AM 9.94 49.892 0.398 7.74 1.68 9.96
4/16/2021 7:30:00 AM 9.92 49.856 0.398 7.75 1.04 10.08
4/16/2021 7:45:00 AM 9.91 49.838 0.398 7.76 1.07 10.22
4/16/2021 8:00:00 AM 9.91 49.838 0.398 7.78 0.98 10.35
4/16/2021 8:15:00 AM 9.91 49.838 0.398 7.79 0.6 10.49
4/16/2021 8:30:00 AM 9.91 49.838 0.398 7.81 0.43 10.67
4/16/2021 8:45:00 AM 9.89 49.802 0.399 7.82 -0.15 10.8
4/16/2021 9:00:00 AM 9.9 49.82 0.399 7.85 0.11 11.02
4/16/2021 9:15:00 AM 9.94 49.892 0.398 7.87 -0.02 11.21
4/16/2021 9:30:00 AM 10.01 50.018 0.399 7.9 -0.28 11.4
4/16/2021 9:45:00 AM 10.06 50.108 0.398 7.92 -0.08 11.57